<?xml version="1.0" encoding="UTF-8" standalone="no" ?>
<gpx xmlns="http://www.topografix.com/GPX/1/1" xmlns:xsi="http://www.w3.org/2001/XMLSchema-instance" xsi:schemaLocation="http://www.topografix.com/GPX/1/1 http://www.topografix.com/GPX/1/1/gpx.xsd" version="1.1" creator="VisuGPX - https://www.visugpx.com">
  <metadata>
    <name>83-D-Cotignac</name>
    <desc><![CDATA[83-D-Cotignac : balade autour de Cotignac]]></desc>
  </metadata>
  <trk>
    <name><![CDATA[2016-12-18-D-Cotignac]]></name>
    <trkseg>
      <trkpt lat="43.52463" lon="6.15041">
        <ele>221.8</ele>
        <time>2016-12-18T08:33:47Z</time>
      </trkpt>
      <trkpt lat="43.52463" lon="6.15041">
        <ele>222.1</ele>
        <time>2016-12-18T08:33:48Z</time>
      </trkpt>
      <trkpt lat="43.52468" lon="6.15031">
        <ele>224.2</ele>
        <time>2016-12-18T08:36:04Z</time>
      </trkpt>
      <trkpt lat="43.52477" lon="6.15025">
        <ele>224.2</ele>
        <time>2016-12-18T08:37:00Z</time>
      </trkpt>
      <trkpt lat="43.52485" lon="6.15019">
        <ele>224.3</ele>
        <time>2016-12-18T08:37:09Z</time>
      </trkpt>
      <trkpt lat="43.52491" lon="6.15009">
        <ele>224.5</ele>
        <time>2016-12-18T08:37:22Z</time>
      </trkpt>
      <trkpt lat="43.52496" lon="6.14998">
        <ele>225.2</ele>
        <time>2016-12-18T08:37:33Z</time>
      </trkpt>
      <trkpt lat="43.52499" lon="6.14986">
        <ele>226</ele>
        <time>2016-12-18T08:37:42Z</time>
      </trkpt>
      <trkpt lat="43.52507" lon="6.14979">
        <ele>226.6</ele>
        <time>2016-12-18T08:37:53Z</time>
      </trkpt>
      <trkpt lat="43.52515" lon="6.14972">
        <ele>227.6</ele>
        <time>2016-12-18T08:38:02Z</time>
      </trkpt>
      <trkpt lat="43.52521" lon="6.14963">
        <ele>228</ele>
        <time>2016-12-18T08:38:12Z</time>
      </trkpt>
      <trkpt lat="43.52528" lon="6.14954">
        <ele>228.1</ele>
        <time>2016-12-18T08:38:21Z</time>
      </trkpt>
      <trkpt lat="43.52536" lon="6.14945">
        <ele>228.2</ele>
        <time>2016-12-18T08:38:29Z</time>
      </trkpt>
      <trkpt lat="43.52544" lon="6.14937">
        <ele>228</ele>
        <time>2016-12-18T08:38:38Z</time>
      </trkpt>
      <trkpt lat="43.52549" lon="6.14927">
        <ele>228.1</ele>
        <time>2016-12-18T08:38:46Z</time>
      </trkpt>
      <trkpt lat="43.52549" lon="6.14914">
        <ele>227.9</ele>
        <time>2016-12-18T08:38:52Z</time>
      </trkpt>
      <trkpt lat="43.5254" lon="6.14911">
        <ele>227.5</ele>
        <time>2016-12-18T08:39:09Z</time>
      </trkpt>
      <trkpt lat="43.52533" lon="6.14918">
        <ele>227.7</ele>
        <time>2016-12-18T08:39:22Z</time>
      </trkpt>
      <trkpt lat="43.52526" lon="6.14928">
        <ele>228.3</ele>
        <time>2016-12-18T08:39:30Z</time>
      </trkpt>
      <trkpt lat="43.52518" lon="6.14935">
        <ele>229.3</ele>
        <time>2016-12-18T08:39:39Z</time>
      </trkpt>
      <trkpt lat="43.52508" lon="6.14936">
        <ele>230.7</ele>
        <time>2016-12-18T08:39:49Z</time>
      </trkpt>
      <trkpt lat="43.52499" lon="6.14933">
        <ele>232.3</ele>
        <time>2016-12-18T08:39:59Z</time>
      </trkpt>
      <trkpt lat="43.52489" lon="6.14932">
        <ele>234.5</ele>
        <time>2016-12-18T08:40:11Z</time>
      </trkpt>
      <trkpt lat="43.52479" lon="6.14931">
        <ele>235.7</ele>
        <time>2016-12-18T08:40:21Z</time>
      </trkpt>
      <trkpt lat="43.52471" lon="6.14926">
        <ele>236.2</ele>
        <time>2016-12-18T08:40:28Z</time>
      </trkpt>
      <trkpt lat="43.52461" lon="6.14924">
        <ele>236.5</ele>
        <time>2016-12-18T08:40:36Z</time>
      </trkpt>
      <trkpt lat="43.52452" lon="6.14927">
        <ele>237</ele>
        <time>2016-12-18T08:40:43Z</time>
      </trkpt>
      <trkpt lat="43.52442" lon="6.14927">
        <ele>237.5</ele>
        <time>2016-12-18T08:40:52Z</time>
      </trkpt>
      <trkpt lat="43.52432" lon="6.14929">
        <ele>237.7</ele>
        <time>2016-12-18T08:41:00Z</time>
      </trkpt>
      <trkpt lat="43.52422" lon="6.14932">
        <ele>237.8</ele>
        <time>2016-12-18T08:41:09Z</time>
      </trkpt>
      <trkpt lat="43.52412" lon="6.14932">
        <ele>237.8</ele>
        <time>2016-12-18T08:41:18Z</time>
      </trkpt>
      <trkpt lat="43.52403" lon="6.14933">
        <ele>237.9</ele>
        <time>2016-12-18T08:41:25Z</time>
      </trkpt>
      <trkpt lat="43.52393" lon="6.14934">
        <ele>237.9</ele>
        <time>2016-12-18T08:41:32Z</time>
      </trkpt>
      <trkpt lat="43.52384" lon="6.14935">
        <ele>237.9</ele>
        <time>2016-12-18T08:41:39Z</time>
      </trkpt>
      <trkpt lat="43.52374" lon="6.14932">
        <ele>238.1</ele>
        <time>2016-12-18T08:41:48Z</time>
      </trkpt>
      <trkpt lat="43.52366" lon="6.14927">
        <ele>238.6</ele>
        <time>2016-12-18T08:41:56Z</time>
      </trkpt>
      <trkpt lat="43.52357" lon="6.14921">
        <ele>239.2</ele>
        <time>2016-12-18T08:42:05Z</time>
      </trkpt>
      <trkpt lat="43.52348" lon="6.14918">
        <ele>239.9</ele>
        <time>2016-12-18T08:42:13Z</time>
      </trkpt>
      <trkpt lat="43.52339" lon="6.14914">
        <ele>240.9</ele>
        <time>2016-12-18T08:42:22Z</time>
      </trkpt>
      <trkpt lat="43.5233" lon="6.14916">
        <ele>242.2</ele>
        <time>2016-12-18T08:42:32Z</time>
      </trkpt>
      <trkpt lat="43.52324" lon="6.14927">
        <ele>244</ele>
        <time>2016-12-18T08:42:54Z</time>
      </trkpt>
      <trkpt lat="43.52318" lon="6.14939">
        <ele>244.3</ele>
        <time>2016-12-18T08:43:03Z</time>
      </trkpt>
      <trkpt lat="43.52312" lon="6.14949">
        <ele>244.5</ele>
        <time>2016-12-18T08:43:11Z</time>
      </trkpt>
      <trkpt lat="43.52306" lon="6.14958">
        <ele>244.6</ele>
        <time>2016-12-18T08:43:18Z</time>
      </trkpt>
      <trkpt lat="43.52299" lon="6.14968">
        <ele>244.6</ele>
        <time>2016-12-18T08:43:25Z</time>
      </trkpt>
      <trkpt lat="43.52292" lon="6.14977">
        <ele>244.6</ele>
        <time>2016-12-18T08:43:33Z</time>
      </trkpt>
      <trkpt lat="43.52285" lon="6.14986">
        <ele>244.5</ele>
        <time>2016-12-18T08:43:41Z</time>
      </trkpt>
      <trkpt lat="43.52278" lon="6.14995">
        <ele>244.4</ele>
        <time>2016-12-18T08:43:48Z</time>
      </trkpt>
      <trkpt lat="43.52271" lon="6.15004">
        <ele>244</ele>
        <time>2016-12-18T08:43:55Z</time>
      </trkpt>
      <trkpt lat="43.52265" lon="6.15013">
        <ele>243.8</ele>
        <time>2016-12-18T08:44:02Z</time>
      </trkpt>
      <trkpt lat="43.52257" lon="6.15022">
        <ele>243.5</ele>
        <time>2016-12-18T08:44:10Z</time>
      </trkpt>
      <trkpt lat="43.52249" lon="6.15031">
        <ele>243.3</ele>
        <time>2016-12-18T08:44:18Z</time>
      </trkpt>
      <trkpt lat="43.52242" lon="6.15038">
        <ele>243.1</ele>
        <time>2016-12-18T08:44:25Z</time>
      </trkpt>
      <trkpt lat="43.52234" lon="6.15045">
        <ele>242.8</ele>
        <time>2016-12-18T08:44:32Z</time>
      </trkpt>
      <trkpt lat="43.52226" lon="6.15052">
        <ele>242.4</ele>
        <time>2016-12-18T08:44:39Z</time>
      </trkpt>
      <trkpt lat="43.52219" lon="6.15062">
        <ele>242.1</ele>
        <time>2016-12-18T08:44:47Z</time>
      </trkpt>
      <trkpt lat="43.52214" lon="6.15072">
        <ele>242</ele>
        <time>2016-12-18T08:44:54Z</time>
      </trkpt>
      <trkpt lat="43.52208" lon="6.15082">
        <ele>241.8</ele>
        <time>2016-12-18T08:45:02Z</time>
      </trkpt>
      <trkpt lat="43.522" lon="6.15092">
        <ele>241.8</ele>
        <time>2016-12-18T08:45:10Z</time>
      </trkpt>
      <trkpt lat="43.52195" lon="6.15103">
        <ele>241.7</ele>
        <time>2016-12-18T08:45:18Z</time>
      </trkpt>
      <trkpt lat="43.52189" lon="6.15114">
        <ele>241.6</ele>
        <time>2016-12-18T08:45:26Z</time>
      </trkpt>
      <trkpt lat="43.52182" lon="6.15123">
        <ele>241.5</ele>
        <time>2016-12-18T08:45:33Z</time>
      </trkpt>
      <trkpt lat="43.52176" lon="6.15133">
        <ele>241.4</ele>
        <time>2016-12-18T08:45:40Z</time>
      </trkpt>
      <trkpt lat="43.52169" lon="6.15141">
        <ele>241.2</ele>
        <time>2016-12-18T08:45:47Z</time>
      </trkpt>
      <trkpt lat="43.52161" lon="6.15149">
        <ele>241</ele>
        <time>2016-12-18T08:45:55Z</time>
      </trkpt>
      <trkpt lat="43.52153" lon="6.15156">
        <ele>241.2</ele>
        <time>2016-12-18T08:46:04Z</time>
      </trkpt>
      <trkpt lat="43.52145" lon="6.15162">
        <ele>241.8</ele>
        <time>2016-12-18T08:46:14Z</time>
      </trkpt>
      <trkpt lat="43.52136" lon="6.15168">
        <ele>242.6</ele>
        <time>2016-12-18T08:46:23Z</time>
      </trkpt>
      <trkpt lat="43.52127" lon="6.15174">
        <ele>243.3</ele>
        <time>2016-12-18T08:46:31Z</time>
      </trkpt>
      <trkpt lat="43.52117" lon="6.15175">
        <ele>244.1</ele>
        <time>2016-12-18T08:46:40Z</time>
      </trkpt>
      <trkpt lat="43.5211" lon="6.15182">
        <ele>245</ele>
        <time>2016-12-18T08:46:48Z</time>
      </trkpt>
      <trkpt lat="43.52102" lon="6.15189">
        <ele>246</ele>
        <time>2016-12-18T08:46:57Z</time>
      </trkpt>
      <trkpt lat="43.52093" lon="6.15191">
        <ele>246.9</ele>
        <time>2016-12-18T08:47:06Z</time>
      </trkpt>
      <trkpt lat="43.52085" lon="6.15198">
        <ele>247.8</ele>
        <time>2016-12-18T08:47:15Z</time>
      </trkpt>
      <trkpt lat="43.52079" lon="6.15208">
        <ele>248.7</ele>
        <time>2016-12-18T08:47:24Z</time>
      </trkpt>
      <trkpt lat="43.52071" lon="6.15217">
        <ele>249.5</ele>
        <time>2016-12-18T08:47:32Z</time>
      </trkpt>
      <trkpt lat="43.52063" lon="6.15226">
        <ele>250.3</ele>
        <time>2016-12-18T08:47:39Z</time>
      </trkpt>
      <trkpt lat="43.52056" lon="6.15234">
        <ele>251.4</ele>
        <time>2016-12-18T08:47:48Z</time>
      </trkpt>
      <trkpt lat="43.52047" lon="6.15237">
        <ele>252.7</ele>
        <time>2016-12-18T08:47:57Z</time>
      </trkpt>
      <trkpt lat="43.52038" lon="6.15238">
        <ele>254</ele>
        <time>2016-12-18T08:48:07Z</time>
      </trkpt>
      <trkpt lat="43.52028" lon="6.15244">
        <ele>255.1</ele>
        <time>2016-12-18T08:48:17Z</time>
      </trkpt>
      <trkpt lat="43.5202" lon="6.1525">
        <ele>256</ele>
        <time>2016-12-18T08:48:26Z</time>
      </trkpt>
      <trkpt lat="43.52011" lon="6.15253">
        <ele>256.4</ele>
        <time>2016-12-18T08:48:34Z</time>
      </trkpt>
      <trkpt lat="43.52001" lon="6.15254">
        <ele>256.8</ele>
        <time>2016-12-18T08:48:40Z</time>
      </trkpt>
      <trkpt lat="43.51992" lon="6.15254">
        <ele>257</ele>
        <time>2016-12-18T08:48:47Z</time>
      </trkpt>
      <trkpt lat="43.51984" lon="6.15249">
        <ele>257.3</ele>
        <time>2016-12-18T08:48:54Z</time>
      </trkpt>
      <trkpt lat="43.51975" lon="6.15243">
        <ele>257.8</ele>
        <time>2016-12-18T08:49:03Z</time>
      </trkpt>
      <trkpt lat="43.51968" lon="6.15236">
        <ele>258.4</ele>
        <time>2016-12-18T08:49:10Z</time>
      </trkpt>
      <trkpt lat="43.51961" lon="6.15228">
        <ele>259</ele>
        <time>2016-12-18T08:49:19Z</time>
      </trkpt>
      <trkpt lat="43.51952" lon="6.15221">
        <ele>259.8</ele>
        <time>2016-12-18T08:49:27Z</time>
      </trkpt>
      <trkpt lat="43.51943" lon="6.15216">
        <ele>260.3</ele>
        <time>2016-12-18T08:49:35Z</time>
      </trkpt>
      <trkpt lat="43.51935" lon="6.15211">
        <ele>260.6</ele>
        <time>2016-12-18T08:49:42Z</time>
      </trkpt>
      <trkpt lat="43.51928" lon="6.15201">
        <ele>260.9</ele>
        <time>2016-12-18T08:49:50Z</time>
      </trkpt>
      <trkpt lat="43.51923" lon="6.15189">
        <ele>261</ele>
        <time>2016-12-18T08:49:59Z</time>
      </trkpt>
      <trkpt lat="43.51923" lon="6.15177">
        <ele>261.1</ele>
        <time>2016-12-18T08:50:08Z</time>
      </trkpt>
      <trkpt lat="43.51921" lon="6.15164">
        <ele>261.2</ele>
        <time>2016-12-18T08:50:17Z</time>
      </trkpt>
      <trkpt lat="43.51918" lon="6.15151">
        <ele>261.1</ele>
        <time>2016-12-18T08:50:42Z</time>
      </trkpt>
      <trkpt lat="43.51915" lon="6.15139">
        <ele>260.9</ele>
        <time>2016-12-18T08:50:49Z</time>
      </trkpt>
      <trkpt lat="43.51914" lon="6.15126">
        <ele>260.8</ele>
        <time>2016-12-18T08:50:56Z</time>
      </trkpt>
      <trkpt lat="43.51912" lon="6.15113">
        <ele>260.6</ele>
        <time>2016-12-18T08:51:03Z</time>
      </trkpt>
      <trkpt lat="43.5191" lon="6.15099">
        <ele>260.4</ele>
        <time>2016-12-18T08:51:11Z</time>
      </trkpt>
      <trkpt lat="43.51908" lon="6.15087">
        <ele>260.3</ele>
        <time>2016-12-18T08:51:18Z</time>
      </trkpt>
      <trkpt lat="43.51901" lon="6.15077">
        <ele>260.2</ele>
        <time>2016-12-18T08:51:25Z</time>
      </trkpt>
      <trkpt lat="43.51893" lon="6.15071">
        <ele>260.1</ele>
        <time>2016-12-18T08:51:32Z</time>
      </trkpt>
      <trkpt lat="43.51884" lon="6.15068">
        <ele>260</ele>
        <time>2016-12-18T08:51:39Z</time>
      </trkpt>
      <trkpt lat="43.51874" lon="6.15066">
        <ele>259.5</ele>
        <time>2016-12-18T08:51:47Z</time>
      </trkpt>
      <trkpt lat="43.51865" lon="6.15063">
        <ele>258.9</ele>
        <time>2016-12-18T08:51:54Z</time>
      </trkpt>
      <trkpt lat="43.51856" lon="6.1506">
        <ele>258</ele>
        <time>2016-12-18T08:52:02Z</time>
      </trkpt>
      <trkpt lat="43.51846" lon="6.15056">
        <ele>257.5</ele>
        <time>2016-12-18T08:52:08Z</time>
      </trkpt>
      <trkpt lat="43.51838" lon="6.15052">
        <ele>257</ele>
        <time>2016-12-18T08:52:15Z</time>
      </trkpt>
      <trkpt lat="43.51829" lon="6.15046">
        <ele>256.6</ele>
        <time>2016-12-18T08:52:22Z</time>
      </trkpt>
      <trkpt lat="43.51821" lon="6.15036">
        <ele>256.1</ele>
        <time>2016-12-18T08:52:30Z</time>
      </trkpt>
      <trkpt lat="43.51816" lon="6.15025">
        <ele>255.6</ele>
        <time>2016-12-18T08:52:37Z</time>
      </trkpt>
      <trkpt lat="43.51812" lon="6.15012">
        <ele>255.2</ele>
        <time>2016-12-18T08:52:45Z</time>
      </trkpt>
      <trkpt lat="43.51809" lon="6.15">
        <ele>254.9</ele>
        <time>2016-12-18T08:52:53Z</time>
      </trkpt>
      <trkpt lat="43.518" lon="6.14993">
        <ele>254.7</ele>
        <time>2016-12-18T08:53:01Z</time>
      </trkpt>
      <trkpt lat="43.51792" lon="6.14987">
        <ele>254.4</ele>
        <time>2016-12-18T08:53:09Z</time>
      </trkpt>
      <trkpt lat="43.51783" lon="6.14981">
        <ele>254</ele>
        <time>2016-12-18T08:53:15Z</time>
      </trkpt>
      <trkpt lat="43.51775" lon="6.14977">
        <ele>253.6</ele>
        <time>2016-12-18T08:53:21Z</time>
      </trkpt>
      <trkpt lat="43.51765" lon="6.14972">
        <ele>253</ele>
        <time>2016-12-18T08:53:29Z</time>
      </trkpt>
      <trkpt lat="43.51755" lon="6.1497">
        <ele>252.3</ele>
        <time>2016-12-18T08:53:36Z</time>
      </trkpt>
      <trkpt lat="43.51746" lon="6.14968">
        <ele>251.5</ele>
        <time>2016-12-18T08:53:44Z</time>
      </trkpt>
      <trkpt lat="43.51736" lon="6.14969">
        <ele>250.6</ele>
        <time>2016-12-18T08:53:51Z</time>
      </trkpt>
      <trkpt lat="43.51726" lon="6.14968">
        <ele>250</ele>
        <time>2016-12-18T08:53:58Z</time>
      </trkpt>
      <trkpt lat="43.51716" lon="6.14966">
        <ele>249.3</ele>
        <time>2016-12-18T08:54:06Z</time>
      </trkpt>
      <trkpt lat="43.51707" lon="6.14964">
        <ele>248.7</ele>
        <time>2016-12-18T08:54:14Z</time>
      </trkpt>
      <trkpt lat="43.51699" lon="6.14957">
        <ele>248.2</ele>
        <time>2016-12-18T08:54:21Z</time>
      </trkpt>
      <trkpt lat="43.5169" lon="6.14954">
        <ele>247.6</ele>
        <time>2016-12-18T08:54:28Z</time>
      </trkpt>
      <trkpt lat="43.5168" lon="6.1495">
        <ele>246.5</ele>
        <time>2016-12-18T08:54:36Z</time>
      </trkpt>
      <trkpt lat="43.51672" lon="6.14945">
        <ele>245.6</ele>
        <time>2016-12-18T08:54:43Z</time>
      </trkpt>
      <trkpt lat="43.51663" lon="6.1494">
        <ele>244.6</ele>
        <time>2016-12-18T08:54:51Z</time>
      </trkpt>
      <trkpt lat="43.51655" lon="6.14932">
        <ele>243.8</ele>
        <time>2016-12-18T08:54:57Z</time>
      </trkpt>
      <trkpt lat="43.51646" lon="6.14927">
        <ele>242.9</ele>
        <time>2016-12-18T08:55:04Z</time>
      </trkpt>
      <trkpt lat="43.51638" lon="6.1492">
        <ele>241.8</ele>
        <time>2016-12-18T08:55:12Z</time>
      </trkpt>
      <trkpt lat="43.5163" lon="6.14913">
        <ele>240.7</ele>
        <time>2016-12-18T08:55:19Z</time>
      </trkpt>
      <trkpt lat="43.51621" lon="6.14908">
        <ele>239.8</ele>
        <time>2016-12-18T08:55:25Z</time>
      </trkpt>
      <trkpt lat="43.51612" lon="6.14903">
        <ele>238.6</ele>
        <time>2016-12-18T08:55:34Z</time>
      </trkpt>
      <trkpt lat="43.51603" lon="6.14898">
        <ele>237.7</ele>
        <time>2016-12-18T08:55:42Z</time>
      </trkpt>
      <trkpt lat="43.51595" lon="6.1489">
        <ele>237</ele>
        <time>2016-12-18T08:55:49Z</time>
      </trkpt>
      <trkpt lat="43.51586" lon="6.14883">
        <ele>236.3</ele>
        <time>2016-12-18T08:55:56Z</time>
      </trkpt>
      <trkpt lat="43.51578" lon="6.14875">
        <ele>235.6</ele>
        <time>2016-12-18T08:56:02Z</time>
      </trkpt>
      <trkpt lat="43.5157" lon="6.1487">
        <ele>234.8</ele>
        <time>2016-12-18T08:56:09Z</time>
      </trkpt>
      <trkpt lat="43.51562" lon="6.14863">
        <ele>233.9</ele>
        <time>2016-12-18T08:56:16Z</time>
      </trkpt>
      <trkpt lat="43.51553" lon="6.14859">
        <ele>233.1</ele>
        <time>2016-12-18T08:56:23Z</time>
      </trkpt>
      <trkpt lat="43.51545" lon="6.14855">
        <ele>232.4</ele>
        <time>2016-12-18T08:56:30Z</time>
      </trkpt>
      <trkpt lat="43.51536" lon="6.1485">
        <ele>231.8</ele>
        <time>2016-12-18T08:56:37Z</time>
      </trkpt>
      <trkpt lat="43.51528" lon="6.14843">
        <ele>231.1</ele>
        <time>2016-12-18T08:56:44Z</time>
      </trkpt>
      <trkpt lat="43.5152" lon="6.14835">
        <ele>230.2</ele>
        <time>2016-12-18T08:56:53Z</time>
      </trkpt>
      <trkpt lat="43.51512" lon="6.14831">
        <ele>228.4</ele>
        <time>2016-12-18T08:58:13Z</time>
      </trkpt>
      <trkpt lat="43.51503" lon="6.14827">
        <ele>227.9</ele>
        <time>2016-12-18T08:58:23Z</time>
      </trkpt>
      <trkpt lat="43.51494" lon="6.14823">
        <ele>227.4</ele>
        <time>2016-12-18T08:58:35Z</time>
      </trkpt>
      <trkpt lat="43.51485" lon="6.1482">
        <ele>227.1</ele>
        <time>2016-12-18T08:58:44Z</time>
      </trkpt>
      <trkpt lat="43.51476" lon="6.14819">
        <ele>226.7</ele>
        <time>2016-12-18T08:58:56Z</time>
      </trkpt>
      <trkpt lat="43.51474" lon="6.14807">
        <ele>226.3</ele>
        <time>2016-12-18T08:59:09Z</time>
      </trkpt>
      <trkpt lat="43.51477" lon="6.14794">
        <ele>226.2</ele>
        <time>2016-12-18T08:59:17Z</time>
      </trkpt>
      <trkpt lat="43.51479" lon="6.14781">
        <ele>226</ele>
        <time>2016-12-18T08:59:27Z</time>
      </trkpt>
      <trkpt lat="43.51483" lon="6.14769">
        <ele>226</ele>
        <time>2016-12-18T08:59:37Z</time>
      </trkpt>
      <trkpt lat="43.51487" lon="6.14758">
        <ele>226.1</ele>
        <time>2016-12-18T08:59:48Z</time>
      </trkpt>
      <trkpt lat="43.51493" lon="6.14748">
        <ele>226.9</ele>
        <time>2016-12-18T09:00:00Z</time>
      </trkpt>
      <trkpt lat="43.51494" lon="6.14735">
        <ele>227.5</ele>
        <time>2016-12-18T09:00:09Z</time>
      </trkpt>
      <trkpt lat="43.515" lon="6.14724">
        <ele>228.1</ele>
        <time>2016-12-18T09:00:17Z</time>
      </trkpt>
      <trkpt lat="43.51508" lon="6.14716">
        <ele>228.5</ele>
        <time>2016-12-18T09:00:23Z</time>
      </trkpt>
      <trkpt lat="43.51515" lon="6.14705">
        <ele>229</ele>
        <time>2016-12-18T09:00:31Z</time>
      </trkpt>
      <trkpt lat="43.51524" lon="6.14699">
        <ele>229.5</ele>
        <time>2016-12-18T09:00:37Z</time>
      </trkpt>
      <trkpt lat="43.51528" lon="6.14687">
        <ele>230</ele>
        <time>2016-12-18T09:00:45Z</time>
      </trkpt>
      <trkpt lat="43.51534" lon="6.14677">
        <ele>230.6</ele>
        <time>2016-12-18T09:00:53Z</time>
      </trkpt>
      <trkpt lat="43.51541" lon="6.1467">
        <ele>230.9</ele>
        <time>2016-12-18T09:01:01Z</time>
      </trkpt>
      <trkpt lat="43.5155" lon="6.14664">
        <ele>231.5</ele>
        <time>2016-12-18T09:01:08Z</time>
      </trkpt>
      <trkpt lat="43.51558" lon="6.14657">
        <ele>231.8</ele>
        <time>2016-12-18T09:01:15Z</time>
      </trkpt>
      <trkpt lat="43.51565" lon="6.14649">
        <ele>232.3</ele>
        <time>2016-12-18T09:01:23Z</time>
      </trkpt>
      <trkpt lat="43.51572" lon="6.14639">
        <ele>232.7</ele>
        <time>2016-12-18T09:01:32Z</time>
      </trkpt>
      <trkpt lat="43.51578" lon="6.1463">
        <ele>233.1</ele>
        <time>2016-12-18T09:01:40Z</time>
      </trkpt>
      <trkpt lat="43.51584" lon="6.1462">
        <ele>233.5</ele>
        <time>2016-12-18T09:01:50Z</time>
      </trkpt>
      <trkpt lat="43.51588" lon="6.14609">
        <ele>233.9</ele>
        <time>2016-12-18T09:01:58Z</time>
      </trkpt>
      <trkpt lat="43.51595" lon="6.14599">
        <ele>234.3</ele>
        <time>2016-12-18T09:02:06Z</time>
      </trkpt>
      <trkpt lat="43.516" lon="6.14589">
        <ele>234.8</ele>
        <time>2016-12-18T09:02:14Z</time>
      </trkpt>
      <trkpt lat="43.51605" lon="6.14577">
        <ele>235.8</ele>
        <time>2016-12-18T09:02:25Z</time>
      </trkpt>
      <trkpt lat="43.51611" lon="6.14567">
        <ele>236.4</ele>
        <time>2016-12-18T09:02:34Z</time>
      </trkpt>
      <trkpt lat="43.51618" lon="6.14558">
        <ele>237.3</ele>
        <time>2016-12-18T09:02:54Z</time>
      </trkpt>
      <trkpt lat="43.51625" lon="6.14549">
        <ele>237.8</ele>
        <time>2016-12-18T09:03:03Z</time>
      </trkpt>
      <trkpt lat="43.51631" lon="6.1454">
        <ele>238.1</ele>
        <time>2016-12-18T09:03:12Z</time>
      </trkpt>
      <trkpt lat="43.51638" lon="6.1453">
        <ele>238.5</ele>
        <time>2016-12-18T09:03:23Z</time>
      </trkpt>
      <trkpt lat="43.51643" lon="6.1452">
        <ele>238.8</ele>
        <time>2016-12-18T09:03:32Z</time>
      </trkpt>
      <trkpt lat="43.51647" lon="6.14508">
        <ele>239.3</ele>
        <time>2016-12-18T09:03:41Z</time>
      </trkpt>
      <trkpt lat="43.51654" lon="6.145">
        <ele>239.7</ele>
        <time>2016-12-18T09:03:49Z</time>
      </trkpt>
      <trkpt lat="43.51657" lon="6.14488">
        <ele>240.2</ele>
        <time>2016-12-18T09:03:57Z</time>
      </trkpt>
      <trkpt lat="43.51659" lon="6.14474">
        <ele>240.6</ele>
        <time>2016-12-18T09:04:05Z</time>
      </trkpt>
      <trkpt lat="43.51658" lon="6.14461">
        <ele>241.5</ele>
        <time>2016-12-18T09:04:15Z</time>
      </trkpt>
      <trkpt lat="43.5166" lon="6.14448">
        <ele>242.3</ele>
        <time>2016-12-18T09:04:25Z</time>
      </trkpt>
      <trkpt lat="43.51663" lon="6.14436">
        <ele>243</ele>
        <time>2016-12-18T09:04:35Z</time>
      </trkpt>
      <trkpt lat="43.51668" lon="6.14426">
        <ele>243.4</ele>
        <time>2016-12-18T09:04:43Z</time>
      </trkpt>
      <trkpt lat="43.51671" lon="6.14413">
        <ele>243.9</ele>
        <time>2016-12-18T09:04:52Z</time>
      </trkpt>
      <trkpt lat="43.51678" lon="6.14402">
        <ele>244.4</ele>
        <time>2016-12-18T09:05:02Z</time>
      </trkpt>
      <trkpt lat="43.51684" lon="6.14393">
        <ele>244.9</ele>
        <time>2016-12-18T09:05:12Z</time>
      </trkpt>
      <trkpt lat="43.51687" lon="6.1438">
        <ele>245.2</ele>
        <time>2016-12-18T09:05:17Z</time>
      </trkpt>
      <trkpt lat="43.51694" lon="6.1437">
        <ele>245.5</ele>
        <time>2016-12-18T09:05:26Z</time>
      </trkpt>
      <trkpt lat="43.517" lon="6.1436">
        <ele>246</ele>
        <time>2016-12-18T09:05:35Z</time>
      </trkpt>
      <trkpt lat="43.51707" lon="6.1435">
        <ele>246.7</ele>
        <time>2016-12-18T09:05:45Z</time>
      </trkpt>
      <trkpt lat="43.51712" lon="6.14339">
        <ele>247.4</ele>
        <time>2016-12-18T09:05:54Z</time>
      </trkpt>
      <trkpt lat="43.51719" lon="6.14329">
        <ele>248.1</ele>
        <time>2016-12-18T09:06:04Z</time>
      </trkpt>
      <trkpt lat="43.51726" lon="6.1432">
        <ele>248.8</ele>
        <time>2016-12-18T09:06:14Z</time>
      </trkpt>
      <trkpt lat="43.51733" lon="6.14311">
        <ele>249.5</ele>
        <time>2016-12-18T09:06:22Z</time>
      </trkpt>
      <trkpt lat="43.51737" lon="6.14298">
        <ele>250.1</ele>
        <time>2016-12-18T09:06:31Z</time>
      </trkpt>
      <trkpt lat="43.51738" lon="6.14285">
        <ele>250.9</ele>
        <time>2016-12-18T09:06:41Z</time>
      </trkpt>
      <trkpt lat="43.51741" lon="6.14273">
        <ele>251.7</ele>
        <time>2016-12-18T09:06:49Z</time>
      </trkpt>
      <trkpt lat="43.51745" lon="6.14261">
        <ele>252.2</ele>
        <time>2016-12-18T09:07:00Z</time>
      </trkpt>
      <trkpt lat="43.51753" lon="6.14254">
        <ele>252.6</ele>
        <time>2016-12-18T09:07:06Z</time>
      </trkpt>
      <trkpt lat="43.51761" lon="6.14247">
        <ele>252.9</ele>
        <time>2016-12-18T09:07:13Z</time>
      </trkpt>
      <trkpt lat="43.51768" lon="6.14237">
        <ele>253.4</ele>
        <time>2016-12-18T09:07:22Z</time>
      </trkpt>
      <trkpt lat="43.51771" lon="6.14226">
        <ele>253.8</ele>
        <time>2016-12-18T09:07:30Z</time>
      </trkpt>
      <trkpt lat="43.51773" lon="6.14212">
        <ele>254.5</ele>
        <time>2016-12-18T09:07:39Z</time>
      </trkpt>
      <trkpt lat="43.51779" lon="6.14201">
        <ele>255.1</ele>
        <time>2016-12-18T09:07:47Z</time>
      </trkpt>
      <trkpt lat="43.51783" lon="6.1419">
        <ele>255.9</ele>
        <time>2016-12-18T09:07:56Z</time>
      </trkpt>
      <trkpt lat="43.51784" lon="6.14177">
        <ele>256.4</ele>
        <time>2016-12-18T09:08:04Z</time>
      </trkpt>
      <trkpt lat="43.51783" lon="6.14164">
        <ele>257</ele>
        <time>2016-12-18T09:08:11Z</time>
      </trkpt>
      <trkpt lat="43.51786" lon="6.14151">
        <ele>257.6</ele>
        <time>2016-12-18T09:08:19Z</time>
      </trkpt>
      <trkpt lat="43.5179" lon="6.1414">
        <ele>258.1</ele>
        <time>2016-12-18T09:08:26Z</time>
      </trkpt>
      <trkpt lat="43.51789" lon="6.14126">
        <ele>259</ele>
        <time>2016-12-18T09:08:35Z</time>
      </trkpt>
      <trkpt lat="43.5179" lon="6.14112">
        <ele>259.6</ele>
        <time>2016-12-18T09:08:43Z</time>
      </trkpt>
      <trkpt lat="43.51788" lon="6.14099">
        <ele>260.3</ele>
        <time>2016-12-18T09:08:52Z</time>
      </trkpt>
      <trkpt lat="43.51785" lon="6.14087">
        <ele>261</ele>
        <time>2016-12-18T09:09:00Z</time>
      </trkpt>
      <trkpt lat="43.51784" lon="6.14073">
        <ele>261.6</ele>
        <time>2016-12-18T09:09:09Z</time>
      </trkpt>
      <trkpt lat="43.51781" lon="6.1406">
        <ele>262.1</ele>
        <time>2016-12-18T09:09:18Z</time>
      </trkpt>
      <trkpt lat="43.51781" lon="6.14047">
        <ele>263</ele>
        <time>2016-12-18T09:09:28Z</time>
      </trkpt>
      <trkpt lat="43.51781" lon="6.14034">
        <ele>264</ele>
        <time>2016-12-18T09:09:37Z</time>
      </trkpt>
      <trkpt lat="43.51781" lon="6.14021">
        <ele>265.2</ele>
        <time>2016-12-18T09:09:46Z</time>
      </trkpt>
      <trkpt lat="43.51783" lon="6.14009">
        <ele>266.3</ele>
        <time>2016-12-18T09:09:56Z</time>
      </trkpt>
      <trkpt lat="43.51788" lon="6.13998">
        <ele>267.5</ele>
        <time>2016-12-18T09:10:07Z</time>
      </trkpt>
      <trkpt lat="43.51793" lon="6.13986">
        <ele>268.4</ele>
        <time>2016-12-18T09:10:15Z</time>
      </trkpt>
      <trkpt lat="43.51797" lon="6.13975">
        <ele>269.5</ele>
        <time>2016-12-18T09:10:25Z</time>
      </trkpt>
      <trkpt lat="43.51801" lon="6.13963">
        <ele>270.9</ele>
        <time>2016-12-18T09:10:35Z</time>
      </trkpt>
      <trkpt lat="43.51791" lon="6.13961">
        <ele>273.6</ele>
        <time>2016-12-18T09:11:29Z</time>
      </trkpt>
      <trkpt lat="43.51786" lon="6.13949">
        <ele>274.1</ele>
        <time>2016-12-18T09:11:35Z</time>
      </trkpt>
      <trkpt lat="43.51786" lon="6.13937">
        <ele>275</ele>
        <time>2016-12-18T09:11:44Z</time>
      </trkpt>
      <trkpt lat="43.51782" lon="6.13924">
        <ele>276.5</ele>
        <time>2016-12-18T09:11:56Z</time>
      </trkpt>
      <trkpt lat="43.51781" lon="6.13912">
        <ele>278</ele>
        <time>2016-12-18T09:12:05Z</time>
      </trkpt>
      <trkpt lat="43.51784" lon="6.139">
        <ele>279.4</ele>
        <time>2016-12-18T09:12:13Z</time>
      </trkpt>
      <trkpt lat="43.51783" lon="6.13886">
        <ele>281.9</ele>
        <time>2016-12-18T09:12:28Z</time>
      </trkpt>
      <trkpt lat="43.51782" lon="6.13874">
        <ele>283.3</ele>
        <time>2016-12-18T09:12:37Z</time>
      </trkpt>
      <trkpt lat="43.51781" lon="6.13861">
        <ele>286.1</ele>
        <time>2016-12-18T09:12:56Z</time>
      </trkpt>
      <trkpt lat="43.5178" lon="6.13848">
        <ele>287.5</ele>
        <time>2016-12-18T09:13:06Z</time>
      </trkpt>
      <trkpt lat="43.5178" lon="6.13835">
        <ele>289.1</ele>
        <time>2016-12-18T09:13:15Z</time>
      </trkpt>
      <trkpt lat="43.5178" lon="6.13821">
        <ele>290.6</ele>
        <time>2016-12-18T09:13:24Z</time>
      </trkpt>
      <trkpt lat="43.51777" lon="6.13809">
        <ele>292.5</ele>
        <time>2016-12-18T09:13:35Z</time>
      </trkpt>
      <trkpt lat="43.51774" lon="6.13797">
        <ele>294.2</ele>
        <time>2016-12-18T09:13:47Z</time>
      </trkpt>
      <trkpt lat="43.51769" lon="6.13785">
        <ele>295.3</ele>
        <time>2016-12-18T09:13:56Z</time>
      </trkpt>
      <trkpt lat="43.51765" lon="6.13773">
        <ele>296.4</ele>
        <time>2016-12-18T09:14:06Z</time>
      </trkpt>
      <trkpt lat="43.5176" lon="6.13762">
        <ele>297.3</ele>
        <time>2016-12-18T09:14:15Z</time>
      </trkpt>
      <trkpt lat="43.51759" lon="6.13749">
        <ele>298.2</ele>
        <time>2016-12-18T09:14:25Z</time>
      </trkpt>
      <trkpt lat="43.5176" lon="6.13736">
        <ele>298.8</ele>
        <time>2016-12-18T09:14:37Z</time>
      </trkpt>
      <trkpt lat="43.51764" lon="6.13724">
        <ele>299.4</ele>
        <time>2016-12-18T09:14:48Z</time>
      </trkpt>
      <trkpt lat="43.51766" lon="6.13711">
        <ele>300.5</ele>
        <time>2016-12-18T09:14:59Z</time>
      </trkpt>
      <trkpt lat="43.51768" lon="6.13698">
        <ele>301.7</ele>
        <time>2016-12-18T09:15:10Z</time>
      </trkpt>
      <trkpt lat="43.51771" lon="6.13686">
        <ele>302.5</ele>
        <time>2016-12-18T09:15:19Z</time>
      </trkpt>
      <trkpt lat="43.51772" lon="6.13673">
        <ele>303.5</ele>
        <time>2016-12-18T09:15:31Z</time>
      </trkpt>
      <trkpt lat="43.51777" lon="6.13661">
        <ele>302.1</ele>
        <time>2016-12-18T09:20:08Z</time>
      </trkpt>
      <trkpt lat="43.51781" lon="6.13649">
        <ele>302.4</ele>
        <time>2016-12-18T09:20:24Z</time>
      </trkpt>
      <trkpt lat="43.51785" lon="6.13637">
        <ele>302.9</ele>
        <time>2016-12-18T09:20:37Z</time>
      </trkpt>
      <trkpt lat="43.5179" lon="6.13627">
        <ele>303.6</ele>
        <time>2016-12-18T09:20:49Z</time>
      </trkpt>
      <trkpt lat="43.51797" lon="6.13617">
        <ele>304.2</ele>
        <time>2016-12-18T09:20:59Z</time>
      </trkpt>
      <trkpt lat="43.51806" lon="6.13611">
        <ele>304.8</ele>
        <time>2016-12-18T09:21:08Z</time>
      </trkpt>
      <trkpt lat="43.51814" lon="6.13604">
        <ele>305.6</ele>
        <time>2016-12-18T09:21:19Z</time>
      </trkpt>
      <trkpt lat="43.51821" lon="6.13596">
        <ele>306.3</ele>
        <time>2016-12-18T09:21:28Z</time>
      </trkpt>
      <trkpt lat="43.51829" lon="6.13589">
        <ele>306.9</ele>
        <time>2016-12-18T09:21:36Z</time>
      </trkpt>
      <trkpt lat="43.51838" lon="6.13583">
        <ele>307.8</ele>
        <time>2016-12-18T09:21:47Z</time>
      </trkpt>
      <trkpt lat="43.51847" lon="6.13578">
        <ele>308.4</ele>
        <time>2016-12-18T09:21:56Z</time>
      </trkpt>
      <trkpt lat="43.51856" lon="6.13577">
        <ele>309.2</ele>
        <time>2016-12-18T09:22:05Z</time>
      </trkpt>
      <trkpt lat="43.51864" lon="6.13571">
        <ele>309.9</ele>
        <time>2016-12-18T09:22:14Z</time>
      </trkpt>
      <trkpt lat="43.51873" lon="6.13565">
        <ele>310.5</ele>
        <time>2016-12-18T09:22:25Z</time>
      </trkpt>
      <trkpt lat="43.51882" lon="6.13561">
        <ele>310.9</ele>
        <time>2016-12-18T09:22:33Z</time>
      </trkpt>
      <trkpt lat="43.5189" lon="6.13556">
        <ele>311.3</ele>
        <time>2016-12-18T09:22:41Z</time>
      </trkpt>
      <trkpt lat="43.51898" lon="6.13551">
        <ele>311.6</ele>
        <time>2016-12-18T09:22:50Z</time>
      </trkpt>
      <trkpt lat="43.51906" lon="6.13544">
        <ele>311.9</ele>
        <time>2016-12-18T09:23:00Z</time>
      </trkpt>
      <trkpt lat="43.51915" lon="6.1354">
        <ele>312</ele>
        <time>2016-12-18T09:23:10Z</time>
      </trkpt>
      <trkpt lat="43.51925" lon="6.13538">
        <ele>311.9</ele>
        <time>2016-12-18T09:23:18Z</time>
      </trkpt>
      <trkpt lat="43.51933" lon="6.1353">
        <ele>311.7</ele>
        <time>2016-12-18T09:23:28Z</time>
      </trkpt>
      <trkpt lat="43.51942" lon="6.13523">
        <ele>310.3</ele>
        <time>2016-12-18T09:24:18Z</time>
      </trkpt>
      <trkpt lat="43.51947" lon="6.13512">
        <ele>310.1</ele>
        <time>2016-12-18T09:24:32Z</time>
      </trkpt>
      <trkpt lat="43.51949" lon="6.135">
        <ele>310.4</ele>
        <time>2016-12-18T09:25:17Z</time>
      </trkpt>
      <trkpt lat="43.51954" lon="6.13489">
        <ele>310.4</ele>
        <time>2016-12-18T09:25:25Z</time>
      </trkpt>
      <trkpt lat="43.51957" lon="6.13476">
        <ele>310.9</ele>
        <time>2016-12-18T09:25:32Z</time>
      </trkpt>
      <trkpt lat="43.51961" lon="6.13464">
        <ele>311.7</ele>
        <time>2016-12-18T09:25:40Z</time>
      </trkpt>
      <trkpt lat="43.51967" lon="6.13452">
        <ele>313.2</ele>
        <time>2016-12-18T09:25:49Z</time>
      </trkpt>
      <trkpt lat="43.51972" lon="6.1344">
        <ele>314.9</ele>
        <time>2016-12-18T09:25:58Z</time>
      </trkpt>
      <trkpt lat="43.51979" lon="6.1343">
        <ele>316.3</ele>
        <time>2016-12-18T09:26:06Z</time>
      </trkpt>
      <trkpt lat="43.51987" lon="6.13427">
        <ele>317.5</ele>
        <time>2016-12-18T09:26:13Z</time>
      </trkpt>
      <trkpt lat="43.51997" lon="6.13424">
        <ele>318.8</ele>
        <time>2016-12-18T09:26:22Z</time>
      </trkpt>
      <trkpt lat="43.52004" lon="6.13417">
        <ele>320.4</ele>
        <time>2016-12-18T09:26:32Z</time>
      </trkpt>
      <trkpt lat="43.52012" lon="6.13409">
        <ele>321.9</ele>
        <time>2016-12-18T09:26:44Z</time>
      </trkpt>
      <trkpt lat="43.5202" lon="6.13401">
        <ele>323.2</ele>
        <time>2016-12-18T09:26:56Z</time>
      </trkpt>
      <trkpt lat="43.52028" lon="6.13395">
        <ele>324.1</ele>
        <time>2016-12-18T09:27:05Z</time>
      </trkpt>
      <trkpt lat="43.52037" lon="6.13389">
        <ele>324.9</ele>
        <time>2016-12-18T09:27:15Z</time>
      </trkpt>
      <trkpt lat="43.52045" lon="6.13383">
        <ele>325.6</ele>
        <time>2016-12-18T09:27:25Z</time>
      </trkpt>
      <trkpt lat="43.52052" lon="6.13374">
        <ele>326.7</ele>
        <time>2016-12-18T09:27:37Z</time>
      </trkpt>
      <trkpt lat="43.5206" lon="6.13367">
        <ele>327.6</ele>
        <time>2016-12-18T09:27:47Z</time>
      </trkpt>
      <trkpt lat="43.52066" lon="6.13357">
        <ele>328.3</ele>
        <time>2016-12-18T09:27:57Z</time>
      </trkpt>
      <trkpt lat="43.5207" lon="6.13345">
        <ele>328.9</ele>
        <time>2016-12-18T09:28:07Z</time>
      </trkpt>
      <trkpt lat="43.52073" lon="6.13333">
        <ele>329.9</ele>
        <time>2016-12-18T09:28:19Z</time>
      </trkpt>
      <trkpt lat="43.52077" lon="6.13321">
        <ele>330.9</ele>
        <time>2016-12-18T09:28:30Z</time>
      </trkpt>
      <trkpt lat="43.5208" lon="6.13308">
        <ele>331.6</ele>
        <time>2016-12-18T09:28:40Z</time>
      </trkpt>
      <trkpt lat="43.52084" lon="6.13297">
        <ele>332.5</ele>
        <time>2016-12-18T09:28:50Z</time>
      </trkpt>
      <trkpt lat="43.52087" lon="6.13285">
        <ele>333.7</ele>
        <time>2016-12-18T09:29:01Z</time>
      </trkpt>
      <trkpt lat="43.52089" lon="6.13273">
        <ele>334.4</ele>
        <time>2016-12-18T09:29:11Z</time>
      </trkpt>
      <trkpt lat="43.52089" lon="6.13259">
        <ele>336.3</ele>
        <time>2016-12-18T09:29:23Z</time>
      </trkpt>
      <trkpt lat="43.52094" lon="6.13246">
        <ele>337.6</ele>
        <time>2016-12-18T09:29:34Z</time>
      </trkpt>
      <trkpt lat="43.521" lon="6.13235">
        <ele>339</ele>
        <time>2016-12-18T09:29:49Z</time>
      </trkpt>
      <trkpt lat="43.52104" lon="6.13224">
        <ele>340</ele>
        <time>2016-12-18T09:30:01Z</time>
      </trkpt>
      <trkpt lat="43.52113" lon="6.13219">
        <ele>341</ele>
        <time>2016-12-18T09:30:14Z</time>
      </trkpt>
      <trkpt lat="43.52122" lon="6.13214">
        <ele>341.3</ele>
        <time>2016-12-18T09:30:22Z</time>
      </trkpt>
      <trkpt lat="43.52132" lon="6.13212">
        <ele>341.6</ele>
        <time>2016-12-18T09:30:30Z</time>
      </trkpt>
      <trkpt lat="43.5214" lon="6.13204">
        <ele>342</ele>
        <time>2016-12-18T09:30:37Z</time>
      </trkpt>
      <trkpt lat="43.52149" lon="6.13196">
        <ele>342.7</ele>
        <time>2016-12-18T09:30:46Z</time>
      </trkpt>
      <trkpt lat="43.52158" lon="6.13193">
        <ele>342.9</ele>
        <time>2016-12-18T09:30:52Z</time>
      </trkpt>
      <trkpt lat="43.52168" lon="6.13192">
        <ele>343.3</ele>
        <time>2016-12-18T09:30:58Z</time>
      </trkpt>
      <trkpt lat="43.52177" lon="6.13189">
        <ele>343.6</ele>
        <time>2016-12-18T09:31:05Z</time>
      </trkpt>
      <trkpt lat="43.52186" lon="6.13194">
        <ele>344.1</ele>
        <time>2016-12-18T09:31:15Z</time>
      </trkpt>
      <trkpt lat="43.52192" lon="6.13203">
        <ele>345</ele>
        <time>2016-12-18T09:31:26Z</time>
      </trkpt>
      <trkpt lat="43.52196" lon="6.13215">
        <ele>345.7</ele>
        <time>2016-12-18T09:31:35Z</time>
      </trkpt>
      <trkpt lat="43.52202" lon="6.13227">
        <ele>346.3</ele>
        <time>2016-12-18T09:31:44Z</time>
      </trkpt>
      <trkpt lat="43.52204" lon="6.1324">
        <ele>346.8</ele>
        <time>2016-12-18T09:31:50Z</time>
      </trkpt>
      <trkpt lat="43.52206" lon="6.13254">
        <ele>347.3</ele>
        <time>2016-12-18T09:31:56Z</time>
      </trkpt>
      <trkpt lat="43.52209" lon="6.13266">
        <ele>348.2</ele>
        <time>2016-12-18T09:32:04Z</time>
      </trkpt>
      <trkpt lat="43.52212" lon="6.13279">
        <ele>349</ele>
        <time>2016-12-18T09:32:12Z</time>
      </trkpt>
      <trkpt lat="43.52217" lon="6.1329">
        <ele>349.9</ele>
        <time>2016-12-18T09:32:21Z</time>
      </trkpt>
      <trkpt lat="43.52224" lon="6.13299">
        <ele>350.9</ele>
        <time>2016-12-18T09:32:30Z</time>
      </trkpt>
      <trkpt lat="43.52232" lon="6.13305">
        <ele>351.9</ele>
        <time>2016-12-18T09:32:39Z</time>
      </trkpt>
      <trkpt lat="43.52242" lon="6.133">
        <ele>352.6</ele>
        <time>2016-12-18T09:32:47Z</time>
      </trkpt>
      <trkpt lat="43.52251" lon="6.13294">
        <ele>353.5</ele>
        <time>2016-12-18T09:32:57Z</time>
      </trkpt>
      <trkpt lat="43.52259" lon="6.13287">
        <ele>354.5</ele>
        <time>2016-12-18T09:33:05Z</time>
      </trkpt>
      <trkpt lat="43.52252" lon="6.13278">
        <ele>355.7</ele>
        <time>2016-12-18T09:33:14Z</time>
      </trkpt>
      <trkpt lat="43.52243" lon="6.13274">
        <ele>356.7</ele>
        <time>2016-12-18T09:33:21Z</time>
      </trkpt>
      <trkpt lat="43.52234" lon="6.13268">
        <ele>357.4</ele>
        <time>2016-12-18T09:33:30Z</time>
      </trkpt>
      <trkpt lat="43.52227" lon="6.13259">
        <ele>357.8</ele>
        <time>2016-12-18T09:33:41Z</time>
      </trkpt>
      <trkpt lat="43.52223" lon="6.13248">
        <ele>358.1</ele>
        <time>2016-12-18T09:33:51Z</time>
      </trkpt>
      <trkpt lat="43.52217" lon="6.13237">
        <ele>358.2</ele>
        <time>2016-12-18T09:33:59Z</time>
      </trkpt>
      <trkpt lat="43.52213" lon="6.13225">
        <ele>358.3</ele>
        <time>2016-12-18T09:34:07Z</time>
      </trkpt>
      <trkpt lat="43.5221" lon="6.13213">
        <ele>358.2</ele>
        <time>2016-12-18T09:34:17Z</time>
      </trkpt>
      <trkpt lat="43.52211" lon="6.13199">
        <ele>358.2</ele>
        <time>2016-12-18T09:34:23Z</time>
      </trkpt>
      <trkpt lat="43.5221" lon="6.13183">
        <ele>358.2</ele>
        <time>2016-12-18T09:34:33Z</time>
      </trkpt>
      <trkpt lat="43.52206" lon="6.13169">
        <ele>358.3</ele>
        <time>2016-12-18T09:34:39Z</time>
      </trkpt>
      <trkpt lat="43.52203" lon="6.13157">
        <ele>358.4</ele>
        <time>2016-12-18T09:34:44Z</time>
      </trkpt>
      <trkpt lat="43.52203" lon="6.13142">
        <ele>358.6</ele>
        <time>2016-12-18T09:34:48Z</time>
      </trkpt>
      <trkpt lat="43.522" lon="6.1313">
        <ele>359.3</ele>
        <time>2016-12-18T09:35:00Z</time>
      </trkpt>
      <trkpt lat="43.52188" lon="6.13134">
        <ele>359.7</ele>
        <time>2016-12-18T09:35:06Z</time>
      </trkpt>
      <trkpt lat="43.52179" lon="6.13142">
        <ele>360</ele>
        <time>2016-12-18T09:35:09Z</time>
      </trkpt>
      <trkpt lat="43.52186" lon="6.13131">
        <ele>361.6</ele>
        <time>2016-12-18T09:35:26Z</time>
      </trkpt>
      <trkpt lat="43.52195" lon="6.13128">
        <ele>362.2</ele>
        <time>2016-12-18T09:35:32Z</time>
      </trkpt>
      <trkpt lat="43.52203" lon="6.13119">
        <ele>363</ele>
        <time>2016-12-18T09:35:40Z</time>
      </trkpt>
      <trkpt lat="43.52211" lon="6.13114">
        <ele>363.4</ele>
        <time>2016-12-18T09:35:46Z</time>
      </trkpt>
      <trkpt lat="43.52218" lon="6.13104">
        <ele>363.8</ele>
        <time>2016-12-18T09:35:53Z</time>
      </trkpt>
      <trkpt lat="43.52221" lon="6.13092">
        <ele>364.1</ele>
        <time>2016-12-18T09:36:01Z</time>
      </trkpt>
      <trkpt lat="43.52228" lon="6.13085">
        <ele>364.2</ele>
        <time>2016-12-18T09:36:08Z</time>
      </trkpt>
      <trkpt lat="43.52233" lon="6.13073">
        <ele>364.3</ele>
        <time>2016-12-18T09:36:19Z</time>
      </trkpt>
      <trkpt lat="43.52239" lon="6.13062">
        <ele>364.3</ele>
        <time>2016-12-18T09:36:30Z</time>
      </trkpt>
      <trkpt lat="43.52243" lon="6.1305">
        <ele>364.4</ele>
        <time>2016-12-18T09:36:39Z</time>
      </trkpt>
      <trkpt lat="43.52249" lon="6.1304">
        <ele>364.5</ele>
        <time>2016-12-18T09:36:50Z</time>
      </trkpt>
      <trkpt lat="43.52249" lon="6.13026">
        <ele>361.5</ele>
        <time>2016-12-18T09:44:27Z</time>
      </trkpt>
      <trkpt lat="43.52258" lon="6.13024">
        <ele>361.7</ele>
        <time>2016-12-18T09:44:41Z</time>
      </trkpt>
      <trkpt lat="43.52267" lon="6.13022">
        <ele>361.8</ele>
        <time>2016-12-18T09:44:54Z</time>
      </trkpt>
      <trkpt lat="43.52276" lon="6.1302">
        <ele>361.8</ele>
        <time>2016-12-18T09:45:03Z</time>
      </trkpt>
      <trkpt lat="43.52285" lon="6.13013">
        <ele>361.8</ele>
        <time>2016-12-18T09:45:13Z</time>
      </trkpt>
      <trkpt lat="43.52293" lon="6.13007">
        <ele>361.8</ele>
        <time>2016-12-18T09:45:22Z</time>
      </trkpt>
      <trkpt lat="43.52303" lon="6.13002">
        <ele>361.8</ele>
        <time>2016-12-18T09:45:31Z</time>
      </trkpt>
      <trkpt lat="43.52312" lon="6.13">
        <ele>361.8</ele>
        <time>2016-12-18T09:45:39Z</time>
      </trkpt>
      <trkpt lat="43.52321" lon="6.12995">
        <ele>362</ele>
        <time>2016-12-18T09:45:49Z</time>
      </trkpt>
      <trkpt lat="43.52329" lon="6.12992">
        <ele>362.2</ele>
        <time>2016-12-18T09:45:59Z</time>
      </trkpt>
      <trkpt lat="43.52337" lon="6.12985">
        <ele>362.3</ele>
        <time>2016-12-18T09:46:07Z</time>
      </trkpt>
      <trkpt lat="43.52346" lon="6.12981">
        <ele>362.5</ele>
        <time>2016-12-18T09:46:17Z</time>
      </trkpt>
      <trkpt lat="43.52356" lon="6.12981">
        <ele>362.5</ele>
        <time>2016-12-18T09:46:26Z</time>
      </trkpt>
      <trkpt lat="43.52365" lon="6.12986">
        <ele>362.6</ele>
        <time>2016-12-18T09:46:34Z</time>
      </trkpt>
      <trkpt lat="43.52373" lon="6.12993">
        <ele>363</ele>
        <time>2016-12-18T09:46:43Z</time>
      </trkpt>
      <trkpt lat="43.52383" lon="6.12994">
        <ele>363.3</ele>
        <time>2016-12-18T09:46:52Z</time>
      </trkpt>
      <trkpt lat="43.52391" lon="6.12991">
        <ele>363.5</ele>
        <time>2016-12-18T09:47:00Z</time>
      </trkpt>
      <trkpt lat="43.52401" lon="6.12986">
        <ele>363.8</ele>
        <time>2016-12-18T09:47:08Z</time>
      </trkpt>
      <trkpt lat="43.5241" lon="6.12983">
        <ele>364</ele>
        <time>2016-12-18T09:47:17Z</time>
      </trkpt>
      <trkpt lat="43.5242" lon="6.12981">
        <ele>364.2</ele>
        <time>2016-12-18T09:47:25Z</time>
      </trkpt>
      <trkpt lat="43.52429" lon="6.12982">
        <ele>364.3</ele>
        <time>2016-12-18T09:47:34Z</time>
      </trkpt>
      <trkpt lat="43.52438" lon="6.12982">
        <ele>364.4</ele>
        <time>2016-12-18T09:47:41Z</time>
      </trkpt>
      <trkpt lat="43.52448" lon="6.1298">
        <ele>364.5</ele>
        <time>2016-12-18T09:47:49Z</time>
      </trkpt>
      <trkpt lat="43.52457" lon="6.12979">
        <ele>364.8</ele>
        <time>2016-12-18T09:47:57Z</time>
      </trkpt>
      <trkpt lat="43.52467" lon="6.12977">
        <ele>365</ele>
        <time>2016-12-18T09:48:06Z</time>
      </trkpt>
      <trkpt lat="43.52476" lon="6.12975">
        <ele>365.2</ele>
        <time>2016-12-18T09:48:15Z</time>
      </trkpt>
      <trkpt lat="43.52486" lon="6.12972">
        <ele>365.4</ele>
        <time>2016-12-18T09:48:25Z</time>
      </trkpt>
      <trkpt lat="43.52495" lon="6.12971">
        <ele>365.5</ele>
        <time>2016-12-18T09:48:33Z</time>
      </trkpt>
      <trkpt lat="43.52504" lon="6.12969">
        <ele>365.6</ele>
        <time>2016-12-18T09:48:41Z</time>
      </trkpt>
      <trkpt lat="43.52514" lon="6.1297">
        <ele>365.8</ele>
        <time>2016-12-18T09:48:49Z</time>
      </trkpt>
      <trkpt lat="43.52523" lon="6.12969">
        <ele>366</ele>
        <time>2016-12-18T09:48:57Z</time>
      </trkpt>
      <trkpt lat="43.52532" lon="6.12967">
        <ele>366.1</ele>
        <time>2016-12-18T09:49:05Z</time>
      </trkpt>
      <trkpt lat="43.52541" lon="6.12966">
        <ele>366.2</ele>
        <time>2016-12-18T09:49:13Z</time>
      </trkpt>
      <trkpt lat="43.52551" lon="6.12969">
        <ele>366.3</ele>
        <time>2016-12-18T09:49:23Z</time>
      </trkpt>
      <trkpt lat="43.5256" lon="6.12973">
        <ele>366.5</ele>
        <time>2016-12-18T09:49:32Z</time>
      </trkpt>
      <trkpt lat="43.52569" lon="6.12977">
        <ele>366.8</ele>
        <time>2016-12-18T09:49:40Z</time>
      </trkpt>
      <trkpt lat="43.52577" lon="6.12982">
        <ele>367.3</ele>
        <time>2016-12-18T09:49:50Z</time>
      </trkpt>
      <trkpt lat="43.52584" lon="6.12991">
        <ele>367.7</ele>
        <time>2016-12-18T09:49:59Z</time>
      </trkpt>
      <trkpt lat="43.5259" lon="6.13002">
        <ele>368.1</ele>
        <time>2016-12-18T09:50:07Z</time>
      </trkpt>
      <trkpt lat="43.52597" lon="6.13012">
        <ele>368.6</ele>
        <time>2016-12-18T09:50:16Z</time>
      </trkpt>
      <trkpt lat="43.52605" lon="6.13019">
        <ele>369.2</ele>
        <time>2016-12-18T09:50:24Z</time>
      </trkpt>
      <trkpt lat="43.52613" lon="6.13027">
        <ele>369.7</ele>
        <time>2016-12-18T09:50:32Z</time>
      </trkpt>
      <trkpt lat="43.5262" lon="6.13036">
        <ele>370</ele>
        <time>2016-12-18T09:50:41Z</time>
      </trkpt>
      <trkpt lat="43.52627" lon="6.13045">
        <ele>370.4</ele>
        <time>2016-12-18T09:50:50Z</time>
      </trkpt>
      <trkpt lat="43.52633" lon="6.13056">
        <ele>370.7</ele>
        <time>2016-12-18T09:50:59Z</time>
      </trkpt>
      <trkpt lat="43.52636" lon="6.13068">
        <ele>371</ele>
        <time>2016-12-18T09:51:09Z</time>
      </trkpt>
      <trkpt lat="43.52639" lon="6.13081">
        <ele>371.1</ele>
        <time>2016-12-18T09:51:17Z</time>
      </trkpt>
      <trkpt lat="43.52642" lon="6.13093">
        <ele>371.2</ele>
        <time>2016-12-18T09:51:25Z</time>
      </trkpt>
      <trkpt lat="43.52646" lon="6.13105">
        <ele>371.3</ele>
        <time>2016-12-18T09:51:33Z</time>
      </trkpt>
      <trkpt lat="43.5265" lon="6.13117">
        <ele>371.4</ele>
        <time>2016-12-18T09:51:41Z</time>
      </trkpt>
      <trkpt lat="43.52655" lon="6.13128">
        <ele>371.5</ele>
        <time>2016-12-18T09:51:51Z</time>
      </trkpt>
      <trkpt lat="43.52661" lon="6.13138">
        <ele>371.6</ele>
        <time>2016-12-18T09:52:00Z</time>
      </trkpt>
      <trkpt lat="43.52668" lon="6.13147">
        <ele>371.6</ele>
        <time>2016-12-18T09:52:07Z</time>
      </trkpt>
      <trkpt lat="43.52674" lon="6.13156">
        <ele>371.6</ele>
        <time>2016-12-18T09:52:16Z</time>
      </trkpt>
      <trkpt lat="43.52679" lon="6.13168">
        <ele>371.6</ele>
        <time>2016-12-18T09:52:24Z</time>
      </trkpt>
      <trkpt lat="43.52685" lon="6.13178">
        <ele>371.6</ele>
        <time>2016-12-18T09:52:32Z</time>
      </trkpt>
      <trkpt lat="43.52692" lon="6.13188">
        <ele>371.6</ele>
        <time>2016-12-18T09:52:41Z</time>
      </trkpt>
      <trkpt lat="43.52699" lon="6.13196">
        <ele>371.6</ele>
        <time>2016-12-18T09:52:48Z</time>
      </trkpt>
      <trkpt lat="43.52707" lon="6.13204">
        <ele>371.6</ele>
        <time>2016-12-18T09:52:56Z</time>
      </trkpt>
      <trkpt lat="43.52712" lon="6.13215">
        <ele>371.7</ele>
        <time>2016-12-18T09:53:04Z</time>
      </trkpt>
      <trkpt lat="43.52718" lon="6.13225">
        <ele>371.7</ele>
        <time>2016-12-18T09:53:12Z</time>
      </trkpt>
      <trkpt lat="43.52724" lon="6.13235">
        <ele>372</ele>
        <time>2016-12-18T09:53:20Z</time>
      </trkpt>
      <trkpt lat="43.5273" lon="6.13246">
        <ele>372.3</ele>
        <time>2016-12-18T09:53:29Z</time>
      </trkpt>
      <trkpt lat="43.52736" lon="6.13256">
        <ele>372.4</ele>
        <time>2016-12-18T09:53:38Z</time>
      </trkpt>
      <trkpt lat="43.52743" lon="6.13266">
        <ele>372.5</ele>
        <time>2016-12-18T09:53:46Z</time>
      </trkpt>
      <trkpt lat="43.5275" lon="6.13277">
        <ele>372.5</ele>
        <time>2016-12-18T09:53:53Z</time>
      </trkpt>
      <trkpt lat="43.52759" lon="6.13282">
        <ele>372.5</ele>
        <time>2016-12-18T09:54:02Z</time>
      </trkpt>
      <trkpt lat="43.52768" lon="6.13287">
        <ele>372.5</ele>
        <time>2016-12-18T09:54:11Z</time>
      </trkpt>
      <trkpt lat="43.52777" lon="6.13293">
        <ele>372.5</ele>
        <time>2016-12-18T09:54:19Z</time>
      </trkpt>
      <trkpt lat="43.52786" lon="6.13298">
        <ele>372.5</ele>
        <time>2016-12-18T09:54:27Z</time>
      </trkpt>
      <trkpt lat="43.52795" lon="6.133">
        <ele>372.5</ele>
        <time>2016-12-18T09:54:35Z</time>
      </trkpt>
      <trkpt lat="43.52804" lon="6.13306">
        <ele>372.5</ele>
        <time>2016-12-18T09:54:45Z</time>
      </trkpt>
      <trkpt lat="43.52813" lon="6.13307">
        <ele>372.5</ele>
        <time>2016-12-18T09:54:54Z</time>
      </trkpt>
      <trkpt lat="43.52822" lon="6.13312">
        <ele>372.5</ele>
        <time>2016-12-18T09:55:03Z</time>
      </trkpt>
      <trkpt lat="43.52831" lon="6.13317">
        <ele>372.5</ele>
        <time>2016-12-18T09:55:12Z</time>
      </trkpt>
      <trkpt lat="43.5284" lon="6.13321">
        <ele>372.6</ele>
        <time>2016-12-18T09:55:22Z</time>
      </trkpt>
      <trkpt lat="43.52849" lon="6.13326">
        <ele>372.8</ele>
        <time>2016-12-18T09:56:22Z</time>
      </trkpt>
      <trkpt lat="43.52859" lon="6.13325">
        <ele>372.8</ele>
        <time>2016-12-18T09:56:28Z</time>
      </trkpt>
      <trkpt lat="43.52868" lon="6.13319">
        <ele>372.9</ele>
        <time>2016-12-18T09:56:42Z</time>
      </trkpt>
      <trkpt lat="43.52876" lon="6.13313">
        <ele>372.9</ele>
        <time>2016-12-18T09:56:52Z</time>
      </trkpt>
      <trkpt lat="43.52886" lon="6.13309">
        <ele>372.6</ele>
        <time>2016-12-18T09:57:02Z</time>
      </trkpt>
      <trkpt lat="43.52894" lon="6.13302">
        <ele>372.4</ele>
        <time>2016-12-18T09:57:12Z</time>
      </trkpt>
      <trkpt lat="43.52902" lon="6.13297">
        <ele>372.2</ele>
        <time>2016-12-18T09:57:21Z</time>
      </trkpt>
      <trkpt lat="43.5291" lon="6.13291">
        <ele>372.1</ele>
        <time>2016-12-18T09:57:30Z</time>
      </trkpt>
      <trkpt lat="43.52919" lon="6.13287">
        <ele>372</ele>
        <time>2016-12-18T09:57:40Z</time>
      </trkpt>
      <trkpt lat="43.52928" lon="6.13281">
        <ele>372</ele>
        <time>2016-12-18T09:57:49Z</time>
      </trkpt>
      <trkpt lat="43.52937" lon="6.13277">
        <ele>372</ele>
        <time>2016-12-18T09:57:58Z</time>
      </trkpt>
      <trkpt lat="43.52946" lon="6.13272">
        <ele>372</ele>
        <time>2016-12-18T09:58:06Z</time>
      </trkpt>
      <trkpt lat="43.52955" lon="6.13267">
        <ele>372</ele>
        <time>2016-12-18T09:58:15Z</time>
      </trkpt>
      <trkpt lat="43.52963" lon="6.1326">
        <ele>372</ele>
        <time>2016-12-18T09:58:24Z</time>
      </trkpt>
      <trkpt lat="43.52971" lon="6.13253">
        <ele>372</ele>
        <time>2016-12-18T09:58:33Z</time>
      </trkpt>
      <trkpt lat="43.52979" lon="6.13245">
        <ele>372</ele>
        <time>2016-12-18T09:58:43Z</time>
      </trkpt>
      <trkpt lat="43.52988" lon="6.13241">
        <ele>372</ele>
        <time>2016-12-18T09:58:51Z</time>
      </trkpt>
      <trkpt lat="43.52997" lon="6.13234">
        <ele>372</ele>
        <time>2016-12-18T09:59:00Z</time>
      </trkpt>
      <trkpt lat="43.53006" lon="6.13232">
        <ele>372</ele>
        <time>2016-12-18T09:59:08Z</time>
      </trkpt>
      <trkpt lat="43.53014" lon="6.13226">
        <ele>372.1</ele>
        <time>2016-12-18T09:59:18Z</time>
      </trkpt>
      <trkpt lat="43.53023" lon="6.13219">
        <ele>372.2</ele>
        <time>2016-12-18T09:59:27Z</time>
      </trkpt>
      <trkpt lat="43.53031" lon="6.13212">
        <ele>372.3</ele>
        <time>2016-12-18T09:59:35Z</time>
      </trkpt>
      <trkpt lat="43.53039" lon="6.13204">
        <ele>372.4</ele>
        <time>2016-12-18T09:59:44Z</time>
      </trkpt>
      <trkpt lat="43.53046" lon="6.13194">
        <ele>372.6</ele>
        <time>2016-12-18T09:59:53Z</time>
      </trkpt>
      <trkpt lat="43.53054" lon="6.13186">
        <ele>372.7</ele>
        <time>2016-12-18T10:00:00Z</time>
      </trkpt>
      <trkpt lat="43.53056" lon="6.13173">
        <ele>372.9</ele>
        <time>2016-12-18T10:00:08Z</time>
      </trkpt>
      <trkpt lat="43.53059" lon="6.13161">
        <ele>373.3</ele>
        <time>2016-12-18T10:00:17Z</time>
      </trkpt>
      <trkpt lat="43.53064" lon="6.1315">
        <ele>373.6</ele>
        <time>2016-12-18T10:00:26Z</time>
      </trkpt>
      <trkpt lat="43.5307" lon="6.1314">
        <ele>373.9</ele>
        <time>2016-12-18T10:00:35Z</time>
      </trkpt>
      <trkpt lat="43.53075" lon="6.13129">
        <ele>374.1</ele>
        <time>2016-12-18T10:00:42Z</time>
      </trkpt>
      <trkpt lat="43.53081" lon="6.13118">
        <ele>374.5</ele>
        <time>2016-12-18T10:00:51Z</time>
      </trkpt>
      <trkpt lat="43.53087" lon="6.13109">
        <ele>374.7</ele>
        <time>2016-12-18T10:01:00Z</time>
      </trkpt>
      <trkpt lat="43.53094" lon="6.13101">
        <ele>374.8</ele>
        <time>2016-12-18T10:01:08Z</time>
      </trkpt>
      <trkpt lat="43.53101" lon="6.13092">
        <ele>374.8</ele>
        <time>2016-12-18T10:01:16Z</time>
      </trkpt>
      <trkpt lat="43.53107" lon="6.13083">
        <ele>374.9</ele>
        <time>2016-12-18T10:01:24Z</time>
      </trkpt>
      <trkpt lat="43.53114" lon="6.13073">
        <ele>374.8</ele>
        <time>2016-12-18T10:01:33Z</time>
      </trkpt>
      <trkpt lat="43.53119" lon="6.13062">
        <ele>374.8</ele>
        <time>2016-12-18T10:01:41Z</time>
      </trkpt>
      <trkpt lat="43.53126" lon="6.13053">
        <ele>374.8</ele>
        <time>2016-12-18T10:01:49Z</time>
      </trkpt>
      <trkpt lat="43.53134" lon="6.13045">
        <ele>374.5</ele>
        <time>2016-12-18T10:01:58Z</time>
      </trkpt>
      <trkpt lat="43.53141" lon="6.13038">
        <ele>374.2</ele>
        <time>2016-12-18T10:02:07Z</time>
      </trkpt>
      <trkpt lat="43.53149" lon="6.13029">
        <ele>373.8</ele>
        <time>2016-12-18T10:02:18Z</time>
      </trkpt>
      <trkpt lat="43.53157" lon="6.13022">
        <ele>373.5</ele>
        <time>2016-12-18T10:02:26Z</time>
      </trkpt>
      <trkpt lat="43.53165" lon="6.13014">
        <ele>373.2</ele>
        <time>2016-12-18T10:02:36Z</time>
      </trkpt>
      <trkpt lat="43.53173" lon="6.13006">
        <ele>373</ele>
        <time>2016-12-18T10:02:45Z</time>
      </trkpt>
      <trkpt lat="43.53181" lon="6.13">
        <ele>372.6</ele>
        <time>2016-12-18T10:02:52Z</time>
      </trkpt>
      <trkpt lat="43.53188" lon="6.12993">
        <ele>372.4</ele>
        <time>2016-12-18T10:03:00Z</time>
      </trkpt>
      <trkpt lat="43.53197" lon="6.12987">
        <ele>372.2</ele>
        <time>2016-12-18T10:03:08Z</time>
      </trkpt>
      <trkpt lat="43.53206" lon="6.1298">
        <ele>372</ele>
        <time>2016-12-18T10:03:16Z</time>
      </trkpt>
      <trkpt lat="43.53214" lon="6.12975">
        <ele>371.8</ele>
        <time>2016-12-18T10:03:25Z</time>
      </trkpt>
      <trkpt lat="43.53222" lon="6.12969">
        <ele>371.7</ele>
        <time>2016-12-18T10:03:35Z</time>
      </trkpt>
      <trkpt lat="43.5323" lon="6.12962">
        <ele>371.6</ele>
        <time>2016-12-18T10:03:42Z</time>
      </trkpt>
      <trkpt lat="43.53236" lon="6.12952">
        <ele>371.5</ele>
        <time>2016-12-18T10:03:51Z</time>
      </trkpt>
      <trkpt lat="43.53241" lon="6.12941">
        <ele>371.4</ele>
        <time>2016-12-18T10:04:01Z</time>
      </trkpt>
      <trkpt lat="43.53247" lon="6.1293">
        <ele>371.3</ele>
        <time>2016-12-18T10:04:11Z</time>
      </trkpt>
      <trkpt lat="43.53253" lon="6.12921">
        <ele>371.4</ele>
        <time>2016-12-18T10:04:19Z</time>
      </trkpt>
      <trkpt lat="43.5326" lon="6.12912">
        <ele>371.4</ele>
        <time>2016-12-18T10:04:28Z</time>
      </trkpt>
      <trkpt lat="43.53268" lon="6.12904">
        <ele>371.4</ele>
        <time>2016-12-18T10:04:37Z</time>
      </trkpt>
      <trkpt lat="43.53275" lon="6.12895">
        <ele>371.5</ele>
        <time>2016-12-18T10:04:46Z</time>
      </trkpt>
      <trkpt lat="43.53282" lon="6.12887">
        <ele>371.5</ele>
        <time>2016-12-18T10:04:54Z</time>
      </trkpt>
      <trkpt lat="43.5329" lon="6.12878">
        <ele>371.7</ele>
        <time>2016-12-18T10:05:01Z</time>
      </trkpt>
      <trkpt lat="43.53297" lon="6.12869">
        <ele>371.8</ele>
        <time>2016-12-18T10:05:10Z</time>
      </trkpt>
      <trkpt lat="43.53304" lon="6.12861">
        <ele>371.8</ele>
        <time>2016-12-18T10:05:19Z</time>
      </trkpt>
      <trkpt lat="43.53312" lon="6.12852">
        <ele>371.9</ele>
        <time>2016-12-18T10:05:27Z</time>
      </trkpt>
      <trkpt lat="43.5332" lon="6.12845">
        <ele>371.9</ele>
        <time>2016-12-18T10:05:36Z</time>
      </trkpt>
      <trkpt lat="43.53327" lon="6.12838">
        <ele>372</ele>
        <time>2016-12-18T10:05:45Z</time>
      </trkpt>
      <trkpt lat="43.53335" lon="6.1283">
        <ele>372.2</ele>
        <time>2016-12-18T10:05:52Z</time>
      </trkpt>
      <trkpt lat="43.53343" lon="6.12823">
        <ele>372.5</ele>
        <time>2016-12-18T10:06:00Z</time>
      </trkpt>
      <trkpt lat="43.53349" lon="6.12814">
        <ele>372.7</ele>
        <time>2016-12-18T10:06:09Z</time>
      </trkpt>
      <trkpt lat="43.53357" lon="6.12806">
        <ele>372.9</ele>
        <time>2016-12-18T10:06:18Z</time>
      </trkpt>
      <trkpt lat="43.53364" lon="6.12796">
        <ele>373</ele>
        <time>2016-12-18T10:06:26Z</time>
      </trkpt>
      <trkpt lat="43.53369" lon="6.12785">
        <ele>373</ele>
        <time>2016-12-18T10:06:35Z</time>
      </trkpt>
      <trkpt lat="43.53373" lon="6.12774">
        <ele>373.2</ele>
        <time>2016-12-18T10:06:44Z</time>
      </trkpt>
      <trkpt lat="43.53376" lon="6.12761">
        <ele>373.4</ele>
        <time>2016-12-18T10:06:53Z</time>
      </trkpt>
      <trkpt lat="43.53378" lon="6.12749">
        <ele>373.6</ele>
        <time>2016-12-18T10:07:00Z</time>
      </trkpt>
      <trkpt lat="43.53385" lon="6.12739">
        <ele>374.1</ele>
        <time>2016-12-18T10:07:10Z</time>
      </trkpt>
      <trkpt lat="43.53393" lon="6.12733">
        <ele>374.5</ele>
        <time>2016-12-18T10:07:18Z</time>
      </trkpt>
      <trkpt lat="43.53402" lon="6.12726">
        <ele>375.1</ele>
        <time>2016-12-18T10:07:28Z</time>
      </trkpt>
      <trkpt lat="43.5341" lon="6.1272">
        <ele>375.4</ele>
        <time>2016-12-18T10:07:36Z</time>
      </trkpt>
      <trkpt lat="43.53419" lon="6.12716">
        <ele>375.7</ele>
        <time>2016-12-18T10:07:44Z</time>
      </trkpt>
      <trkpt lat="43.53428" lon="6.12713">
        <ele>375.8</ele>
        <time>2016-12-18T10:07:52Z</time>
      </trkpt>
      <trkpt lat="43.53436" lon="6.12706">
        <ele>375.9</ele>
        <time>2016-12-18T10:07:59Z</time>
      </trkpt>
      <trkpt lat="43.53445" lon="6.127">
        <ele>376.1</ele>
        <time>2016-12-18T10:08:08Z</time>
      </trkpt>
      <trkpt lat="43.53454" lon="6.12694">
        <ele>376.3</ele>
        <time>2016-12-18T10:08:17Z</time>
      </trkpt>
      <trkpt lat="43.53463" lon="6.12689">
        <ele>376.4</ele>
        <time>2016-12-18T10:08:25Z</time>
      </trkpt>
      <trkpt lat="43.53472" lon="6.12684">
        <ele>376.7</ele>
        <time>2016-12-18T10:08:34Z</time>
      </trkpt>
      <trkpt lat="43.53475" lon="6.12672">
        <ele>377.2</ele>
        <time>2016-12-18T10:08:50Z</time>
      </trkpt>
      <trkpt lat="43.53466" lon="6.12665">
        <ele>377.4</ele>
        <time>2016-12-18T10:08:57Z</time>
      </trkpt>
      <trkpt lat="43.53473" lon="6.12673">
        <ele>378.8</ele>
        <time>2016-12-18T10:09:52Z</time>
      </trkpt>
      <trkpt lat="43.53476" lon="6.12694">
        <ele>378.4</ele>
        <time>2016-12-18T10:12:15Z</time>
      </trkpt>
      <trkpt lat="43.53477" lon="6.12681">
        <ele>378.4</ele>
        <time>2016-12-18T10:12:45Z</time>
      </trkpt>
      <trkpt lat="43.53475" lon="6.12668">
        <ele>378.4</ele>
        <time>2016-12-18T10:12:57Z</time>
      </trkpt>
      <trkpt lat="43.5347" lon="6.12658">
        <ele>378.4</ele>
        <time>2016-12-18T10:13:07Z</time>
      </trkpt>
      <trkpt lat="43.53466" lon="6.12646">
        <ele>378.5</ele>
        <time>2016-12-18T10:13:16Z</time>
      </trkpt>
      <trkpt lat="43.53462" lon="6.12634">
        <ele>378.6</ele>
        <time>2016-12-18T10:13:28Z</time>
      </trkpt>
      <trkpt lat="43.5346" lon="6.12621">
        <ele>378.7</ele>
        <time>2016-12-18T10:13:39Z</time>
      </trkpt>
      <trkpt lat="43.53455" lon="6.12609">
        <ele>378.9</ele>
        <time>2016-12-18T10:13:47Z</time>
      </trkpt>
      <trkpt lat="43.53447" lon="6.126">
        <ele>379.1</ele>
        <time>2016-12-18T10:13:55Z</time>
      </trkpt>
      <trkpt lat="43.53442" lon="6.1259">
        <ele>379.2</ele>
        <time>2016-12-18T10:14:04Z</time>
      </trkpt>
      <trkpt lat="43.53436" lon="6.1258">
        <ele>379.4</ele>
        <time>2016-12-18T10:14:12Z</time>
      </trkpt>
      <trkpt lat="43.53428" lon="6.12571">
        <ele>379.6</ele>
        <time>2016-12-18T10:14:20Z</time>
      </trkpt>
      <trkpt lat="43.53422" lon="6.12562">
        <ele>379.7</ele>
        <time>2016-12-18T10:14:27Z</time>
      </trkpt>
      <trkpt lat="43.53414" lon="6.12556">
        <ele>379.8</ele>
        <time>2016-12-18T10:14:35Z</time>
      </trkpt>
      <trkpt lat="43.53405" lon="6.12549">
        <ele>379.9</ele>
        <time>2016-12-18T10:14:44Z</time>
      </trkpt>
      <trkpt lat="43.53398" lon="6.12542">
        <ele>379.9</ele>
        <time>2016-12-18T10:14:52Z</time>
      </trkpt>
      <trkpt lat="43.53389" lon="6.12536">
        <ele>380</ele>
        <time>2016-12-18T10:15:00Z</time>
      </trkpt>
      <trkpt lat="43.53381" lon="6.12528">
        <ele>380.2</ele>
        <time>2016-12-18T10:15:09Z</time>
      </trkpt>
      <trkpt lat="43.53372" lon="6.12522">
        <ele>380.3</ele>
        <time>2016-12-18T10:15:17Z</time>
      </trkpt>
      <trkpt lat="43.53364" lon="6.12517">
        <ele>380.4</ele>
        <time>2016-12-18T10:15:27Z</time>
      </trkpt>
      <trkpt lat="43.53356" lon="6.12507">
        <ele>380.4</ele>
        <time>2016-12-18T10:15:36Z</time>
      </trkpt>
      <trkpt lat="43.53349" lon="6.12501">
        <ele>380.4</ele>
        <time>2016-12-18T10:15:44Z</time>
      </trkpt>
      <trkpt lat="43.53341" lon="6.12493">
        <ele>380.5</ele>
        <time>2016-12-18T10:15:51Z</time>
      </trkpt>
      <trkpt lat="43.53333" lon="6.12487">
        <ele>380.6</ele>
        <time>2016-12-18T10:15:59Z</time>
      </trkpt>
      <trkpt lat="43.53324" lon="6.12481">
        <ele>380.8</ele>
        <time>2016-12-18T10:16:07Z</time>
      </trkpt>
      <trkpt lat="43.53316" lon="6.12475">
        <ele>380.9</ele>
        <time>2016-12-18T10:16:14Z</time>
      </trkpt>
      <trkpt lat="43.53308" lon="6.12468">
        <ele>381</ele>
        <time>2016-12-18T10:16:22Z</time>
      </trkpt>
      <trkpt lat="43.533" lon="6.12461">
        <ele>381.1</ele>
        <time>2016-12-18T10:16:30Z</time>
      </trkpt>
      <trkpt lat="43.53291" lon="6.12455">
        <ele>381.2</ele>
        <time>2016-12-18T10:16:40Z</time>
      </trkpt>
      <trkpt lat="43.53282" lon="6.12448">
        <ele>381.2</ele>
        <time>2016-12-18T10:16:48Z</time>
      </trkpt>
      <trkpt lat="43.53275" lon="6.12439">
        <ele>381.3</ele>
        <time>2016-12-18T10:16:56Z</time>
      </trkpt>
      <trkpt lat="43.53267" lon="6.1243">
        <ele>381.4</ele>
        <time>2016-12-18T10:17:04Z</time>
      </trkpt>
      <trkpt lat="43.5326" lon="6.12421">
        <ele>381.4</ele>
        <time>2016-12-18T10:17:12Z</time>
      </trkpt>
      <trkpt lat="43.53253" lon="6.12413">
        <ele>381.4</ele>
        <time>2016-12-18T10:17:22Z</time>
      </trkpt>
      <trkpt lat="43.53245" lon="6.12405">
        <ele>381.5</ele>
        <time>2016-12-18T10:17:30Z</time>
      </trkpt>
      <trkpt lat="43.53238" lon="6.12397">
        <ele>381.5</ele>
        <time>2016-12-18T10:17:37Z</time>
      </trkpt>
      <trkpt lat="43.5323" lon="6.12389">
        <ele>381.5</ele>
        <time>2016-12-18T10:17:46Z</time>
      </trkpt>
      <trkpt lat="43.53223" lon="6.1238">
        <ele>381.5</ele>
        <time>2016-12-18T10:17:55Z</time>
      </trkpt>
      <trkpt lat="43.53215" lon="6.12371">
        <ele>381.5</ele>
        <time>2016-12-18T10:18:03Z</time>
      </trkpt>
      <trkpt lat="43.53207" lon="6.12364">
        <ele>381.4</ele>
        <time>2016-12-18T10:18:11Z</time>
      </trkpt>
      <trkpt lat="43.53199" lon="6.12355">
        <ele>381.1</ele>
        <time>2016-12-18T10:18:19Z</time>
      </trkpt>
      <trkpt lat="43.53191" lon="6.12348">
        <ele>380.6</ele>
        <time>2016-12-18T10:18:27Z</time>
      </trkpt>
      <trkpt lat="43.53184" lon="6.12339">
        <ele>380.2</ele>
        <time>2016-12-18T10:18:34Z</time>
      </trkpt>
      <trkpt lat="43.53176" lon="6.12333">
        <ele>379.8</ele>
        <time>2016-12-18T10:18:47Z</time>
      </trkpt>
      <trkpt lat="43.53168" lon="6.12324">
        <ele>379.7</ele>
        <time>2016-12-18T10:18:55Z</time>
      </trkpt>
      <trkpt lat="43.5316" lon="6.12317">
        <ele>379.5</ele>
        <time>2016-12-18T10:19:03Z</time>
      </trkpt>
      <trkpt lat="43.53152" lon="6.12309">
        <ele>379.5</ele>
        <time>2016-12-18T10:19:12Z</time>
      </trkpt>
      <trkpt lat="43.53144" lon="6.123">
        <ele>379.4</ele>
        <time>2016-12-18T10:19:20Z</time>
      </trkpt>
      <trkpt lat="43.53137" lon="6.12293">
        <ele>379.4</ele>
        <time>2016-12-18T10:19:27Z</time>
      </trkpt>
      <trkpt lat="43.5313" lon="6.12285">
        <ele>379.4</ele>
        <time>2016-12-18T10:19:34Z</time>
      </trkpt>
      <trkpt lat="43.53123" lon="6.12277">
        <ele>379.4</ele>
        <time>2016-12-18T10:19:42Z</time>
      </trkpt>
      <trkpt lat="43.53116" lon="6.12269">
        <ele>379.4</ele>
        <time>2016-12-18T10:19:50Z</time>
      </trkpt>
      <trkpt lat="43.53109" lon="6.12259">
        <ele>379.4</ele>
        <time>2016-12-18T10:19:58Z</time>
      </trkpt>
      <trkpt lat="43.53103" lon="6.12249">
        <ele>379.4</ele>
        <time>2016-12-18T10:20:06Z</time>
      </trkpt>
      <trkpt lat="43.53097" lon="6.12239">
        <ele>379.4</ele>
        <time>2016-12-18T10:20:14Z</time>
      </trkpt>
      <trkpt lat="43.53091" lon="6.12228">
        <ele>379.6</ele>
        <time>2016-12-18T10:20:22Z</time>
      </trkpt>
      <trkpt lat="43.53085" lon="6.1222">
        <ele>379.7</ele>
        <time>2016-12-18T10:20:29Z</time>
      </trkpt>
      <trkpt lat="43.53079" lon="6.12209">
        <ele>379.8</ele>
        <time>2016-12-18T10:20:37Z</time>
      </trkpt>
      <trkpt lat="43.53074" lon="6.12198">
        <ele>379.9</ele>
        <time>2016-12-18T10:20:48Z</time>
      </trkpt>
      <trkpt lat="43.53067" lon="6.1219">
        <ele>380.1</ele>
        <time>2016-12-18T10:20:57Z</time>
      </trkpt>
      <trkpt lat="43.5306" lon="6.12182">
        <ele>380.2</ele>
        <time>2016-12-18T10:21:05Z</time>
      </trkpt>
      <trkpt lat="43.53054" lon="6.12171">
        <ele>380.3</ele>
        <time>2016-12-18T10:21:13Z</time>
      </trkpt>
      <trkpt lat="43.53048" lon="6.12161">
        <ele>380.4</ele>
        <time>2016-12-18T10:21:22Z</time>
      </trkpt>
      <trkpt lat="43.53042" lon="6.1215">
        <ele>380.6</ele>
        <time>2016-12-18T10:21:30Z</time>
      </trkpt>
      <trkpt lat="43.53036" lon="6.1214">
        <ele>380.7</ele>
        <time>2016-12-18T10:21:38Z</time>
      </trkpt>
      <trkpt lat="43.53029" lon="6.1213">
        <ele>380.9</ele>
        <time>2016-12-18T10:21:46Z</time>
      </trkpt>
      <trkpt lat="43.53023" lon="6.12119">
        <ele>381</ele>
        <time>2016-12-18T10:21:54Z</time>
      </trkpt>
      <trkpt lat="43.53018" lon="6.12108">
        <ele>381.3</ele>
        <time>2016-12-18T10:22:04Z</time>
      </trkpt>
      <trkpt lat="43.5301" lon="6.121">
        <ele>381.6</ele>
        <time>2016-12-18T10:22:19Z</time>
      </trkpt>
      <trkpt lat="43.53004" lon="6.12091">
        <ele>381.7</ele>
        <time>2016-12-18T10:22:27Z</time>
      </trkpt>
      <trkpt lat="43.52997" lon="6.12082">
        <ele>382</ele>
        <time>2016-12-18T10:22:35Z</time>
      </trkpt>
      <trkpt lat="43.5299" lon="6.12074">
        <ele>382.3</ele>
        <time>2016-12-18T10:22:42Z</time>
      </trkpt>
      <trkpt lat="43.52984" lon="6.12065">
        <ele>382.6</ele>
        <time>2016-12-18T10:22:54Z</time>
      </trkpt>
      <trkpt lat="43.52977" lon="6.12055">
        <ele>383.1</ele>
        <time>2016-12-18T10:23:04Z</time>
      </trkpt>
      <trkpt lat="43.52968" lon="6.12048">
        <ele>383.3</ele>
        <time>2016-12-18T10:23:12Z</time>
      </trkpt>
      <trkpt lat="43.52959" lon="6.12044">
        <ele>383.5</ele>
        <time>2016-12-18T10:23:20Z</time>
      </trkpt>
      <trkpt lat="43.52951" lon="6.12039">
        <ele>383.6</ele>
        <time>2016-12-18T10:23:29Z</time>
      </trkpt>
      <trkpt lat="43.52942" lon="6.12033">
        <ele>383.7</ele>
        <time>2016-12-18T10:23:37Z</time>
      </trkpt>
      <trkpt lat="43.52937" lon="6.12023">
        <ele>383.9</ele>
        <time>2016-12-18T10:23:45Z</time>
      </trkpt>
      <trkpt lat="43.52932" lon="6.1201">
        <ele>384.1</ele>
        <time>2016-12-18T10:23:54Z</time>
      </trkpt>
      <trkpt lat="43.52927" lon="6.11999">
        <ele>384.3</ele>
        <time>2016-12-18T10:24:02Z</time>
      </trkpt>
      <trkpt lat="43.52924" lon="6.11986">
        <ele>384.6</ele>
        <time>2016-12-18T10:24:09Z</time>
      </trkpt>
      <trkpt lat="43.52921" lon="6.11974">
        <ele>384.8</ele>
        <time>2016-12-18T10:24:17Z</time>
      </trkpt>
      <trkpt lat="43.5292" lon="6.11961">
        <ele>385</ele>
        <time>2016-12-18T10:24:25Z</time>
      </trkpt>
      <trkpt lat="43.52921" lon="6.11948">
        <ele>385.3</ele>
        <time>2016-12-18T10:24:34Z</time>
      </trkpt>
      <trkpt lat="43.52925" lon="6.11936">
        <ele>385.7</ele>
        <time>2016-12-18T10:24:43Z</time>
      </trkpt>
      <trkpt lat="43.52926" lon="6.11923">
        <ele>386.6</ele>
        <time>2016-12-18T10:24:55Z</time>
      </trkpt>
      <trkpt lat="43.52924" lon="6.11911">
        <ele>387.5</ele>
        <time>2016-12-18T10:25:15Z</time>
      </trkpt>
      <trkpt lat="43.52922" lon="6.11898">
        <ele>387.7</ele>
        <time>2016-12-18T10:25:23Z</time>
      </trkpt>
      <trkpt lat="43.52919" lon="6.11886">
        <ele>387.9</ele>
        <time>2016-12-18T10:25:30Z</time>
      </trkpt>
      <trkpt lat="43.52914" lon="6.11874">
        <ele>388.2</ele>
        <time>2016-12-18T10:25:39Z</time>
      </trkpt>
      <trkpt lat="43.5291" lon="6.11864">
        <ele>388.6</ele>
        <time>2016-12-18T10:25:51Z</time>
      </trkpt>
      <trkpt lat="43.52903" lon="6.11853">
        <ele>388.7</ele>
        <time>2016-12-18T10:25:59Z</time>
      </trkpt>
      <trkpt lat="43.52898" lon="6.11842">
        <ele>388.8</ele>
        <time>2016-12-18T10:26:08Z</time>
      </trkpt>
      <trkpt lat="43.52892" lon="6.11832">
        <ele>388.7</ele>
        <time>2016-12-18T10:26:16Z</time>
      </trkpt>
      <trkpt lat="43.52887" lon="6.11821">
        <ele>388.4</ele>
        <time>2016-12-18T10:26:24Z</time>
      </trkpt>
      <trkpt lat="43.52882" lon="6.11809">
        <ele>388.1</ele>
        <time>2016-12-18T10:26:32Z</time>
      </trkpt>
      <trkpt lat="43.52876" lon="6.11799">
        <ele>387.6</ele>
        <time>2016-12-18T10:26:40Z</time>
      </trkpt>
      <trkpt lat="43.52871" lon="6.11788">
        <ele>387</ele>
        <time>2016-12-18T10:26:48Z</time>
      </trkpt>
      <trkpt lat="43.52867" lon="6.11777">
        <ele>386.5</ele>
        <time>2016-12-18T10:26:55Z</time>
      </trkpt>
      <trkpt lat="43.5286" lon="6.11767">
        <ele>386</ele>
        <time>2016-12-18T10:27:03Z</time>
      </trkpt>
      <trkpt lat="43.52855" lon="6.11756">
        <ele>385.5</ele>
        <time>2016-12-18T10:27:11Z</time>
      </trkpt>
      <trkpt lat="43.52855" lon="6.11744">
        <ele>385.1</ele>
        <time>2016-12-18T10:27:19Z</time>
      </trkpt>
      <trkpt lat="43.52859" lon="6.11732">
        <ele>384.9</ele>
        <time>2016-12-18T10:27:26Z</time>
      </trkpt>
      <trkpt lat="43.52861" lon="6.11719">
        <ele>384.5</ele>
        <time>2016-12-18T10:27:34Z</time>
      </trkpt>
      <trkpt lat="43.52859" lon="6.11707">
        <ele>384.3</ele>
        <time>2016-12-18T10:27:42Z</time>
      </trkpt>
      <trkpt lat="43.52855" lon="6.11695">
        <ele>384.1</ele>
        <time>2016-12-18T10:27:50Z</time>
      </trkpt>
      <trkpt lat="43.52851" lon="6.11683">
        <ele>384.1</ele>
        <time>2016-12-18T10:27:57Z</time>
      </trkpt>
      <trkpt lat="43.52847" lon="6.11671">
        <ele>384</ele>
        <time>2016-12-18T10:28:05Z</time>
      </trkpt>
      <trkpt lat="43.52844" lon="6.11659">
        <ele>384</ele>
        <time>2016-12-18T10:28:13Z</time>
      </trkpt>
      <trkpt lat="43.52839" lon="6.11648">
        <ele>384</ele>
        <time>2016-12-18T10:28:21Z</time>
      </trkpt>
      <trkpt lat="43.52835" lon="6.11637">
        <ele>384.1</ele>
        <time>2016-12-18T10:28:30Z</time>
      </trkpt>
      <trkpt lat="43.52829" lon="6.11626">
        <ele>384.3</ele>
        <time>2016-12-18T10:28:39Z</time>
      </trkpt>
      <trkpt lat="43.52825" lon="6.11614">
        <ele>384.6</ele>
        <time>2016-12-18T10:28:47Z</time>
      </trkpt>
      <trkpt lat="43.52823" lon="6.11601">
        <ele>385</ele>
        <time>2016-12-18T10:28:55Z</time>
      </trkpt>
      <trkpt lat="43.52821" lon="6.11588">
        <ele>385.4</ele>
        <time>2016-12-18T10:29:03Z</time>
      </trkpt>
      <trkpt lat="43.52821" lon="6.11574">
        <ele>385.9</ele>
        <time>2016-12-18T10:29:13Z</time>
      </trkpt>
      <trkpt lat="43.52823" lon="6.11562">
        <ele>386.2</ele>
        <time>2016-12-18T10:29:22Z</time>
      </trkpt>
      <trkpt lat="43.52824" lon="6.11549">
        <ele>386.4</ele>
        <time>2016-12-18T10:29:30Z</time>
      </trkpt>
      <trkpt lat="43.52825" lon="6.11536">
        <ele>386.8</ele>
        <time>2016-12-18T10:29:39Z</time>
      </trkpt>
      <trkpt lat="43.52828" lon="6.11523">
        <ele>387.1</ele>
        <time>2016-12-18T10:29:49Z</time>
      </trkpt>
      <trkpt lat="43.52831" lon="6.1151">
        <ele>387.2</ele>
        <time>2016-12-18T10:29:58Z</time>
      </trkpt>
      <trkpt lat="43.52833" lon="6.11496">
        <ele>387.2</ele>
        <time>2016-12-18T10:30:07Z</time>
      </trkpt>
      <trkpt lat="43.52836" lon="6.11482">
        <ele>387.3</ele>
        <time>2016-12-18T10:30:15Z</time>
      </trkpt>
      <trkpt lat="43.52839" lon="6.1147">
        <ele>387.3</ele>
        <time>2016-12-18T10:30:23Z</time>
      </trkpt>
      <trkpt lat="43.52843" lon="6.11459">
        <ele>387.3</ele>
        <time>2016-12-18T10:30:30Z</time>
      </trkpt>
      <trkpt lat="43.52848" lon="6.11448">
        <ele>387.3</ele>
        <time>2016-12-18T10:30:38Z</time>
      </trkpt>
      <trkpt lat="43.52854" lon="6.11437">
        <ele>387.3</ele>
        <time>2016-12-18T10:30:46Z</time>
      </trkpt>
      <trkpt lat="43.5286" lon="6.11427">
        <ele>387.3</ele>
        <time>2016-12-18T10:30:54Z</time>
      </trkpt>
      <trkpt lat="43.52868" lon="6.11419">
        <ele>387.3</ele>
        <time>2016-12-18T10:31:01Z</time>
      </trkpt>
      <trkpt lat="43.52875" lon="6.1141">
        <ele>387.3</ele>
        <time>2016-12-18T10:31:09Z</time>
      </trkpt>
      <trkpt lat="43.52883" lon="6.11401">
        <ele>387.3</ele>
        <time>2016-12-18T10:31:18Z</time>
      </trkpt>
      <trkpt lat="43.52889" lon="6.11392">
        <ele>387.3</ele>
        <time>2016-12-18T10:31:26Z</time>
      </trkpt>
      <trkpt lat="43.52897" lon="6.11383">
        <ele>387.4</ele>
        <time>2016-12-18T10:31:32Z</time>
      </trkpt>
      <trkpt lat="43.52901" lon="6.11371">
        <ele>387.7</ele>
        <time>2016-12-18T10:31:41Z</time>
      </trkpt>
      <trkpt lat="43.52903" lon="6.11358">
        <ele>388.6</ele>
        <time>2016-12-18T10:31:52Z</time>
      </trkpt>
      <trkpt lat="43.52904" lon="6.11345">
        <ele>389.9</ele>
        <time>2016-12-18T10:32:03Z</time>
      </trkpt>
      <trkpt lat="43.52906" lon="6.11333">
        <ele>391.2</ele>
        <time>2016-12-18T10:32:13Z</time>
      </trkpt>
      <trkpt lat="43.52908" lon="6.1132">
        <ele>392.5</ele>
        <time>2016-12-18T10:32:24Z</time>
      </trkpt>
      <trkpt lat="43.52911" lon="6.11308">
        <ele>393.6</ele>
        <time>2016-12-18T10:32:34Z</time>
      </trkpt>
      <trkpt lat="43.52914" lon="6.11295">
        <ele>394.4</ele>
        <time>2016-12-18T10:32:42Z</time>
      </trkpt>
      <trkpt lat="43.52917" lon="6.11283">
        <ele>395.1</ele>
        <time>2016-12-18T10:32:51Z</time>
      </trkpt>
      <trkpt lat="43.5292" lon="6.11271">
        <ele>395.6</ele>
        <time>2016-12-18T10:33:00Z</time>
      </trkpt>
      <trkpt lat="43.52922" lon="6.11258">
        <ele>396</ele>
        <time>2016-12-18T10:33:08Z</time>
      </trkpt>
      <trkpt lat="43.52928" lon="6.11248">
        <ele>396.4</ele>
        <time>2016-12-18T10:33:15Z</time>
      </trkpt>
      <trkpt lat="43.52934" lon="6.11237">
        <ele>396.7</ele>
        <time>2016-12-18T10:33:23Z</time>
      </trkpt>
      <trkpt lat="43.52941" lon="6.11229">
        <ele>397.5</ele>
        <time>2016-12-18T10:33:33Z</time>
      </trkpt>
      <trkpt lat="43.52948" lon="6.11221">
        <ele>398.4</ele>
        <time>2016-12-18T10:33:42Z</time>
      </trkpt>
      <trkpt lat="43.52953" lon="6.1121">
        <ele>399.1</ele>
        <time>2016-12-18T10:33:51Z</time>
      </trkpt>
      <trkpt lat="43.52955" lon="6.11197">
        <ele>400</ele>
        <time>2016-12-18T10:34:00Z</time>
      </trkpt>
      <trkpt lat="43.5296" lon="6.11185">
        <ele>401.5</ele>
        <time>2016-12-18T10:34:18Z</time>
      </trkpt>
      <trkpt lat="43.52957" lon="6.11171">
        <ele>402</ele>
        <time>2016-12-18T10:34:26Z</time>
      </trkpt>
      <trkpt lat="43.5296" lon="6.11158">
        <ele>402.4</ele>
        <time>2016-12-18T10:34:34Z</time>
      </trkpt>
      <trkpt lat="43.52964" lon="6.11147">
        <ele>403</ele>
        <time>2016-12-18T10:34:45Z</time>
      </trkpt>
      <trkpt lat="43.52971" lon="6.11156">
        <ele>405</ele>
        <time>2016-12-18T10:37:03Z</time>
      </trkpt>
      <trkpt lat="43.52978" lon="6.11165">
        <ele>405.5</ele>
        <time>2016-12-18T10:37:16Z</time>
      </trkpt>
      <trkpt lat="43.52987" lon="6.11169">
        <ele>406.1</ele>
        <time>2016-12-18T10:37:27Z</time>
      </trkpt>
      <trkpt lat="43.52994" lon="6.11176">
        <ele>407.2</ele>
        <time>2016-12-18T10:37:39Z</time>
      </trkpt>
      <trkpt lat="43.53002" lon="6.11183">
        <ele>408.8</ele>
        <time>2016-12-18T10:37:49Z</time>
      </trkpt>
      <trkpt lat="43.53009" lon="6.11192">
        <ele>409.7</ele>
        <time>2016-12-18T10:37:59Z</time>
      </trkpt>
      <trkpt lat="43.53016" lon="6.11202">
        <ele>410.3</ele>
        <time>2016-12-18T10:38:09Z</time>
      </trkpt>
      <trkpt lat="43.53024" lon="6.11208">
        <ele>411.7</ele>
        <time>2016-12-18T10:38:20Z</time>
      </trkpt>
      <trkpt lat="43.5303" lon="6.11216">
        <ele>413.1</ele>
        <time>2016-12-18T10:38:31Z</time>
      </trkpt>
      <trkpt lat="43.53038" lon="6.11224">
        <ele>414.2</ele>
        <time>2016-12-18T10:38:41Z</time>
      </trkpt>
      <trkpt lat="43.53045" lon="6.11233">
        <ele>415.5</ele>
        <time>2016-12-18T10:38:51Z</time>
      </trkpt>
      <trkpt lat="43.53051" lon="6.11242">
        <ele>416.5</ele>
        <time>2016-12-18T10:39:00Z</time>
      </trkpt>
      <trkpt lat="43.5306" lon="6.11248">
        <ele>417.5</ele>
        <time>2016-12-18T10:39:10Z</time>
      </trkpt>
      <trkpt lat="43.53066" lon="6.11257">
        <ele>418.9</ele>
        <time>2016-12-18T10:39:21Z</time>
      </trkpt>
      <trkpt lat="43.53075" lon="6.11262">
        <ele>420.2</ele>
        <time>2016-12-18T10:39:33Z</time>
      </trkpt>
      <trkpt lat="43.53083" lon="6.11256">
        <ele>421</ele>
        <time>2016-12-18T10:39:41Z</time>
      </trkpt>
      <trkpt lat="43.5309" lon="6.11248">
        <ele>422</ele>
        <time>2016-12-18T10:39:49Z</time>
      </trkpt>
      <trkpt lat="43.53095" lon="6.11237">
        <ele>423.4</ele>
        <time>2016-12-18T10:39:59Z</time>
      </trkpt>
      <trkpt lat="43.53101" lon="6.11227">
        <ele>424.7</ele>
        <time>2016-12-18T10:40:08Z</time>
      </trkpt>
      <trkpt lat="43.53108" lon="6.11219">
        <ele>426.5</ele>
        <time>2016-12-18T10:40:20Z</time>
      </trkpt>
      <trkpt lat="43.53114" lon="6.11208">
        <ele>427.8</ele>
        <time>2016-12-18T10:40:30Z</time>
      </trkpt>
      <trkpt lat="43.53121" lon="6.11199">
        <ele>429.5</ele>
        <time>2016-12-18T10:40:43Z</time>
      </trkpt>
      <trkpt lat="43.53127" lon="6.1119">
        <ele>431.1</ele>
        <time>2016-12-18T10:40:55Z</time>
      </trkpt>
      <trkpt lat="43.53134" lon="6.1118">
        <ele>432.4</ele>
        <time>2016-12-18T10:41:07Z</time>
      </trkpt>
      <trkpt lat="43.53139" lon="6.1117">
        <ele>434</ele>
        <time>2016-12-18T10:41:19Z</time>
      </trkpt>
      <trkpt lat="43.53145" lon="6.11161">
        <ele>435.3</ele>
        <time>2016-12-18T10:41:30Z</time>
      </trkpt>
      <trkpt lat="43.53152" lon="6.11153">
        <ele>436.5</ele>
        <time>2016-12-18T10:41:42Z</time>
      </trkpt>
      <trkpt lat="43.5316" lon="6.11146">
        <ele>437.5</ele>
        <time>2016-12-18T10:41:53Z</time>
      </trkpt>
      <trkpt lat="43.53168" lon="6.11138">
        <ele>438.6</ele>
        <time>2016-12-18T10:42:03Z</time>
      </trkpt>
      <trkpt lat="43.53173" lon="6.11129">
        <ele>439.5</ele>
        <time>2016-12-18T10:42:13Z</time>
      </trkpt>
      <trkpt lat="43.53176" lon="6.11116">
        <ele>440.1</ele>
        <time>2016-12-18T10:42:23Z</time>
      </trkpt>
      <trkpt lat="43.53176" lon="6.11103">
        <ele>440.9</ele>
        <time>2016-12-18T10:42:33Z</time>
      </trkpt>
      <trkpt lat="43.53176" lon="6.11091">
        <ele>441.6</ele>
        <time>2016-12-18T10:42:42Z</time>
      </trkpt>
      <trkpt lat="43.53174" lon="6.11078">
        <ele>442.5</ele>
        <time>2016-12-18T10:42:52Z</time>
      </trkpt>
      <trkpt lat="43.53173" lon="6.11065">
        <ele>443.3</ele>
        <time>2016-12-18T10:43:01Z</time>
      </trkpt>
      <trkpt lat="43.53172" lon="6.11052">
        <ele>444</ele>
        <time>2016-12-18T10:43:11Z</time>
      </trkpt>
      <trkpt lat="43.53172" lon="6.11039">
        <ele>444.7</ele>
        <time>2016-12-18T10:43:22Z</time>
      </trkpt>
      <trkpt lat="43.5317" lon="6.11027">
        <ele>445.4</ele>
        <time>2016-12-18T10:43:32Z</time>
      </trkpt>
      <trkpt lat="43.53166" lon="6.11015">
        <ele>446.5</ele>
        <time>2016-12-18T10:43:49Z</time>
      </trkpt>
      <trkpt lat="43.53165" lon="6.11002">
        <ele>447.3</ele>
        <time>2016-12-18T10:44:09Z</time>
      </trkpt>
      <trkpt lat="43.53162" lon="6.10991">
        <ele>448</ele>
        <time>2016-12-18T10:44:21Z</time>
      </trkpt>
      <trkpt lat="43.5316" lon="6.10977">
        <ele>448.3</ele>
        <time>2016-12-18T10:44:32Z</time>
      </trkpt>
      <trkpt lat="43.53157" lon="6.10965">
        <ele>448.9</ele>
        <time>2016-12-18T10:44:44Z</time>
      </trkpt>
      <trkpt lat="43.53155" lon="6.10952">
        <ele>449.2</ele>
        <time>2016-12-18T10:44:55Z</time>
      </trkpt>
      <trkpt lat="43.53151" lon="6.10939">
        <ele>449.5</ele>
        <time>2016-12-18T10:45:04Z</time>
      </trkpt>
      <trkpt lat="43.53147" lon="6.10927">
        <ele>449.9</ele>
        <time>2016-12-18T10:45:14Z</time>
      </trkpt>
      <trkpt lat="43.53143" lon="6.10915">
        <ele>450.3</ele>
        <time>2016-12-18T10:45:26Z</time>
      </trkpt>
      <trkpt lat="43.53137" lon="6.10905">
        <ele>450.8</ele>
        <time>2016-12-18T10:45:38Z</time>
      </trkpt>
      <trkpt lat="43.5313" lon="6.10897">
        <ele>451.3</ele>
        <time>2016-12-18T10:45:48Z</time>
      </trkpt>
      <trkpt lat="43.53125" lon="6.10886">
        <ele>451.8</ele>
        <time>2016-12-18T10:45:57Z</time>
      </trkpt>
      <trkpt lat="43.53121" lon="6.10874">
        <ele>452.4</ele>
        <time>2016-12-18T10:46:07Z</time>
      </trkpt>
      <trkpt lat="43.53116" lon="6.10863">
        <ele>452.9</ele>
        <time>2016-12-18T10:46:15Z</time>
      </trkpt>
      <trkpt lat="43.53112" lon="6.10851">
        <ele>453.3</ele>
        <time>2016-12-18T10:46:23Z</time>
      </trkpt>
      <trkpt lat="43.53111" lon="6.10839">
        <ele>453.6</ele>
        <time>2016-12-18T10:46:32Z</time>
      </trkpt>
      <trkpt lat="43.53112" lon="6.10826">
        <ele>453.9</ele>
        <time>2016-12-18T10:46:40Z</time>
      </trkpt>
      <trkpt lat="43.53113" lon="6.10813">
        <ele>454.2</ele>
        <time>2016-12-18T10:46:48Z</time>
      </trkpt>
      <trkpt lat="43.53113" lon="6.108">
        <ele>454.5</ele>
        <time>2016-12-18T10:46:55Z</time>
      </trkpt>
      <trkpt lat="43.53112" lon="6.10788">
        <ele>454.7</ele>
        <time>2016-12-18T10:47:03Z</time>
      </trkpt>
      <trkpt lat="43.53108" lon="6.10777">
        <ele>455.1</ele>
        <time>2016-12-18T10:47:12Z</time>
      </trkpt>
      <trkpt lat="43.531" lon="6.10768">
        <ele>455.8</ele>
        <time>2016-12-18T10:47:22Z</time>
      </trkpt>
      <trkpt lat="43.53092" lon="6.10761">
        <ele>456.1</ele>
        <time>2016-12-18T10:47:30Z</time>
      </trkpt>
      <trkpt lat="43.53083" lon="6.10755">
        <ele>456.4</ele>
        <time>2016-12-18T10:47:37Z</time>
      </trkpt>
      <trkpt lat="43.53075" lon="6.1075">
        <ele>456.7</ele>
        <time>2016-12-18T10:47:44Z</time>
      </trkpt>
      <trkpt lat="43.53067" lon="6.10744">
        <ele>456.9</ele>
        <time>2016-12-18T10:47:50Z</time>
      </trkpt>
      <trkpt lat="43.53059" lon="6.10735">
        <ele>457.1</ele>
        <time>2016-12-18T10:47:57Z</time>
      </trkpt>
      <trkpt lat="43.53052" lon="6.10727">
        <ele>457.3</ele>
        <time>2016-12-18T10:48:06Z</time>
      </trkpt>
      <trkpt lat="43.53054" lon="6.10714">
        <ele>457.3</ele>
        <time>2016-12-18T10:48:19Z</time>
      </trkpt>
      <trkpt lat="43.53061" lon="6.10704">
        <ele>457.2</ele>
        <time>2016-12-18T10:48:28Z</time>
      </trkpt>
      <trkpt lat="43.53069" lon="6.10697">
        <ele>457</ele>
        <time>2016-12-18T10:48:37Z</time>
      </trkpt>
      <trkpt lat="43.53078" lon="6.10691">
        <ele>456.8</ele>
        <time>2016-12-18T10:48:46Z</time>
      </trkpt>
      <trkpt lat="43.53085" lon="6.10683">
        <ele>456.4</ele>
        <time>2016-12-18T10:48:54Z</time>
      </trkpt>
      <trkpt lat="43.53093" lon="6.10676">
        <ele>456.2</ele>
        <time>2016-12-18T10:49:02Z</time>
      </trkpt>
      <trkpt lat="43.53101" lon="6.10669">
        <ele>456</ele>
        <time>2016-12-18T10:49:11Z</time>
      </trkpt>
      <trkpt lat="43.53109" lon="6.10662">
        <ele>455.9</ele>
        <time>2016-12-18T10:49:19Z</time>
      </trkpt>
      <trkpt lat="43.53116" lon="6.10653">
        <ele>455.7</ele>
        <time>2016-12-18T10:49:27Z</time>
      </trkpt>
      <trkpt lat="43.53123" lon="6.10645">
        <ele>455.6</ele>
        <time>2016-12-18T10:49:35Z</time>
      </trkpt>
      <trkpt lat="43.53131" lon="6.10636">
        <ele>455.2</ele>
        <time>2016-12-18T10:49:44Z</time>
      </trkpt>
      <trkpt lat="43.53138" lon="6.10627">
        <ele>454.9</ele>
        <time>2016-12-18T10:49:53Z</time>
      </trkpt>
      <trkpt lat="43.53144" lon="6.10617">
        <ele>454.7</ele>
        <time>2016-12-18T10:50:02Z</time>
      </trkpt>
      <trkpt lat="43.53153" lon="6.10612">
        <ele>454.6</ele>
        <time>2016-12-18T10:50:10Z</time>
      </trkpt>
      <trkpt lat="43.53162" lon="6.1061">
        <ele>454.5</ele>
        <time>2016-12-18T10:50:17Z</time>
      </trkpt>
      <trkpt lat="43.53172" lon="6.10607">
        <ele>454.5</ele>
        <time>2016-12-18T10:50:26Z</time>
      </trkpt>
      <trkpt lat="43.5318" lon="6.10602">
        <ele>454.5</ele>
        <time>2016-12-18T10:50:33Z</time>
      </trkpt>
      <trkpt lat="43.53189" lon="6.10593">
        <ele>454.5</ele>
        <time>2016-12-18T10:50:41Z</time>
      </trkpt>
      <trkpt lat="43.53197" lon="6.10587">
        <ele>454.5</ele>
        <time>2016-12-18T10:50:49Z</time>
      </trkpt>
      <trkpt lat="43.53206" lon="6.10581">
        <ele>454.6</ele>
        <time>2016-12-18T10:50:58Z</time>
      </trkpt>
      <trkpt lat="43.53212" lon="6.10573">
        <ele>454.9</ele>
        <time>2016-12-18T10:51:06Z</time>
      </trkpt>
      <trkpt lat="43.5322" lon="6.10566">
        <ele>455.1</ele>
        <time>2016-12-18T10:51:14Z</time>
      </trkpt>
      <trkpt lat="43.53229" lon="6.10561">
        <ele>455.6</ele>
        <time>2016-12-18T10:51:21Z</time>
      </trkpt>
      <trkpt lat="43.53237" lon="6.10553">
        <ele>456</ele>
        <time>2016-12-18T10:51:28Z</time>
      </trkpt>
      <trkpt lat="43.53243" lon="6.10544">
        <ele>456.2</ele>
        <time>2016-12-18T10:51:35Z</time>
      </trkpt>
      <trkpt lat="43.53247" lon="6.10532">
        <ele>456</ele>
        <time>2016-12-18T10:51:47Z</time>
      </trkpt>
      <trkpt lat="43.53237" lon="6.1053">
        <ele>455.8</ele>
        <time>2016-12-18T10:52:35Z</time>
      </trkpt>
      <trkpt lat="43.53227" lon="6.10529">
        <ele>455.7</ele>
        <time>2016-12-18T10:52:43Z</time>
      </trkpt>
      <trkpt lat="43.53217" lon="6.10528">
        <ele>455.2</ele>
        <time>2016-12-18T10:52:50Z</time>
      </trkpt>
      <trkpt lat="43.53208" lon="6.10527">
        <ele>454</ele>
        <time>2016-12-18T10:53:54Z</time>
      </trkpt>
      <trkpt lat="43.53218" lon="6.10529">
        <ele>453.7</ele>
        <time>2016-12-18T10:54:26Z</time>
      </trkpt>
      <trkpt lat="43.53228" lon="6.10532">
        <ele>453.8</ele>
        <time>2016-12-18T10:54:33Z</time>
      </trkpt>
      <trkpt lat="43.53237" lon="6.10533">
        <ele>454</ele>
        <time>2016-12-18T10:54:41Z</time>
      </trkpt>
      <trkpt lat="43.53247" lon="6.10534">
        <ele>454.3</ele>
        <time>2016-12-18T10:54:51Z</time>
      </trkpt>
      <trkpt lat="43.53256" lon="6.10528">
        <ele>455</ele>
        <time>2016-12-18T10:54:59Z</time>
      </trkpt>
      <trkpt lat="43.53265" lon="6.10528">
        <ele>457.3</ele>
        <time>2016-12-18T10:55:16Z</time>
      </trkpt>
      <trkpt lat="43.53274" lon="6.10528">
        <ele>459.6</ele>
        <time>2016-12-18T10:55:29Z</time>
      </trkpt>
      <trkpt lat="43.53282" lon="6.1052">
        <ele>461</ele>
        <time>2016-12-18T10:55:39Z</time>
      </trkpt>
      <trkpt lat="43.53289" lon="6.10513">
        <ele>462.2</ele>
        <time>2016-12-18T10:55:50Z</time>
      </trkpt>
      <trkpt lat="43.53299" lon="6.10514">
        <ele>463.9</ele>
        <time>2016-12-18T10:56:05Z</time>
      </trkpt>
      <trkpt lat="43.53308" lon="6.10512">
        <ele>465.7</ele>
        <time>2016-12-18T10:56:18Z</time>
      </trkpt>
      <trkpt lat="43.53316" lon="6.10503">
        <ele>467.3</ele>
        <time>2016-12-18T10:56:29Z</time>
      </trkpt>
      <trkpt lat="43.53324" lon="6.10498">
        <ele>468.5</ele>
        <time>2016-12-18T10:56:38Z</time>
      </trkpt>
      <trkpt lat="43.53333" lon="6.10491">
        <ele>469.8</ele>
        <time>2016-12-18T10:56:50Z</time>
      </trkpt>
      <trkpt lat="43.5334" lon="6.10483">
        <ele>471.9</ele>
        <time>2016-12-18T10:57:05Z</time>
      </trkpt>
      <trkpt lat="43.53348" lon="6.10478">
        <ele>473.7</ele>
        <time>2016-12-18T10:57:18Z</time>
      </trkpt>
      <trkpt lat="43.53355" lon="6.10469">
        <ele>475.5</ele>
        <time>2016-12-18T10:57:31Z</time>
      </trkpt>
      <trkpt lat="43.53365" lon="6.10466">
        <ele>477.6</ele>
        <time>2016-12-18T10:57:45Z</time>
      </trkpt>
      <trkpt lat="43.53373" lon="6.10459">
        <ele>479.8</ele>
        <time>2016-12-18T10:57:59Z</time>
      </trkpt>
      <trkpt lat="43.5338" lon="6.10451">
        <ele>481.5</ele>
        <time>2016-12-18T10:58:10Z</time>
      </trkpt>
      <trkpt lat="43.53387" lon="6.10442">
        <ele>483.1</ele>
        <time>2016-12-18T10:58:22Z</time>
      </trkpt>
      <trkpt lat="43.53393" lon="6.10432">
        <ele>485.1</ele>
        <time>2016-12-18T10:58:36Z</time>
      </trkpt>
      <trkpt lat="43.53396" lon="6.10421">
        <ele>487.4</ele>
        <time>2016-12-18T10:58:51Z</time>
      </trkpt>
      <trkpt lat="43.53405" lon="6.10416">
        <ele>489.8</ele>
        <time>2016-12-18T10:59:08Z</time>
      </trkpt>
      <trkpt lat="43.53414" lon="6.10411">
        <ele>492.4</ele>
        <time>2016-12-18T10:59:26Z</time>
      </trkpt>
      <trkpt lat="43.53423" lon="6.10413">
        <ele>496.2</ele>
        <time>2016-12-18T10:59:53Z</time>
      </trkpt>
      <trkpt lat="43.53432" lon="6.10412">
        <ele>500.1</ele>
        <time>2016-12-18T11:00:18Z</time>
      </trkpt>
      <trkpt lat="43.53441" lon="6.10416">
        <ele>505.9</ele>
        <time>2016-12-18T11:00:57Z</time>
      </trkpt>
      <trkpt lat="43.53452" lon="6.1041">
        <ele>511.5</ele>
        <time>2016-12-18T11:01:47Z</time>
      </trkpt>
      <trkpt lat="43.53461" lon="6.10414">
        <ele>515</ele>
        <time>2016-12-18T11:02:12Z</time>
      </trkpt>
      <trkpt lat="43.5347" lon="6.10413">
        <ele>518.7</ele>
        <time>2016-12-18T11:02:37Z</time>
      </trkpt>
      <trkpt lat="43.5348" lon="6.10414">
        <ele>522.3</ele>
        <time>2016-12-18T11:02:59Z</time>
      </trkpt>
      <trkpt lat="43.53489" lon="6.10411">
        <ele>525.4</ele>
        <time>2016-12-18T11:03:19Z</time>
      </trkpt>
      <trkpt lat="43.53498" lon="6.10412">
        <ele>529.9</ele>
        <time>2016-12-18T11:03:45Z</time>
      </trkpt>
      <trkpt lat="43.53506" lon="6.10418">
        <ele>533.1</ele>
        <time>2016-12-18T11:04:08Z</time>
      </trkpt>
      <trkpt lat="43.53515" lon="6.10423">
        <ele>536</ele>
        <time>2016-12-18T11:04:29Z</time>
      </trkpt>
      <trkpt lat="43.53523" lon="6.10427">
        <ele>540</ele>
        <time>2016-12-18T11:04:55Z</time>
      </trkpt>
      <trkpt lat="43.53532" lon="6.1043">
        <ele>543</ele>
        <time>2016-12-18T11:05:19Z</time>
      </trkpt>
      <trkpt lat="43.5354" lon="6.10439">
        <ele>547.7</ele>
        <time>2016-12-18T11:05:52Z</time>
      </trkpt>
      <trkpt lat="43.5355" lon="6.10447">
        <ele>553.4</ele>
        <time>2016-12-18T11:06:37Z</time>
      </trkpt>
      <trkpt lat="43.53559" lon="6.10449">
        <ele>558.4</ele>
        <time>2016-12-18T11:07:20Z</time>
      </trkpt>
      <trkpt lat="43.53567" lon="6.10456">
        <ele>565.1</ele>
        <time>2016-12-18T11:08:19Z</time>
      </trkpt>
      <trkpt lat="43.53573" lon="6.1047">
        <ele>573</ele>
        <time>2016-12-18T11:09:31Z</time>
      </trkpt>
      <trkpt lat="43.53577" lon="6.10484">
        <ele>578.2</ele>
        <time>2016-12-18T11:10:11Z</time>
      </trkpt>
      <trkpt lat="43.53586" lon="6.10486">
        <ele>582.3</ele>
        <time>2016-12-18T11:10:39Z</time>
      </trkpt>
      <trkpt lat="43.53594" lon="6.10491">
        <ele>586</ele>
        <time>2016-12-18T11:11:08Z</time>
      </trkpt>
      <trkpt lat="43.53603" lon="6.10486">
        <ele>589.9</ele>
        <time>2016-12-18T11:11:35Z</time>
      </trkpt>
      <trkpt lat="43.53615" lon="6.10485">
        <ele>594.7</ele>
        <time>2016-12-18T11:12:12Z</time>
      </trkpt>
      <trkpt lat="43.53623" lon="6.10492">
        <ele>597.3</ele>
        <time>2016-12-18T11:12:32Z</time>
      </trkpt>
      <trkpt lat="43.53628" lon="6.10502">
        <ele>600.1</ele>
        <time>2016-12-18T11:13:30Z</time>
      </trkpt>
      <trkpt lat="43.53635" lon="6.10511">
        <ele>600.6</ele>
        <time>2016-12-18T11:13:52Z</time>
      </trkpt>
      <trkpt lat="43.53655" lon="6.1046">
        <ele>600</ele>
        <time>2016-12-18T11:43:41Z</time>
      </trkpt>
      <trkpt lat="43.53657" lon="6.10473">
        <ele>600.9</ele>
        <time>2016-12-18T11:44:36Z</time>
      </trkpt>
      <trkpt lat="43.53654" lon="6.10486">
        <ele>600.9</ele>
        <time>2016-12-18T11:44:42Z</time>
      </trkpt>
      <trkpt lat="43.53651" lon="6.10498">
        <ele>601</ele>
        <time>2016-12-18T11:44:49Z</time>
      </trkpt>
      <trkpt lat="43.5365" lon="6.10511">
        <ele>601.2</ele>
        <time>2016-12-18T11:44:56Z</time>
      </trkpt>
      <trkpt lat="43.53647" lon="6.10523">
        <ele>601.6</ele>
        <time>2016-12-18T11:45:06Z</time>
      </trkpt>
      <trkpt lat="43.5364" lon="6.10513">
        <ele>602.3</ele>
        <time>2016-12-18T11:45:41Z</time>
      </trkpt>
      <trkpt lat="43.53632" lon="6.10518">
        <ele>603.2</ele>
        <time>2016-12-18T11:49:14Z</time>
      </trkpt>
      <trkpt lat="43.53623" lon="6.10512">
        <ele>603.2</ele>
        <time>2016-12-18T11:49:21Z</time>
      </trkpt>
      <trkpt lat="43.53619" lon="6.10501">
        <ele>603</ele>
        <time>2016-12-18T11:49:38Z</time>
      </trkpt>
      <trkpt lat="43.53628" lon="6.10512">
        <ele>603</ele>
        <time>2016-12-18T11:51:52Z</time>
      </trkpt>
      <trkpt lat="43.53635" lon="6.10526">
        <ele>604</ele>
        <time>2016-12-18T11:56:55Z</time>
      </trkpt>
      <trkpt lat="43.53633" lon="6.10513">
        <ele>604.5</ele>
        <time>2016-12-18T11:57:03Z</time>
      </trkpt>
      <trkpt lat="43.53628" lon="6.10502">
        <ele>604.5</ele>
        <time>2016-12-18T11:57:15Z</time>
      </trkpt>
      <trkpt lat="43.53637" lon="6.10507">
        <ele>604.2</ele>
        <time>2016-12-18T12:05:22Z</time>
      </trkpt>
      <trkpt lat="43.53647" lon="6.10517">
        <ele>596.6</ele>
        <time>2016-12-18T12:20:28Z</time>
      </trkpt>
      <trkpt lat="43.53655" lon="6.10509">
        <ele>596.5</ele>
        <time>2016-12-18T12:20:39Z</time>
      </trkpt>
      <trkpt lat="43.53662" lon="6.105">
        <ele>596.6</ele>
        <time>2016-12-18T12:20:49Z</time>
      </trkpt>
      <trkpt lat="43.53669" lon="6.10491">
        <ele>596.8</ele>
        <time>2016-12-18T12:21:00Z</time>
      </trkpt>
      <trkpt lat="43.53677" lon="6.10484">
        <ele>597</ele>
        <time>2016-12-18T12:21:10Z</time>
      </trkpt>
      <trkpt lat="43.53681" lon="6.10495">
        <ele>597.2</ele>
        <time>2016-12-18T12:21:29Z</time>
      </trkpt>
      <trkpt lat="43.5368" lon="6.10507">
        <ele>597.1</ele>
        <time>2016-12-18T12:21:38Z</time>
      </trkpt>
      <trkpt lat="43.53678" lon="6.10521">
        <ele>596.6</ele>
        <time>2016-12-18T12:21:49Z</time>
      </trkpt>
      <trkpt lat="43.53675" lon="6.10533">
        <ele>596.1</ele>
        <time>2016-12-18T12:21:58Z</time>
      </trkpt>
      <trkpt lat="43.53674" lon="6.10545">
        <ele>595.7</ele>
        <time>2016-12-18T12:22:07Z</time>
      </trkpt>
      <trkpt lat="43.53672" lon="6.10558">
        <ele>594.8</ele>
        <time>2016-12-18T12:22:17Z</time>
      </trkpt>
      <trkpt lat="43.53673" lon="6.1057">
        <ele>593.8</ele>
        <time>2016-12-18T12:22:26Z</time>
      </trkpt>
      <trkpt lat="43.53675" lon="6.10583">
        <ele>592.7</ele>
        <time>2016-12-18T12:22:34Z</time>
      </trkpt>
      <trkpt lat="43.53679" lon="6.10595">
        <ele>591.5</ele>
        <time>2016-12-18T12:22:43Z</time>
      </trkpt>
      <trkpt lat="43.53684" lon="6.10606">
        <ele>590.5</ele>
        <time>2016-12-18T12:22:52Z</time>
      </trkpt>
      <trkpt lat="43.53687" lon="6.10618">
        <ele>589.8</ele>
        <time>2016-12-18T12:23:01Z</time>
      </trkpt>
      <trkpt lat="43.53688" lon="6.10631">
        <ele>589.2</ele>
        <time>2016-12-18T12:23:08Z</time>
      </trkpt>
      <trkpt lat="43.53692" lon="6.10644">
        <ele>588.5</ele>
        <time>2016-12-18T12:23:17Z</time>
      </trkpt>
      <trkpt lat="43.53693" lon="6.10657">
        <ele>587.5</ele>
        <time>2016-12-18T12:23:26Z</time>
      </trkpt>
      <trkpt lat="43.53696" lon="6.10669">
        <ele>586.4</ele>
        <time>2016-12-18T12:23:36Z</time>
      </trkpt>
      <trkpt lat="43.53703" lon="6.10678">
        <ele>585.2</ele>
        <time>2016-12-18T12:23:47Z</time>
      </trkpt>
      <trkpt lat="43.53707" lon="6.10689">
        <ele>583.7</ele>
        <time>2016-12-18T12:23:59Z</time>
      </trkpt>
      <trkpt lat="43.53711" lon="6.10701">
        <ele>582.2</ele>
        <time>2016-12-18T12:24:10Z</time>
      </trkpt>
      <trkpt lat="43.53715" lon="6.10714">
        <ele>581.2</ele>
        <time>2016-12-18T12:24:18Z</time>
      </trkpt>
      <trkpt lat="43.53718" lon="6.10726">
        <ele>580.1</ele>
        <time>2016-12-18T12:24:26Z</time>
      </trkpt>
      <trkpt lat="43.53721" lon="6.10739">
        <ele>578.9</ele>
        <time>2016-12-18T12:24:34Z</time>
      </trkpt>
      <trkpt lat="43.53723" lon="6.10751">
        <ele>577.9</ele>
        <time>2016-12-18T12:24:41Z</time>
      </trkpt>
      <trkpt lat="43.53724" lon="6.10764">
        <ele>576.9</ele>
        <time>2016-12-18T12:24:48Z</time>
      </trkpt>
      <trkpt lat="43.53727" lon="6.10777">
        <ele>575.5</ele>
        <time>2016-12-18T12:24:58Z</time>
      </trkpt>
      <trkpt lat="43.53728" lon="6.10789">
        <ele>574.3</ele>
        <time>2016-12-18T12:25:06Z</time>
      </trkpt>
      <trkpt lat="43.5373" lon="6.10801">
        <ele>573.4</ele>
        <time>2016-12-18T12:25:12Z</time>
      </trkpt>
      <trkpt lat="43.5374" lon="6.10802">
        <ele>571.7</ele>
        <time>2016-12-18T12:25:22Z</time>
      </trkpt>
      <trkpt lat="43.53748" lon="6.10806">
        <ele>570</ele>
        <time>2016-12-18T12:25:31Z</time>
      </trkpt>
      <trkpt lat="43.53757" lon="6.10808">
        <ele>568.3</ele>
        <time>2016-12-18T12:25:41Z</time>
      </trkpt>
      <trkpt lat="43.53766" lon="6.10812">
        <ele>566.3</ele>
        <time>2016-12-18T12:25:52Z</time>
      </trkpt>
      <trkpt lat="43.53769" lon="6.10825">
        <ele>564.9</ele>
        <time>2016-12-18T12:26:00Z</time>
      </trkpt>
      <trkpt lat="43.53774" lon="6.10836">
        <ele>563.1</ele>
        <time>2016-12-18T12:26:10Z</time>
      </trkpt>
      <trkpt lat="43.5378" lon="6.10847">
        <ele>561.3</ele>
        <time>2016-12-18T12:26:22Z</time>
      </trkpt>
      <trkpt lat="43.53785" lon="6.1086">
        <ele>559.5</ele>
        <time>2016-12-18T12:26:34Z</time>
      </trkpt>
      <trkpt lat="43.53785" lon="6.10873">
        <ele>558.5</ele>
        <time>2016-12-18T12:26:41Z</time>
      </trkpt>
      <trkpt lat="43.53787" lon="6.10885">
        <ele>557.4</ele>
        <time>2016-12-18T12:26:51Z</time>
      </trkpt>
      <trkpt lat="43.53792" lon="6.10897">
        <ele>555.9</ele>
        <time>2016-12-18T12:27:04Z</time>
      </trkpt>
      <trkpt lat="43.53795" lon="6.10909">
        <ele>554.5</ele>
        <time>2016-12-18T12:27:17Z</time>
      </trkpt>
      <trkpt lat="43.538" lon="6.1092">
        <ele>553.3</ele>
        <time>2016-12-18T12:27:28Z</time>
      </trkpt>
      <trkpt lat="43.53804" lon="6.10932">
        <ele>552.4</ele>
        <time>2016-12-18T12:27:36Z</time>
      </trkpt>
      <trkpt lat="43.5381" lon="6.10942">
        <ele>551.3</ele>
        <time>2016-12-18T12:27:47Z</time>
      </trkpt>
      <trkpt lat="43.53813" lon="6.10953">
        <ele>550.5</ele>
        <time>2016-12-18T12:27:55Z</time>
      </trkpt>
      <trkpt lat="43.53817" lon="6.10966">
        <ele>549.7</ele>
        <time>2016-12-18T12:28:02Z</time>
      </trkpt>
      <trkpt lat="43.53825" lon="6.10975">
        <ele>548.5</ele>
        <time>2016-12-18T12:28:12Z</time>
      </trkpt>
      <trkpt lat="43.53834" lon="6.10976">
        <ele>547.7</ele>
        <time>2016-12-18T12:28:18Z</time>
      </trkpt>
      <trkpt lat="43.53843" lon="6.1097">
        <ele>547.3</ele>
        <time>2016-12-18T12:28:22Z</time>
      </trkpt>
      <trkpt lat="43.53852" lon="6.10963">
        <ele>546.8</ele>
        <time>2016-12-18T12:28:26Z</time>
      </trkpt>
      <trkpt lat="43.53863" lon="6.10959">
        <ele>546</ele>
        <time>2016-12-18T12:28:33Z</time>
      </trkpt>
      <trkpt lat="43.53871" lon="6.10964">
        <ele>544.7</ele>
        <time>2016-12-18T12:28:42Z</time>
      </trkpt>
      <trkpt lat="43.53878" lon="6.10974">
        <ele>543.2</ele>
        <time>2016-12-18T12:28:54Z</time>
      </trkpt>
      <trkpt lat="43.53886" lon="6.10981">
        <ele>541.6</ele>
        <time>2016-12-18T12:29:08Z</time>
      </trkpt>
      <trkpt lat="43.53894" lon="6.10989">
        <ele>540</ele>
        <time>2016-12-18T12:29:22Z</time>
      </trkpt>
      <trkpt lat="43.53901" lon="6.10997">
        <ele>537.9</ele>
        <time>2016-12-18T12:29:42Z</time>
      </trkpt>
      <trkpt lat="43.5391" lon="6.10999">
        <ele>536.8</ele>
        <time>2016-12-18T12:30:00Z</time>
      </trkpt>
      <trkpt lat="43.53915" lon="6.11009">
        <ele>534.8</ele>
        <time>2016-12-18T12:30:33Z</time>
      </trkpt>
      <trkpt lat="43.5392" lon="6.11021">
        <ele>532.7</ele>
        <time>2016-12-18T12:30:58Z</time>
      </trkpt>
      <trkpt lat="43.5392" lon="6.11034">
        <ele>531.6</ele>
        <time>2016-12-18T12:31:12Z</time>
      </trkpt>
      <trkpt lat="43.53922" lon="6.11046">
        <ele>530</ele>
        <time>2016-12-18T12:31:25Z</time>
      </trkpt>
      <trkpt lat="43.53924" lon="6.11059">
        <ele>528.2</ele>
        <time>2016-12-18T12:31:38Z</time>
      </trkpt>
      <trkpt lat="43.53927" lon="6.11072">
        <ele>526.6</ele>
        <time>2016-12-18T12:31:49Z</time>
      </trkpt>
      <trkpt lat="43.53929" lon="6.11084">
        <ele>524.9</ele>
        <time>2016-12-18T12:32:02Z</time>
      </trkpt>
      <trkpt lat="43.53931" lon="6.11097">
        <ele>523.7</ele>
        <time>2016-12-18T12:32:13Z</time>
      </trkpt>
      <trkpt lat="43.53936" lon="6.11108">
        <ele>522</ele>
        <time>2016-12-18T12:32:24Z</time>
      </trkpt>
      <trkpt lat="43.53939" lon="6.1112">
        <ele>520.1</ele>
        <time>2016-12-18T12:32:37Z</time>
      </trkpt>
      <trkpt lat="43.53946" lon="6.11129">
        <ele>518.2</ele>
        <time>2016-12-18T12:32:49Z</time>
      </trkpt>
      <trkpt lat="43.53954" lon="6.11136">
        <ele>516.8</ele>
        <time>2016-12-18T12:32:57Z</time>
      </trkpt>
      <trkpt lat="43.5396" lon="6.11147">
        <ele>514.4</ele>
        <time>2016-12-18T12:33:11Z</time>
      </trkpt>
      <trkpt lat="43.53967" lon="6.11157">
        <ele>512.2</ele>
        <time>2016-12-18T12:33:24Z</time>
      </trkpt>
      <trkpt lat="43.53968" lon="6.11169">
        <ele>510.6</ele>
        <time>2016-12-18T12:33:34Z</time>
      </trkpt>
      <trkpt lat="43.53974" lon="6.1118">
        <ele>509.1</ele>
        <time>2016-12-18T12:33:43Z</time>
      </trkpt>
      <trkpt lat="43.53977" lon="6.11192">
        <ele>507.2</ele>
        <time>2016-12-18T12:33:53Z</time>
      </trkpt>
      <trkpt lat="43.53978" lon="6.11206">
        <ele>505.5</ele>
        <time>2016-12-18T12:34:02Z</time>
      </trkpt>
      <trkpt lat="43.53976" lon="6.11218">
        <ele>504.5</ele>
        <time>2016-12-18T12:34:08Z</time>
      </trkpt>
      <trkpt lat="43.53984" lon="6.11223">
        <ele>501.6</ele>
        <time>2016-12-18T12:34:27Z</time>
      </trkpt>
      <trkpt lat="43.53994" lon="6.11222">
        <ele>501.1</ele>
        <time>2016-12-18T12:34:30Z</time>
      </trkpt>
      <trkpt lat="43.54001" lon="6.11211">
        <ele>500.1</ele>
        <time>2016-12-18T12:34:38Z</time>
      </trkpt>
      <trkpt lat="43.54004" lon="6.11198">
        <ele>499.1</ele>
        <time>2016-12-18T12:34:48Z</time>
      </trkpt>
      <trkpt lat="43.54014" lon="6.11195">
        <ele>498.3</ele>
        <time>2016-12-18T12:34:55Z</time>
      </trkpt>
      <trkpt lat="43.54022" lon="6.11186">
        <ele>497.5</ele>
        <time>2016-12-18T12:35:04Z</time>
      </trkpt>
      <trkpt lat="43.54027" lon="6.11176">
        <ele>496.9</ele>
        <time>2016-12-18T12:35:10Z</time>
      </trkpt>
      <trkpt lat="43.54033" lon="6.11164">
        <ele>496</ele>
        <time>2016-12-18T12:35:20Z</time>
      </trkpt>
      <trkpt lat="43.54035" lon="6.11152">
        <ele>495.1</ele>
        <time>2016-12-18T12:35:28Z</time>
      </trkpt>
      <trkpt lat="43.54043" lon="6.11143">
        <ele>493.8</ele>
        <time>2016-12-18T12:35:38Z</time>
      </trkpt>
      <trkpt lat="43.54052" lon="6.1114">
        <ele>493</ele>
        <time>2016-12-18T12:35:44Z</time>
      </trkpt>
      <trkpt lat="43.54057" lon="6.1113">
        <ele>491.4</ele>
        <time>2016-12-18T12:35:55Z</time>
      </trkpt>
      <trkpt lat="43.54065" lon="6.11121">
        <ele>490</ele>
        <time>2016-12-18T12:36:04Z</time>
      </trkpt>
      <trkpt lat="43.54072" lon="6.11111">
        <ele>488.4</ele>
        <time>2016-12-18T12:36:14Z</time>
      </trkpt>
      <trkpt lat="43.5408" lon="6.11104">
        <ele>487</ele>
        <time>2016-12-18T12:36:23Z</time>
      </trkpt>
      <trkpt lat="43.54089" lon="6.11099">
        <ele>484</ele>
        <time>2016-12-18T12:36:43Z</time>
      </trkpt>
      <trkpt lat="43.54099" lon="6.11101">
        <ele>480.8</ele>
        <time>2016-12-18T12:37:04Z</time>
      </trkpt>
      <trkpt lat="43.54107" lon="6.11105">
        <ele>479.1</ele>
        <time>2016-12-18T12:37:15Z</time>
      </trkpt>
      <trkpt lat="43.54115" lon="6.11112">
        <ele>477.8</ele>
        <time>2016-12-18T12:37:24Z</time>
      </trkpt>
      <trkpt lat="43.54123" lon="6.11118">
        <ele>475.5</ele>
        <time>2016-12-18T12:37:39Z</time>
      </trkpt>
      <trkpt lat="43.54133" lon="6.1112">
        <ele>474.1</ele>
        <time>2016-12-18T12:37:50Z</time>
      </trkpt>
      <trkpt lat="43.54142" lon="6.1112">
        <ele>472.7</ele>
        <time>2016-12-18T12:38:01Z</time>
      </trkpt>
      <trkpt lat="43.54151" lon="6.1112">
        <ele>471.7</ele>
        <time>2016-12-18T12:38:09Z</time>
      </trkpt>
      <trkpt lat="43.5416" lon="6.11117">
        <ele>470.5</ele>
        <time>2016-12-18T12:38:21Z</time>
      </trkpt>
      <trkpt lat="43.54169" lon="6.11119">
        <ele>469.3</ele>
        <time>2016-12-18T12:38:35Z</time>
      </trkpt>
      <trkpt lat="43.54178" lon="6.11125">
        <ele>468.4</ele>
        <time>2016-12-18T12:38:48Z</time>
      </trkpt>
      <trkpt lat="43.54184" lon="6.11135">
        <ele>467.7</ele>
        <time>2016-12-18T12:39:03Z</time>
      </trkpt>
      <trkpt lat="43.54187" lon="6.11148">
        <ele>467.3</ele>
        <time>2016-12-18T12:39:12Z</time>
      </trkpt>
      <trkpt lat="43.54191" lon="6.1116">
        <ele>466.6</ele>
        <time>2016-12-18T12:39:22Z</time>
      </trkpt>
      <trkpt lat="43.54195" lon="6.11173">
        <ele>465.9</ele>
        <time>2016-12-18T12:39:31Z</time>
      </trkpt>
      <trkpt lat="43.54204" lon="6.11169">
        <ele>462.3</ele>
        <time>2016-12-18T12:42:02Z</time>
      </trkpt>
      <trkpt lat="43.54212" lon="6.11177">
        <ele>462</ele>
        <time>2016-12-18T12:45:00Z</time>
      </trkpt>
      <trkpt lat="43.54235" lon="6.11178">
        <ele>461</ele>
        <time>2016-12-18T12:45:34Z</time>
      </trkpt>
      <trkpt lat="43.54245" lon="6.11179">
        <ele>460.9</ele>
        <time>2016-12-18T12:45:41Z</time>
      </trkpt>
      <trkpt lat="43.54254" lon="6.11184">
        <ele>460.4</ele>
        <time>2016-12-18T12:45:48Z</time>
      </trkpt>
      <trkpt lat="43.54262" lon="6.11191">
        <ele>459.9</ele>
        <time>2016-12-18T12:45:55Z</time>
      </trkpt>
      <trkpt lat="43.5427" lon="6.11198">
        <ele>459.1</ele>
        <time>2016-12-18T12:46:03Z</time>
      </trkpt>
      <trkpt lat="43.54279" lon="6.11203">
        <ele>457.7</ele>
        <time>2016-12-18T12:46:17Z</time>
      </trkpt>
      <trkpt lat="43.54287" lon="6.11208">
        <ele>456.9</ele>
        <time>2016-12-18T12:46:25Z</time>
      </trkpt>
      <trkpt lat="43.54296" lon="6.11212">
        <ele>456</ele>
        <time>2016-12-18T12:46:34Z</time>
      </trkpt>
      <trkpt lat="43.54305" lon="6.11211">
        <ele>455.3</ele>
        <time>2016-12-18T12:46:41Z</time>
      </trkpt>
      <trkpt lat="43.54314" lon="6.11216">
        <ele>454.3</ele>
        <time>2016-12-18T12:46:49Z</time>
      </trkpt>
      <trkpt lat="43.54323" lon="6.1122">
        <ele>453.3</ele>
        <time>2016-12-18T12:46:58Z</time>
      </trkpt>
      <trkpt lat="43.54331" lon="6.11227">
        <ele>452.1</ele>
        <time>2016-12-18T12:47:08Z</time>
      </trkpt>
      <trkpt lat="43.5434" lon="6.11232">
        <ele>451.2</ele>
        <time>2016-12-18T12:47:17Z</time>
      </trkpt>
      <trkpt lat="43.54347" lon="6.11242">
        <ele>450.4</ele>
        <time>2016-12-18T12:47:25Z</time>
      </trkpt>
      <trkpt lat="43.54353" lon="6.11251">
        <ele>449.7</ele>
        <time>2016-12-18T12:47:33Z</time>
      </trkpt>
      <trkpt lat="43.54361" lon="6.11259">
        <ele>448.7</ele>
        <time>2016-12-18T12:47:43Z</time>
      </trkpt>
      <trkpt lat="43.54369" lon="6.11267">
        <ele>448.1</ele>
        <time>2016-12-18T12:47:52Z</time>
      </trkpt>
      <trkpt lat="43.54378" lon="6.11272">
        <ele>447.6</ele>
        <time>2016-12-18T12:48:01Z</time>
      </trkpt>
      <trkpt lat="43.54389" lon="6.11278">
        <ele>446.1</ele>
        <time>2016-12-18T12:48:48Z</time>
      </trkpt>
      <trkpt lat="43.54397" lon="6.11284">
        <ele>446</ele>
        <time>2016-12-18T12:49:04Z</time>
      </trkpt>
      <trkpt lat="43.54406" lon="6.11288">
        <ele>445.7</ele>
        <time>2016-12-18T12:49:13Z</time>
      </trkpt>
      <trkpt lat="43.54415" lon="6.11293">
        <ele>445.4</ele>
        <time>2016-12-18T12:49:21Z</time>
      </trkpt>
      <trkpt lat="43.54424" lon="6.11298">
        <ele>445</ele>
        <time>2016-12-18T12:49:31Z</time>
      </trkpt>
      <trkpt lat="43.54432" lon="6.11305">
        <ele>444.5</ele>
        <time>2016-12-18T12:49:41Z</time>
      </trkpt>
      <trkpt lat="43.54439" lon="6.11313">
        <ele>444</ele>
        <time>2016-12-18T12:49:50Z</time>
      </trkpt>
      <trkpt lat="43.54448" lon="6.11319">
        <ele>443.5</ele>
        <time>2016-12-18T12:49:59Z</time>
      </trkpt>
      <trkpt lat="43.54456" lon="6.11326">
        <ele>443</ele>
        <time>2016-12-18T12:50:08Z</time>
      </trkpt>
      <trkpt lat="43.54464" lon="6.11332">
        <ele>442.5</ele>
        <time>2016-12-18T12:50:17Z</time>
      </trkpt>
      <trkpt lat="43.54473" lon="6.11338">
        <ele>442.1</ele>
        <time>2016-12-18T12:50:26Z</time>
      </trkpt>
      <trkpt lat="43.54481" lon="6.11344">
        <ele>441.7</ele>
        <time>2016-12-18T12:50:34Z</time>
      </trkpt>
      <trkpt lat="43.54488" lon="6.11352">
        <ele>441.1</ele>
        <time>2016-12-18T12:50:45Z</time>
      </trkpt>
      <trkpt lat="43.54495" lon="6.11359">
        <ele>440.9</ele>
        <time>2016-12-18T12:50:54Z</time>
      </trkpt>
      <trkpt lat="43.54503" lon="6.11367">
        <ele>440.5</ele>
        <time>2016-12-18T12:51:03Z</time>
      </trkpt>
      <trkpt lat="43.54509" lon="6.11378">
        <ele>439.9</ele>
        <time>2016-12-18T12:51:13Z</time>
      </trkpt>
      <trkpt lat="43.54516" lon="6.11386">
        <ele>439.2</ele>
        <time>2016-12-18T12:51:24Z</time>
      </trkpt>
      <trkpt lat="43.54522" lon="6.11397">
        <ele>438.6</ele>
        <time>2016-12-18T12:51:33Z</time>
      </trkpt>
      <trkpt lat="43.5453" lon="6.11405">
        <ele>438</ele>
        <time>2016-12-18T12:51:43Z</time>
      </trkpt>
      <trkpt lat="43.54536" lon="6.11416">
        <ele>437.5</ele>
        <time>2016-12-18T12:51:51Z</time>
      </trkpt>
      <trkpt lat="43.54541" lon="6.11426">
        <ele>436.8</ele>
        <time>2016-12-18T12:52:00Z</time>
      </trkpt>
      <trkpt lat="43.54546" lon="6.11438">
        <ele>436.2</ele>
        <time>2016-12-18T12:52:08Z</time>
      </trkpt>
      <trkpt lat="43.54549" lon="6.1145">
        <ele>435.9</ele>
        <time>2016-12-18T12:52:16Z</time>
      </trkpt>
      <trkpt lat="43.54553" lon="6.11462">
        <ele>435.5</ele>
        <time>2016-12-18T12:52:25Z</time>
      </trkpt>
      <trkpt lat="43.54557" lon="6.11474">
        <ele>435</ele>
        <time>2016-12-18T12:52:34Z</time>
      </trkpt>
      <trkpt lat="43.54561" lon="6.11486">
        <ele>434.5</ele>
        <time>2016-12-18T12:52:43Z</time>
      </trkpt>
      <trkpt lat="43.54562" lon="6.11498">
        <ele>434</ele>
        <time>2016-12-18T12:52:50Z</time>
      </trkpt>
      <trkpt lat="43.54565" lon="6.11512">
        <ele>433.5</ele>
        <time>2016-12-18T12:52:58Z</time>
      </trkpt>
      <trkpt lat="43.54567" lon="6.11524">
        <ele>432.9</ele>
        <time>2016-12-18T12:53:06Z</time>
      </trkpt>
      <trkpt lat="43.54569" lon="6.11536">
        <ele>432.3</ele>
        <time>2016-12-18T12:53:15Z</time>
      </trkpt>
      <trkpt lat="43.54572" lon="6.11548">
        <ele>431.7</ele>
        <time>2016-12-18T12:53:22Z</time>
      </trkpt>
      <trkpt lat="43.54576" lon="6.11561">
        <ele>431.1</ele>
        <time>2016-12-18T12:53:30Z</time>
      </trkpt>
      <trkpt lat="43.54578" lon="6.11573">
        <ele>430.4</ele>
        <time>2016-12-18T12:53:38Z</time>
      </trkpt>
      <trkpt lat="43.54581" lon="6.11585">
        <ele>430.1</ele>
        <time>2016-12-18T12:53:45Z</time>
      </trkpt>
      <trkpt lat="43.54583" lon="6.11597">
        <ele>429.7</ele>
        <time>2016-12-18T12:53:51Z</time>
      </trkpt>
      <trkpt lat="43.54585" lon="6.11611">
        <ele>429.4</ele>
        <time>2016-12-18T12:53:58Z</time>
      </trkpt>
      <trkpt lat="43.54588" lon="6.11624">
        <ele>429.2</ele>
        <time>2016-12-18T12:54:05Z</time>
      </trkpt>
      <trkpt lat="43.54591" lon="6.11637">
        <ele>428.9</ele>
        <time>2016-12-18T12:54:13Z</time>
      </trkpt>
      <trkpt lat="43.54597" lon="6.11648">
        <ele>428.6</ele>
        <time>2016-12-18T12:54:23Z</time>
      </trkpt>
      <trkpt lat="43.54602" lon="6.11659">
        <ele>428.4</ele>
        <time>2016-12-18T12:54:32Z</time>
      </trkpt>
      <trkpt lat="43.54606" lon="6.11671">
        <ele>428.2</ele>
        <time>2016-12-18T12:54:39Z</time>
      </trkpt>
      <trkpt lat="43.54611" lon="6.11682">
        <ele>428</ele>
        <time>2016-12-18T12:54:47Z</time>
      </trkpt>
      <trkpt lat="43.54616" lon="6.11692">
        <ele>427.6</ele>
        <time>2016-12-18T12:54:56Z</time>
      </trkpt>
      <trkpt lat="43.54625" lon="6.11692">
        <ele>427.2</ele>
        <time>2016-12-18T12:55:10Z</time>
      </trkpt>
      <trkpt lat="43.54635" lon="6.11686">
        <ele>427</ele>
        <time>2016-12-18T12:55:19Z</time>
      </trkpt>
      <trkpt lat="43.54643" lon="6.1168">
        <ele>426.9</ele>
        <time>2016-12-18T12:55:28Z</time>
      </trkpt>
      <trkpt lat="43.54653" lon="6.11673">
        <ele>426.5</ele>
        <time>2016-12-18T12:55:37Z</time>
      </trkpt>
      <trkpt lat="43.54662" lon="6.11668">
        <ele>426.2</ele>
        <time>2016-12-18T12:55:46Z</time>
      </trkpt>
      <trkpt lat="43.54673" lon="6.11665">
        <ele>425.9</ele>
        <time>2016-12-18T12:55:54Z</time>
      </trkpt>
      <trkpt lat="43.54682" lon="6.11662">
        <ele>425.5</ele>
        <time>2016-12-18T12:56:01Z</time>
      </trkpt>
      <trkpt lat="43.54691" lon="6.1166">
        <ele>425.2</ele>
        <time>2016-12-18T12:56:05Z</time>
      </trkpt>
      <trkpt lat="43.54718" lon="6.11638">
        <ele>424</ele>
        <time>2016-12-18T12:56:15Z</time>
      </trkpt>
      <trkpt lat="43.54727" lon="6.11632">
        <ele>424.1</ele>
        <time>2016-12-18T12:56:20Z</time>
      </trkpt>
      <trkpt lat="43.54736" lon="6.11628">
        <ele>423.2</ele>
        <time>2016-12-18T12:56:28Z</time>
      </trkpt>
      <trkpt lat="43.54746" lon="6.11626">
        <ele>422.3</ele>
        <time>2016-12-18T12:56:36Z</time>
      </trkpt>
      <trkpt lat="43.54756" lon="6.11624">
        <ele>421.4</ele>
        <time>2016-12-18T12:56:46Z</time>
      </trkpt>
      <trkpt lat="43.54765" lon="6.11626">
        <ele>419.8</ele>
        <time>2016-12-18T12:57:18Z</time>
      </trkpt>
      <trkpt lat="43.54771" lon="6.11638">
        <ele>419.7</ele>
        <time>2016-12-18T12:57:28Z</time>
      </trkpt>
      <trkpt lat="43.54771" lon="6.11651">
        <ele>419.4</ele>
        <time>2016-12-18T12:57:36Z</time>
      </trkpt>
      <trkpt lat="43.54768" lon="6.11664">
        <ele>419</ele>
        <time>2016-12-18T12:57:45Z</time>
      </trkpt>
      <trkpt lat="43.54764" lon="6.11675">
        <ele>418.6</ele>
        <time>2016-12-18T12:57:53Z</time>
      </trkpt>
      <trkpt lat="43.54761" lon="6.11688">
        <ele>418.3</ele>
        <time>2016-12-18T12:58:03Z</time>
      </trkpt>
      <trkpt lat="43.54758" lon="6.11701">
        <ele>418.2</ele>
        <time>2016-12-18T12:58:11Z</time>
      </trkpt>
      <trkpt lat="43.54756" lon="6.11715">
        <ele>418.1</ele>
        <time>2016-12-18T12:58:19Z</time>
      </trkpt>
      <trkpt lat="43.54754" lon="6.11728">
        <ele>418.1</ele>
        <time>2016-12-18T12:58:26Z</time>
      </trkpt>
      <trkpt lat="43.54752" lon="6.11741">
        <ele>418</ele>
        <time>2016-12-18T12:58:33Z</time>
      </trkpt>
      <trkpt lat="43.54751" lon="6.11755">
        <ele>418</ele>
        <time>2016-12-18T12:58:41Z</time>
      </trkpt>
      <trkpt lat="43.54749" lon="6.11769">
        <ele>418</ele>
        <time>2016-12-18T12:58:49Z</time>
      </trkpt>
      <trkpt lat="43.54749" lon="6.11782">
        <ele>418</ele>
        <time>2016-12-18T12:58:58Z</time>
      </trkpt>
      <trkpt lat="43.54747" lon="6.11794">
        <ele>418</ele>
        <time>2016-12-18T12:59:06Z</time>
      </trkpt>
      <trkpt lat="43.54745" lon="6.11808">
        <ele>417.9</ele>
        <time>2016-12-18T12:59:14Z</time>
      </trkpt>
      <trkpt lat="43.54742" lon="6.1182">
        <ele>417.9</ele>
        <time>2016-12-18T12:59:22Z</time>
      </trkpt>
      <trkpt lat="43.54737" lon="6.11832">
        <ele>417.7</ele>
        <time>2016-12-18T12:59:31Z</time>
      </trkpt>
      <trkpt lat="43.54731" lon="6.11841">
        <ele>417.4</ele>
        <time>2016-12-18T12:59:39Z</time>
      </trkpt>
      <trkpt lat="43.54724" lon="6.11852">
        <ele>417.1</ele>
        <time>2016-12-18T12:59:48Z</time>
      </trkpt>
      <trkpt lat="43.54717" lon="6.11861">
        <ele>417</ele>
        <time>2016-12-18T12:59:57Z</time>
      </trkpt>
      <trkpt lat="43.5471" lon="6.1187">
        <ele>416.9</ele>
        <time>2016-12-18T13:00:06Z</time>
      </trkpt>
      <trkpt lat="43.54703" lon="6.11878">
        <ele>416.7</ele>
        <time>2016-12-18T13:00:14Z</time>
      </trkpt>
      <trkpt lat="43.54695" lon="6.11883">
        <ele>416.5</ele>
        <time>2016-12-18T13:00:21Z</time>
      </trkpt>
      <trkpt lat="43.54686" lon="6.11887">
        <ele>416.3</ele>
        <time>2016-12-18T13:00:27Z</time>
      </trkpt>
      <trkpt lat="43.54677" lon="6.11893">
        <ele>416.2</ele>
        <time>2016-12-18T13:00:35Z</time>
      </trkpt>
      <trkpt lat="43.54669" lon="6.119">
        <ele>416.1</ele>
        <time>2016-12-18T13:00:42Z</time>
      </trkpt>
      <trkpt lat="43.54662" lon="6.11909">
        <ele>416.1</ele>
        <time>2016-12-18T13:00:49Z</time>
      </trkpt>
      <trkpt lat="43.54655" lon="6.11917">
        <ele>416.1</ele>
        <time>2016-12-18T13:00:56Z</time>
      </trkpt>
      <trkpt lat="43.54648" lon="6.11926">
        <ele>416.1</ele>
        <time>2016-12-18T13:01:05Z</time>
      </trkpt>
      <trkpt lat="43.5464" lon="6.11934">
        <ele>416</ele>
        <time>2016-12-18T13:01:14Z</time>
      </trkpt>
      <trkpt lat="43.54633" lon="6.11943">
        <ele>416</ele>
        <time>2016-12-18T13:01:22Z</time>
      </trkpt>
      <trkpt lat="43.54626" lon="6.11951">
        <ele>416</ele>
        <time>2016-12-18T13:01:30Z</time>
      </trkpt>
      <trkpt lat="43.54618" lon="6.1196">
        <ele>415.9</ele>
        <time>2016-12-18T13:01:38Z</time>
      </trkpt>
      <trkpt lat="43.54611" lon="6.11969">
        <ele>415.9</ele>
        <time>2016-12-18T13:01:46Z</time>
      </trkpt>
      <trkpt lat="43.54605" lon="6.11979">
        <ele>414.8</ele>
        <time>2016-12-18T13:02:43Z</time>
      </trkpt>
      <trkpt lat="43.54595" lon="6.11981">
        <ele>414.7</ele>
        <time>2016-12-18T13:02:52Z</time>
      </trkpt>
      <trkpt lat="43.54586" lon="6.11982">
        <ele>414.7</ele>
        <time>2016-12-18T13:03:00Z</time>
      </trkpt>
      <trkpt lat="43.54576" lon="6.11978">
        <ele>414.6</ele>
        <time>2016-12-18T13:03:08Z</time>
      </trkpt>
      <trkpt lat="43.54567" lon="6.11975">
        <ele>414.4</ele>
        <time>2016-12-18T13:03:16Z</time>
      </trkpt>
      <trkpt lat="43.54558" lon="6.1197">
        <ele>414.3</ele>
        <time>2016-12-18T13:03:24Z</time>
      </trkpt>
      <trkpt lat="43.5455" lon="6.11962">
        <ele>414.1</ele>
        <time>2016-12-18T13:03:30Z</time>
      </trkpt>
      <trkpt lat="43.54541" lon="6.11958">
        <ele>413.5</ele>
        <time>2016-12-18T13:03:39Z</time>
      </trkpt>
      <trkpt lat="43.54532" lon="6.11953">
        <ele>412.9</ele>
        <time>2016-12-18T13:03:47Z</time>
      </trkpt>
      <trkpt lat="43.54523" lon="6.11947">
        <ele>412.2</ele>
        <time>2016-12-18T13:03:55Z</time>
      </trkpt>
      <trkpt lat="43.54517" lon="6.11937">
        <ele>411</ele>
        <time>2016-12-18T13:04:05Z</time>
      </trkpt>
      <trkpt lat="43.54509" lon="6.1193">
        <ele>410.3</ele>
        <time>2016-12-18T13:04:12Z</time>
      </trkpt>
      <trkpt lat="43.545" lon="6.11925">
        <ele>409.6</ele>
        <time>2016-12-18T13:04:20Z</time>
      </trkpt>
      <trkpt lat="43.5449" lon="6.11927">
        <ele>409.1</ele>
        <time>2016-12-18T13:04:27Z</time>
      </trkpt>
      <trkpt lat="43.54482" lon="6.11932">
        <ele>408.8</ele>
        <time>2016-12-18T13:04:33Z</time>
      </trkpt>
      <trkpt lat="43.54474" lon="6.11941">
        <ele>408.4</ele>
        <time>2016-12-18T13:04:42Z</time>
      </trkpt>
      <trkpt lat="43.54466" lon="6.11948">
        <ele>408.2</ele>
        <time>2016-12-18T13:04:50Z</time>
      </trkpt>
      <trkpt lat="43.54457" lon="6.11955">
        <ele>408.1</ele>
        <time>2016-12-18T13:04:58Z</time>
      </trkpt>
      <trkpt lat="43.5445" lon="6.11963">
        <ele>408</ele>
        <time>2016-12-18T13:05:04Z</time>
      </trkpt>
      <trkpt lat="43.54443" lon="6.11973">
        <ele>407.8</ele>
        <time>2016-12-18T13:05:10Z</time>
      </trkpt>
      <trkpt lat="43.54435" lon="6.1198">
        <ele>407.5</ele>
        <time>2016-12-18T13:05:20Z</time>
      </trkpt>
      <trkpt lat="43.54426" lon="6.11986">
        <ele>407.3</ele>
        <time>2016-12-18T13:05:29Z</time>
      </trkpt>
      <trkpt lat="43.54417" lon="6.11991">
        <ele>407.1</ele>
        <time>2016-12-18T13:05:38Z</time>
      </trkpt>
      <trkpt lat="43.5441" lon="6.12">
        <ele>406.8</ele>
        <time>2016-12-18T13:05:45Z</time>
      </trkpt>
      <trkpt lat="43.54404" lon="6.12008">
        <ele>406.4</ele>
        <time>2016-12-18T13:05:53Z</time>
      </trkpt>
      <trkpt lat="43.54396" lon="6.12018">
        <ele>405.9</ele>
        <time>2016-12-18T13:06:02Z</time>
      </trkpt>
      <trkpt lat="43.54388" lon="6.12024">
        <ele>405.6</ele>
        <time>2016-12-18T13:06:09Z</time>
      </trkpt>
      <trkpt lat="43.54379" lon="6.1203">
        <ele>405.3</ele>
        <time>2016-12-18T13:06:16Z</time>
      </trkpt>
      <trkpt lat="43.5437" lon="6.12036">
        <ele>405.1</ele>
        <time>2016-12-18T13:06:25Z</time>
      </trkpt>
      <trkpt lat="43.54362" lon="6.12044">
        <ele>404.8</ele>
        <time>2016-12-18T13:06:33Z</time>
      </trkpt>
      <trkpt lat="43.54355" lon="6.12052">
        <ele>404.6</ele>
        <time>2016-12-18T13:06:41Z</time>
      </trkpt>
      <trkpt lat="43.54347" lon="6.12061">
        <ele>404.4</ele>
        <time>2016-12-18T13:06:48Z</time>
      </trkpt>
      <trkpt lat="43.5434" lon="6.12071">
        <ele>403.8</ele>
        <time>2016-12-18T13:06:59Z</time>
      </trkpt>
      <trkpt lat="43.54333" lon="6.1208">
        <ele>403.6</ele>
        <time>2016-12-18T13:07:08Z</time>
      </trkpt>
      <trkpt lat="43.54324" lon="6.12089">
        <ele>403.3</ele>
        <time>2016-12-18T13:07:15Z</time>
      </trkpt>
      <trkpt lat="43.54316" lon="6.12097">
        <ele>403</ele>
        <time>2016-12-18T13:07:22Z</time>
      </trkpt>
      <trkpt lat="43.54309" lon="6.12107">
        <ele>402.5</ele>
        <time>2016-12-18T13:07:31Z</time>
      </trkpt>
      <trkpt lat="43.54303" lon="6.12117">
        <ele>402.2</ele>
        <time>2016-12-18T13:07:40Z</time>
      </trkpt>
      <trkpt lat="43.54297" lon="6.12126">
        <ele>402.1</ele>
        <time>2016-12-18T13:07:48Z</time>
      </trkpt>
      <trkpt lat="43.54291" lon="6.12136">
        <ele>402</ele>
        <time>2016-12-18T13:07:56Z</time>
      </trkpt>
      <trkpt lat="43.54284" lon="6.12145">
        <ele>401.9</ele>
        <time>2016-12-18T13:08:06Z</time>
      </trkpt>
      <trkpt lat="43.54278" lon="6.12155">
        <ele>401.9</ele>
        <time>2016-12-18T13:08:14Z</time>
      </trkpt>
      <trkpt lat="43.54272" lon="6.12165">
        <ele>401.9</ele>
        <time>2016-12-18T13:08:22Z</time>
      </trkpt>
      <trkpt lat="43.54266" lon="6.12175">
        <ele>401.9</ele>
        <time>2016-12-18T13:08:30Z</time>
      </trkpt>
      <trkpt lat="43.54259" lon="6.12185">
        <ele>402</ele>
        <time>2016-12-18T13:08:40Z</time>
      </trkpt>
      <trkpt lat="43.54253" lon="6.12196">
        <ele>402</ele>
        <time>2016-12-18T13:08:47Z</time>
      </trkpt>
      <trkpt lat="43.54246" lon="6.12207">
        <ele>402</ele>
        <time>2016-12-18T13:08:56Z</time>
      </trkpt>
      <trkpt lat="43.54239" lon="6.12217">
        <ele>402</ele>
        <time>2016-12-18T13:09:03Z</time>
      </trkpt>
      <trkpt lat="43.54233" lon="6.12226">
        <ele>402</ele>
        <time>2016-12-18T13:09:11Z</time>
      </trkpt>
      <trkpt lat="43.54226" lon="6.12235">
        <ele>402</ele>
        <time>2016-12-18T13:09:18Z</time>
      </trkpt>
      <trkpt lat="43.54218" lon="6.12241">
        <ele>401.9</ele>
        <time>2016-12-18T13:09:26Z</time>
      </trkpt>
      <trkpt lat="43.5421" lon="6.12249">
        <ele>401.6</ele>
        <time>2016-12-18T13:09:34Z</time>
      </trkpt>
      <trkpt lat="43.54202" lon="6.12258">
        <ele>401.1</ele>
        <time>2016-12-18T13:09:42Z</time>
      </trkpt>
      <trkpt lat="43.54195" lon="6.12268">
        <ele>400.7</ele>
        <time>2016-12-18T13:09:49Z</time>
      </trkpt>
      <trkpt lat="43.54188" lon="6.12276">
        <ele>400.2</ele>
        <time>2016-12-18T13:09:58Z</time>
      </trkpt>
      <trkpt lat="43.5418" lon="6.12285">
        <ele>400</ele>
        <time>2016-12-18T13:10:06Z</time>
      </trkpt>
      <trkpt lat="43.54172" lon="6.12292">
        <ele>399.8</ele>
        <time>2016-12-18T13:10:13Z</time>
      </trkpt>
      <trkpt lat="43.54165" lon="6.12301">
        <ele>399.7</ele>
        <time>2016-12-18T13:10:20Z</time>
      </trkpt>
      <trkpt lat="43.54157" lon="6.12309">
        <ele>399.7</ele>
        <time>2016-12-18T13:10:28Z</time>
      </trkpt>
      <trkpt lat="43.5415" lon="6.12317">
        <ele>399.5</ele>
        <time>2016-12-18T13:10:36Z</time>
      </trkpt>
      <trkpt lat="43.54143" lon="6.12326">
        <ele>399.4</ele>
        <time>2016-12-18T13:10:44Z</time>
      </trkpt>
      <trkpt lat="43.54136" lon="6.12336">
        <ele>399.3</ele>
        <time>2016-12-18T13:10:52Z</time>
      </trkpt>
      <trkpt lat="43.54128" lon="6.12344">
        <ele>399.3</ele>
        <time>2016-12-18T13:11:00Z</time>
      </trkpt>
      <trkpt lat="43.5412" lon="6.12351">
        <ele>399.2</ele>
        <time>2016-12-18T13:11:09Z</time>
      </trkpt>
      <trkpt lat="43.54113" lon="6.1236">
        <ele>399.1</ele>
        <time>2016-12-18T13:11:17Z</time>
      </trkpt>
      <trkpt lat="43.54106" lon="6.12368">
        <ele>399</ele>
        <time>2016-12-18T13:11:23Z</time>
      </trkpt>
      <trkpt lat="43.54098" lon="6.12375">
        <ele>399</ele>
        <time>2016-12-18T13:11:31Z</time>
      </trkpt>
      <trkpt lat="43.54091" lon="6.12385">
        <ele>398.9</ele>
        <time>2016-12-18T13:11:41Z</time>
      </trkpt>
      <trkpt lat="43.54083" lon="6.12393">
        <ele>398.8</ele>
        <time>2016-12-18T13:11:49Z</time>
      </trkpt>
      <trkpt lat="43.54076" lon="6.12401">
        <ele>398.7</ele>
        <time>2016-12-18T13:11:57Z</time>
      </trkpt>
      <trkpt lat="43.54068" lon="6.12409">
        <ele>398.7</ele>
        <time>2016-12-18T13:12:04Z</time>
      </trkpt>
      <trkpt lat="43.54061" lon="6.12418">
        <ele>398.6</ele>
        <time>2016-12-18T13:12:12Z</time>
      </trkpt>
      <trkpt lat="43.54053" lon="6.12426">
        <ele>398.6</ele>
        <time>2016-12-18T13:12:20Z</time>
      </trkpt>
      <trkpt lat="43.54045" lon="6.12433">
        <ele>398.5</ele>
        <time>2016-12-18T13:12:27Z</time>
      </trkpt>
      <trkpt lat="43.54037" lon="6.12442">
        <ele>398.3</ele>
        <time>2016-12-18T13:12:35Z</time>
      </trkpt>
      <trkpt lat="43.54029" lon="6.12447">
        <ele>398.3</ele>
        <time>2016-12-18T13:12:43Z</time>
      </trkpt>
      <trkpt lat="43.5402" lon="6.1245">
        <ele>398.2</ele>
        <time>2016-12-18T13:12:52Z</time>
      </trkpt>
      <trkpt lat="43.54012" lon="6.12455">
        <ele>398.2</ele>
        <time>2016-12-18T13:13:00Z</time>
      </trkpt>
      <trkpt lat="43.54003" lon="6.12461">
        <ele>398.2</ele>
        <time>2016-12-18T13:13:07Z</time>
      </trkpt>
      <trkpt lat="43.53996" lon="6.12469">
        <ele>398.1</ele>
        <time>2016-12-18T13:13:15Z</time>
      </trkpt>
      <trkpt lat="43.53986" lon="6.12474">
        <ele>397.8</ele>
        <time>2016-12-18T13:13:23Z</time>
      </trkpt>
      <trkpt lat="43.53978" lon="6.12482">
        <ele>397.7</ele>
        <time>2016-12-18T13:13:31Z</time>
      </trkpt>
      <trkpt lat="43.5397" lon="6.12486">
        <ele>397.5</ele>
        <time>2016-12-18T13:13:38Z</time>
      </trkpt>
      <trkpt lat="43.53962" lon="6.12494">
        <ele>397.1</ele>
        <time>2016-12-18T13:13:45Z</time>
      </trkpt>
      <trkpt lat="43.53955" lon="6.12502">
        <ele>396.8</ele>
        <time>2016-12-18T13:13:53Z</time>
      </trkpt>
      <trkpt lat="43.53947" lon="6.12509">
        <ele>396.6</ele>
        <time>2016-12-18T13:14:01Z</time>
      </trkpt>
      <trkpt lat="43.53939" lon="6.12516">
        <ele>396.5</ele>
        <time>2016-12-18T13:14:11Z</time>
      </trkpt>
      <trkpt lat="43.5393" lon="6.12521">
        <ele>396.4</ele>
        <time>2016-12-18T13:14:19Z</time>
      </trkpt>
      <trkpt lat="43.53921" lon="6.12525">
        <ele>396.3</ele>
        <time>2016-12-18T13:14:26Z</time>
      </trkpt>
      <trkpt lat="43.53911" lon="6.12528">
        <ele>396.2</ele>
        <time>2016-12-18T13:14:34Z</time>
      </trkpt>
      <trkpt lat="43.53901" lon="6.12529">
        <ele>396</ele>
        <time>2016-12-18T13:14:43Z</time>
      </trkpt>
      <trkpt lat="43.53891" lon="6.1253">
        <ele>395.8</ele>
        <time>2016-12-18T13:14:51Z</time>
      </trkpt>
      <trkpt lat="43.53883" lon="6.12534">
        <ele>395.6</ele>
        <time>2016-12-18T13:15:04Z</time>
      </trkpt>
      <trkpt lat="43.53873" lon="6.12536">
        <ele>395.5</ele>
        <time>2016-12-18T13:15:13Z</time>
      </trkpt>
      <trkpt lat="43.53863" lon="6.12536">
        <ele>395.4</ele>
        <time>2016-12-18T13:15:21Z</time>
      </trkpt>
      <trkpt lat="43.53854" lon="6.12536">
        <ele>395.4</ele>
        <time>2016-12-18T13:15:29Z</time>
      </trkpt>
      <trkpt lat="43.53845" lon="6.12541">
        <ele>395.4</ele>
        <time>2016-12-18T13:15:36Z</time>
      </trkpt>
      <trkpt lat="43.53836" lon="6.12544">
        <ele>395.3</ele>
        <time>2016-12-18T13:15:42Z</time>
      </trkpt>
      <trkpt lat="43.53827" lon="6.12547">
        <ele>395.1</ele>
        <time>2016-12-18T13:15:49Z</time>
      </trkpt>
      <trkpt lat="43.53818" lon="6.1255">
        <ele>395.1</ele>
        <time>2016-12-18T13:15:56Z</time>
      </trkpt>
      <trkpt lat="43.53808" lon="6.12552">
        <ele>394.9</ele>
        <time>2016-12-18T13:16:05Z</time>
      </trkpt>
      <trkpt lat="43.53799" lon="6.12555">
        <ele>394.8</ele>
        <time>2016-12-18T13:16:13Z</time>
      </trkpt>
      <trkpt lat="43.5379" lon="6.12557">
        <ele>394.7</ele>
        <time>2016-12-18T13:16:22Z</time>
      </trkpt>
      <trkpt lat="43.5378" lon="6.12562">
        <ele>394.6</ele>
        <time>2016-12-18T13:16:30Z</time>
      </trkpt>
      <trkpt lat="43.53771" lon="6.12564">
        <ele>394.5</ele>
        <time>2016-12-18T13:16:37Z</time>
      </trkpt>
      <trkpt lat="43.53761" lon="6.12569">
        <ele>393.9</ele>
        <time>2016-12-18T13:16:48Z</time>
      </trkpt>
      <trkpt lat="43.53751" lon="6.12571">
        <ele>393.3</ele>
        <time>2016-12-18T13:16:57Z</time>
      </trkpt>
      <trkpt lat="43.53742" lon="6.12576">
        <ele>392.5</ele>
        <time>2016-12-18T13:17:06Z</time>
      </trkpt>
      <trkpt lat="43.53732" lon="6.1258">
        <ele>392</ele>
        <time>2016-12-18T13:17:13Z</time>
      </trkpt>
      <trkpt lat="43.53722" lon="6.12581">
        <ele>391.6</ele>
        <time>2016-12-18T13:17:19Z</time>
      </trkpt>
      <trkpt lat="43.53713" lon="6.12585">
        <ele>391.2</ele>
        <time>2016-12-18T13:17:28Z</time>
      </trkpt>
      <trkpt lat="43.53704" lon="6.12589">
        <ele>390.9</ele>
        <time>2016-12-18T13:17:36Z</time>
      </trkpt>
      <trkpt lat="43.53695" lon="6.12593">
        <ele>390.6</ele>
        <time>2016-12-18T13:17:43Z</time>
      </trkpt>
      <trkpt lat="43.53685" lon="6.12596">
        <ele>390.4</ele>
        <time>2016-12-18T13:17:51Z</time>
      </trkpt>
      <trkpt lat="43.53676" lon="6.12598">
        <ele>390.2</ele>
        <time>2016-12-18T13:17:59Z</time>
      </trkpt>
      <trkpt lat="43.53667" lon="6.12601">
        <ele>390.1</ele>
        <time>2016-12-18T13:18:06Z</time>
      </trkpt>
      <trkpt lat="43.53657" lon="6.12602">
        <ele>390.1</ele>
        <time>2016-12-18T13:18:13Z</time>
      </trkpt>
      <trkpt lat="43.53648" lon="6.12605">
        <ele>390</ele>
        <time>2016-12-18T13:18:21Z</time>
      </trkpt>
      <trkpt lat="43.53639" lon="6.12609">
        <ele>390</ele>
        <time>2016-12-18T13:18:30Z</time>
      </trkpt>
      <trkpt lat="43.53631" lon="6.12615">
        <ele>390</ele>
        <time>2016-12-18T13:18:39Z</time>
      </trkpt>
      <trkpt lat="43.53623" lon="6.12624">
        <ele>390</ele>
        <time>2016-12-18T13:18:45Z</time>
      </trkpt>
      <trkpt lat="43.53615" lon="6.12632">
        <ele>389.8</ele>
        <time>2016-12-18T13:18:52Z</time>
      </trkpt>
      <trkpt lat="43.53605" lon="6.12636">
        <ele>389.5</ele>
        <time>2016-12-18T13:18:59Z</time>
      </trkpt>
      <trkpt lat="43.53596" lon="6.1264">
        <ele>389.1</ele>
        <time>2016-12-18T13:19:06Z</time>
      </trkpt>
      <trkpt lat="43.53587" lon="6.12645">
        <ele>388.7</ele>
        <time>2016-12-18T13:19:14Z</time>
      </trkpt>
      <trkpt lat="43.53578" lon="6.12652">
        <ele>388.4</ele>
        <time>2016-12-18T13:19:20Z</time>
      </trkpt>
      <trkpt lat="43.53575" lon="6.12665">
        <ele>387.2</ele>
        <time>2016-12-18T13:20:04Z</time>
      </trkpt>
      <trkpt lat="43.53578" lon="6.12653">
        <ele>387.1</ele>
        <time>2016-12-18T13:21:10Z</time>
      </trkpt>
      <trkpt lat="43.53569" lon="6.12648">
        <ele>386.7</ele>
        <time>2016-12-18T13:21:22Z</time>
      </trkpt>
      <trkpt lat="43.5356" lon="6.12644">
        <ele>386.2</ele>
        <time>2016-12-18T13:21:29Z</time>
      </trkpt>
      <trkpt lat="43.5355" lon="6.12646">
        <ele>385.8</ele>
        <time>2016-12-18T13:21:37Z</time>
      </trkpt>
      <trkpt lat="43.53541" lon="6.12652">
        <ele>385.3</ele>
        <time>2016-12-18T13:21:45Z</time>
      </trkpt>
      <trkpt lat="43.53533" lon="6.12658">
        <ele>384.8</ele>
        <time>2016-12-18T13:21:52Z</time>
      </trkpt>
      <trkpt lat="43.53524" lon="6.12663">
        <ele>384.4</ele>
        <time>2016-12-18T13:22:00Z</time>
      </trkpt>
      <trkpt lat="43.53515" lon="6.12669">
        <ele>383.8</ele>
        <time>2016-12-18T13:22:08Z</time>
      </trkpt>
      <trkpt lat="43.53506" lon="6.12676">
        <ele>383.4</ele>
        <time>2016-12-18T13:22:15Z</time>
      </trkpt>
      <trkpt lat="43.53498" lon="6.12681">
        <ele>382.9</ele>
        <time>2016-12-18T13:22:22Z</time>
      </trkpt>
      <trkpt lat="43.5349" lon="6.12688">
        <ele>382.2</ele>
        <time>2016-12-18T13:22:31Z</time>
      </trkpt>
      <trkpt lat="43.53486" lon="6.127">
        <ele>381.6</ele>
        <time>2016-12-18T13:22:41Z</time>
      </trkpt>
      <trkpt lat="43.53488" lon="6.12712">
        <ele>380.8</ele>
        <time>2016-12-18T13:23:14Z</time>
      </trkpt>
      <trkpt lat="43.53487" lon="6.12727">
        <ele>380.8</ele>
        <time>2016-12-18T13:23:21Z</time>
      </trkpt>
      <trkpt lat="43.53489" lon="6.1274">
        <ele>380.4</ele>
        <time>2016-12-18T13:23:29Z</time>
      </trkpt>
      <trkpt lat="43.53492" lon="6.12753">
        <ele>380.1</ele>
        <time>2016-12-18T13:23:39Z</time>
      </trkpt>
      <trkpt lat="43.53493" lon="6.12765">
        <ele>380</ele>
        <time>2016-12-18T13:23:47Z</time>
      </trkpt>
      <trkpt lat="43.53493" lon="6.12778">
        <ele>379.8</ele>
        <time>2016-12-18T13:23:54Z</time>
      </trkpt>
      <trkpt lat="43.53492" lon="6.12792">
        <ele>379.7</ele>
        <time>2016-12-18T13:24:00Z</time>
      </trkpt>
      <trkpt lat="43.53496" lon="6.12805">
        <ele>379.6</ele>
        <time>2016-12-18T13:24:11Z</time>
      </trkpt>
      <trkpt lat="43.53495" lon="6.12818">
        <ele>379.5</ele>
        <time>2016-12-18T13:24:17Z</time>
      </trkpt>
      <trkpt lat="43.53495" lon="6.12832">
        <ele>379.3</ele>
        <time>2016-12-18T13:24:23Z</time>
      </trkpt>
      <trkpt lat="43.53496" lon="6.12844">
        <ele>379.2</ele>
        <time>2016-12-18T13:24:30Z</time>
      </trkpt>
      <trkpt lat="43.53497" lon="6.12858">
        <ele>379.2</ele>
        <time>2016-12-18T13:24:38Z</time>
      </trkpt>
      <trkpt lat="43.53497" lon="6.12872">
        <ele>379.1</ele>
        <time>2016-12-18T13:24:46Z</time>
      </trkpt>
      <trkpt lat="43.53497" lon="6.12885">
        <ele>379.1</ele>
        <time>2016-12-18T13:24:54Z</time>
      </trkpt>
      <trkpt lat="43.53498" lon="6.12899">
        <ele>379.1</ele>
        <time>2016-12-18T13:25:01Z</time>
      </trkpt>
      <trkpt lat="43.53498" lon="6.12914">
        <ele>379</ele>
        <time>2016-12-18T13:25:08Z</time>
      </trkpt>
      <trkpt lat="43.53497" lon="6.12927">
        <ele>379</ele>
        <time>2016-12-18T13:25:14Z</time>
      </trkpt>
      <trkpt lat="43.53496" lon="6.1294">
        <ele>379</ele>
        <time>2016-12-18T13:25:20Z</time>
      </trkpt>
      <trkpt lat="43.53494" lon="6.12953">
        <ele>379</ele>
        <time>2016-12-18T13:25:27Z</time>
      </trkpt>
      <trkpt lat="43.53497" lon="6.12966">
        <ele>379</ele>
        <time>2016-12-18T13:25:37Z</time>
      </trkpt>
      <trkpt lat="43.53496" lon="6.12979">
        <ele>379</ele>
        <time>2016-12-18T13:25:44Z</time>
      </trkpt>
      <trkpt lat="43.53496" lon="6.12992">
        <ele>379</ele>
        <time>2016-12-18T13:25:52Z</time>
      </trkpt>
      <trkpt lat="43.53497" lon="6.13005">
        <ele>379</ele>
        <time>2016-12-18T13:25:59Z</time>
      </trkpt>
      <trkpt lat="43.53494" lon="6.13017">
        <ele>379</ele>
        <time>2016-12-18T13:26:09Z</time>
      </trkpt>
      <trkpt lat="43.53492" lon="6.1303">
        <ele>379</ele>
        <time>2016-12-18T13:26:16Z</time>
      </trkpt>
      <trkpt lat="43.5349" lon="6.13043">
        <ele>379</ele>
        <time>2016-12-18T13:26:24Z</time>
      </trkpt>
      <trkpt lat="43.53489" lon="6.13056">
        <ele>379</ele>
        <time>2016-12-18T13:26:31Z</time>
      </trkpt>
      <trkpt lat="43.53491" lon="6.1307">
        <ele>379</ele>
        <time>2016-12-18T13:26:40Z</time>
      </trkpt>
      <trkpt lat="43.5349" lon="6.13084">
        <ele>379</ele>
        <time>2016-12-18T13:26:47Z</time>
      </trkpt>
      <trkpt lat="43.53492" lon="6.13097">
        <ele>379</ele>
        <time>2016-12-18T13:26:55Z</time>
      </trkpt>
      <trkpt lat="43.53493" lon="6.1311">
        <ele>379.1</ele>
        <time>2016-12-18T13:27:02Z</time>
      </trkpt>
      <trkpt lat="43.53493" lon="6.13124">
        <ele>379.2</ele>
        <time>2016-12-18T13:27:11Z</time>
      </trkpt>
      <trkpt lat="43.53494" lon="6.13137">
        <ele>379.4</ele>
        <time>2016-12-18T13:27:19Z</time>
      </trkpt>
      <trkpt lat="43.53495" lon="6.1315">
        <ele>379.6</ele>
        <time>2016-12-18T13:27:28Z</time>
      </trkpt>
      <trkpt lat="43.53495" lon="6.13164">
        <ele>380</ele>
        <time>2016-12-18T13:27:35Z</time>
      </trkpt>
      <trkpt lat="43.53494" lon="6.13177">
        <ele>380.2</ele>
        <time>2016-12-18T13:27:42Z</time>
      </trkpt>
      <trkpt lat="43.53493" lon="6.13189">
        <ele>380.7</ele>
        <time>2016-12-18T13:27:56Z</time>
      </trkpt>
      <trkpt lat="43.53492" lon="6.13202">
        <ele>381</ele>
        <time>2016-12-18T13:28:07Z</time>
      </trkpt>
      <trkpt lat="43.53491" lon="6.13215">
        <ele>381.3</ele>
        <time>2016-12-18T13:28:24Z</time>
      </trkpt>
      <trkpt lat="43.53488" lon="6.13228">
        <ele>381.4</ele>
        <time>2016-12-18T13:28:32Z</time>
      </trkpt>
      <trkpt lat="43.53484" lon="6.13239">
        <ele>381.5</ele>
        <time>2016-12-18T13:28:39Z</time>
      </trkpt>
      <trkpt lat="43.53482" lon="6.13251">
        <ele>381.6</ele>
        <time>2016-12-18T13:28:46Z</time>
      </trkpt>
      <trkpt lat="43.5348" lon="6.13264">
        <ele>381.9</ele>
        <time>2016-12-18T13:28:54Z</time>
      </trkpt>
      <trkpt lat="43.53479" lon="6.13277">
        <ele>382</ele>
        <time>2016-12-18T13:29:01Z</time>
      </trkpt>
      <trkpt lat="43.53478" lon="6.13289">
        <ele>382.1</ele>
        <time>2016-12-18T13:29:08Z</time>
      </trkpt>
      <trkpt lat="43.53478" lon="6.13302">
        <ele>382.2</ele>
        <time>2016-12-18T13:29:16Z</time>
      </trkpt>
      <trkpt lat="43.53477" lon="6.13314">
        <ele>382.4</ele>
        <time>2016-12-18T13:29:23Z</time>
      </trkpt>
      <trkpt lat="43.53478" lon="6.13328">
        <ele>382.5</ele>
        <time>2016-12-18T13:29:31Z</time>
      </trkpt>
      <trkpt lat="43.53477" lon="6.13342">
        <ele>382.6</ele>
        <time>2016-12-18T13:29:39Z</time>
      </trkpt>
      <trkpt lat="43.53477" lon="6.13356">
        <ele>382.6</ele>
        <time>2016-12-18T13:29:46Z</time>
      </trkpt>
      <trkpt lat="43.53478" lon="6.13369">
        <ele>382.6</ele>
        <time>2016-12-18T13:29:56Z</time>
      </trkpt>
      <trkpt lat="43.53477" lon="6.13383">
        <ele>382.6</ele>
        <time>2016-12-18T13:30:05Z</time>
      </trkpt>
      <trkpt lat="43.53474" lon="6.13396">
        <ele>382.6</ele>
        <time>2016-12-18T13:30:14Z</time>
      </trkpt>
      <trkpt lat="43.53475" lon="6.13408">
        <ele>382.5</ele>
        <time>2016-12-18T13:30:22Z</time>
      </trkpt>
      <trkpt lat="43.53474" lon="6.13421">
        <ele>382.4</ele>
        <time>2016-12-18T13:30:29Z</time>
      </trkpt>
      <trkpt lat="43.53471" lon="6.13433">
        <ele>382.3</ele>
        <time>2016-12-18T13:30:38Z</time>
      </trkpt>
      <trkpt lat="43.53472" lon="6.13447">
        <ele>382.2</ele>
        <time>2016-12-18T13:30:44Z</time>
      </trkpt>
      <trkpt lat="43.53472" lon="6.1346">
        <ele>381.9</ele>
        <time>2016-12-18T13:30:51Z</time>
      </trkpt>
      <trkpt lat="43.53471" lon="6.13474">
        <ele>381.3</ele>
        <time>2016-12-18T13:30:58Z</time>
      </trkpt>
      <trkpt lat="43.53473" lon="6.13488">
        <ele>380.6</ele>
        <time>2016-12-18T13:31:05Z</time>
      </trkpt>
      <trkpt lat="43.53477" lon="6.135">
        <ele>380.1</ele>
        <time>2016-12-18T13:31:14Z</time>
      </trkpt>
      <trkpt lat="43.53478" lon="6.13514">
        <ele>379.8</ele>
        <time>2016-12-18T13:31:22Z</time>
      </trkpt>
      <trkpt lat="43.53479" lon="6.13526">
        <ele>379.4</ele>
        <time>2016-12-18T13:31:31Z</time>
      </trkpt>
      <trkpt lat="43.53479" lon="6.1354">
        <ele>379.3</ele>
        <time>2016-12-18T13:31:39Z</time>
      </trkpt>
      <trkpt lat="43.53481" lon="6.13553">
        <ele>379.1</ele>
        <time>2016-12-18T13:31:46Z</time>
      </trkpt>
      <trkpt lat="43.53485" lon="6.13566">
        <ele>378.7</ele>
        <time>2016-12-18T13:31:54Z</time>
      </trkpt>
      <trkpt lat="43.53489" lon="6.13578">
        <ele>378.4</ele>
        <time>2016-12-18T13:32:03Z</time>
      </trkpt>
      <trkpt lat="43.53494" lon="6.13591">
        <ele>378.1</ele>
        <time>2016-12-18T13:32:11Z</time>
      </trkpt>
      <trkpt lat="43.535" lon="6.13603">
        <ele>377.5</ele>
        <time>2016-12-18T13:32:19Z</time>
      </trkpt>
      <trkpt lat="43.53504" lon="6.13614">
        <ele>376.7</ele>
        <time>2016-12-18T13:32:27Z</time>
      </trkpt>
      <trkpt lat="43.5351" lon="6.13625">
        <ele>376.2</ele>
        <time>2016-12-18T13:32:35Z</time>
      </trkpt>
      <trkpt lat="43.53516" lon="6.13635">
        <ele>375.8</ele>
        <time>2016-12-18T13:32:42Z</time>
      </trkpt>
      <trkpt lat="43.53522" lon="6.13646">
        <ele>375.4</ele>
        <time>2016-12-18T13:32:49Z</time>
      </trkpt>
      <trkpt lat="43.53527" lon="6.13656">
        <ele>375</ele>
        <time>2016-12-18T13:32:57Z</time>
      </trkpt>
      <trkpt lat="43.53533" lon="6.13666">
        <ele>374.5</ele>
        <time>2016-12-18T13:33:06Z</time>
      </trkpt>
      <trkpt lat="43.53541" lon="6.13676">
        <ele>374.3</ele>
        <time>2016-12-18T13:33:14Z</time>
      </trkpt>
      <trkpt lat="43.53545" lon="6.13688">
        <ele>374.1</ele>
        <time>2016-12-18T13:33:21Z</time>
      </trkpt>
      <trkpt lat="43.53548" lon="6.13701">
        <ele>373.5</ele>
        <time>2016-12-18T13:33:30Z</time>
      </trkpt>
      <trkpt lat="43.53552" lon="6.13713">
        <ele>372.8</ele>
        <time>2016-12-18T13:33:40Z</time>
      </trkpt>
      <trkpt lat="43.53553" lon="6.13726">
        <ele>372.3</ele>
        <time>2016-12-18T13:33:47Z</time>
      </trkpt>
      <trkpt lat="43.53553" lon="6.1374">
        <ele>371.5</ele>
        <time>2016-12-18T13:33:55Z</time>
      </trkpt>
      <trkpt lat="43.53553" lon="6.13753">
        <ele>370.4</ele>
        <time>2016-12-18T13:34:06Z</time>
      </trkpt>
      <trkpt lat="43.53551" lon="6.1374">
        <ele>369</ele>
        <time>2016-12-18T13:34:22Z</time>
      </trkpt>
      <trkpt lat="43.53555" lon="6.13727">
        <ele>368.7</ele>
        <time>2016-12-18T13:34:29Z</time>
      </trkpt>
      <trkpt lat="43.53548" lon="6.13735">
        <ele>368.4</ele>
        <time>2016-12-18T13:34:44Z</time>
      </trkpt>
      <trkpt lat="43.5354" lon="6.13743">
        <ele>368.3</ele>
        <time>2016-12-18T13:34:49Z</time>
      </trkpt>
      <trkpt lat="43.53531" lon="6.13749">
        <ele>368.2</ele>
        <time>2016-12-18T13:34:53Z</time>
      </trkpt>
      <trkpt lat="43.53543" lon="6.13743">
        <ele>368.2</ele>
        <time>2016-12-18T13:34:56Z</time>
      </trkpt>
      <trkpt lat="43.53553" lon="6.1374">
        <ele>368.2</ele>
        <time>2016-12-18T13:35:01Z</time>
      </trkpt>
      <trkpt lat="43.53556" lon="6.13752">
        <ele>367.9</ele>
        <time>2016-12-18T13:35:15Z</time>
      </trkpt>
      <trkpt lat="43.53555" lon="6.13766">
        <ele>367.5</ele>
        <time>2016-12-18T13:35:23Z</time>
      </trkpt>
      <trkpt lat="43.53554" lon="6.13779">
        <ele>367.2</ele>
        <time>2016-12-18T13:35:28Z</time>
      </trkpt>
      <trkpt lat="43.53551" lon="6.13793">
        <ele>367</ele>
        <time>2016-12-18T13:35:33Z</time>
      </trkpt>
      <trkpt lat="43.53549" lon="6.13806">
        <ele>366.7</ele>
        <time>2016-12-18T13:35:38Z</time>
      </trkpt>
      <trkpt lat="43.53546" lon="6.13818">
        <ele>366.2</ele>
        <time>2016-12-18T13:35:44Z</time>
      </trkpt>
      <trkpt lat="43.53544" lon="6.13831">
        <ele>365.4</ele>
        <time>2016-12-18T13:35:54Z</time>
      </trkpt>
      <trkpt lat="43.53546" lon="6.13843">
        <ele>364.7</ele>
        <time>2016-12-18T13:36:06Z</time>
      </trkpt>
      <trkpt lat="43.53544" lon="6.13857">
        <ele>364.3</ele>
        <time>2016-12-18T13:36:15Z</time>
      </trkpt>
      <trkpt lat="43.53544" lon="6.1387">
        <ele>363.8</ele>
        <time>2016-12-18T13:36:24Z</time>
      </trkpt>
      <trkpt lat="43.53541" lon="6.13883">
        <ele>363.5</ele>
        <time>2016-12-18T13:36:33Z</time>
      </trkpt>
      <trkpt lat="43.53535" lon="6.13895">
        <ele>363.1</ele>
        <time>2016-12-18T13:36:41Z</time>
      </trkpt>
      <trkpt lat="43.53531" lon="6.13908">
        <ele>362.7</ele>
        <time>2016-12-18T13:36:46Z</time>
      </trkpt>
      <trkpt lat="43.53526" lon="6.13919">
        <ele>362</ele>
        <time>2016-12-18T13:36:57Z</time>
      </trkpt>
      <trkpt lat="43.53518" lon="6.13925">
        <ele>361.6</ele>
        <time>2016-12-18T13:37:07Z</time>
      </trkpt>
      <trkpt lat="43.53508" lon="6.13926">
        <ele>361.3</ele>
        <time>2016-12-18T13:37:16Z</time>
      </trkpt>
      <trkpt lat="43.53498" lon="6.13926">
        <ele>361.1</ele>
        <time>2016-12-18T13:37:24Z</time>
      </trkpt>
      <trkpt lat="43.53489" lon="6.13921">
        <ele>360.9</ele>
        <time>2016-12-18T13:37:36Z</time>
      </trkpt>
      <trkpt lat="43.53481" lon="6.13912">
        <ele>360.4</ele>
        <time>2016-12-18T13:37:49Z</time>
      </trkpt>
      <trkpt lat="43.53473" lon="6.13905">
        <ele>360</ele>
        <time>2016-12-18T13:37:57Z</time>
      </trkpt>
      <trkpt lat="43.53464" lon="6.13906">
        <ele>359.1</ele>
        <time>2016-12-18T13:38:09Z</time>
      </trkpt>
      <trkpt lat="43.53467" lon="6.13918">
        <ele>358.3</ele>
        <time>2016-12-18T13:38:18Z</time>
      </trkpt>
      <trkpt lat="43.53472" lon="6.13929">
        <ele>357.6</ele>
        <time>2016-12-18T13:38:28Z</time>
      </trkpt>
      <trkpt lat="43.53465" lon="6.13938">
        <ele>356.8</ele>
        <time>2016-12-18T13:38:39Z</time>
      </trkpt>
      <trkpt lat="43.53455" lon="6.13938">
        <ele>356.3</ele>
        <time>2016-12-18T13:38:50Z</time>
      </trkpt>
      <trkpt lat="43.53446" lon="6.13937">
        <ele>356.6</ele>
        <time>2016-12-18T13:39:02Z</time>
      </trkpt>
      <trkpt lat="43.53438" lon="6.1393">
        <ele>357.9</ele>
        <time>2016-12-18T13:39:19Z</time>
      </trkpt>
      <trkpt lat="43.5343" lon="6.13923">
        <ele>359</ele>
        <time>2016-12-18T13:39:31Z</time>
      </trkpt>
      <trkpt lat="43.53421" lon="6.13919">
        <ele>362.9</ele>
        <time>2016-12-18T13:41:04Z</time>
      </trkpt>
      <trkpt lat="43.53432" lon="6.13916">
        <ele>363</ele>
        <time>2016-12-18T13:43:07Z</time>
      </trkpt>
      <trkpt lat="43.5344" lon="6.13924">
        <ele>362.3</ele>
        <time>2016-12-18T13:43:26Z</time>
      </trkpt>
      <trkpt lat="43.53447" lon="6.13932">
        <ele>360.9</ele>
        <time>2016-12-18T13:43:42Z</time>
      </trkpt>
      <trkpt lat="43.53456" lon="6.13937">
        <ele>359.3</ele>
        <time>2016-12-18T13:43:56Z</time>
      </trkpt>
      <trkpt lat="43.53466" lon="6.1394">
        <ele>357.9</ele>
        <time>2016-12-18T13:44:10Z</time>
      </trkpt>
      <trkpt lat="43.53474" lon="6.13945">
        <ele>357</ele>
        <time>2016-12-18T13:44:21Z</time>
      </trkpt>
      <trkpt lat="43.53481" lon="6.13954">
        <ele>356.3</ele>
        <time>2016-12-18T13:44:31Z</time>
      </trkpt>
      <trkpt lat="43.5348" lon="6.13967">
        <ele>355.7</ele>
        <time>2016-12-18T13:44:41Z</time>
      </trkpt>
      <trkpt lat="43.5349" lon="6.13966">
        <ele>355.3</ele>
        <time>2016-12-18T13:44:50Z</time>
      </trkpt>
      <trkpt lat="43.53497" lon="6.13958">
        <ele>354.8</ele>
        <time>2016-12-18T13:45:11Z</time>
      </trkpt>
      <trkpt lat="43.53494" lon="6.13946">
        <ele>354.5</ele>
        <time>2016-12-18T13:45:51Z</time>
      </trkpt>
      <trkpt lat="43.53489" lon="6.13934">
        <ele>353.7</ele>
        <time>2016-12-18T13:46:48Z</time>
      </trkpt>
      <trkpt lat="43.53486" lon="6.13948">
        <ele>353.7</ele>
        <time>2016-12-18T13:47:06Z</time>
      </trkpt>
      <trkpt lat="43.53482" lon="6.13961">
        <ele>353.8</ele>
        <time>2016-12-18T13:47:20Z</time>
      </trkpt>
      <trkpt lat="43.53488" lon="6.13951">
        <ele>354</ele>
        <time>2016-12-18T13:48:02Z</time>
      </trkpt>
      <trkpt lat="43.53486" lon="6.13965">
        <ele>354.4</ele>
        <time>2016-12-18T13:48:55Z</time>
      </trkpt>
      <trkpt lat="43.53484" lon="6.13978">
        <ele>354.4</ele>
        <time>2016-12-18T13:49:01Z</time>
      </trkpt>
      <trkpt lat="43.53479" lon="6.13989">
        <ele>354.4</ele>
        <time>2016-12-18T13:49:09Z</time>
      </trkpt>
      <trkpt lat="43.53474" lon="6.14">
        <ele>354.5</ele>
        <time>2016-12-18T13:49:28Z</time>
      </trkpt>
      <trkpt lat="43.53469" lon="6.1401">
        <ele>354.5</ele>
        <time>2016-12-18T13:49:46Z</time>
      </trkpt>
      <trkpt lat="43.5346" lon="6.14017">
        <ele>354.5</ele>
        <time>2016-12-18T13:50:19Z</time>
      </trkpt>
      <trkpt lat="43.53452" lon="6.14025">
        <ele>354.5</ele>
        <time>2016-12-18T13:50:29Z</time>
      </trkpt>
      <trkpt lat="43.53444" lon="6.14032">
        <ele>354.5</ele>
        <time>2016-12-18T13:50:39Z</time>
      </trkpt>
      <trkpt lat="43.53436" lon="6.14038">
        <ele>354.5</ele>
        <time>2016-12-18T13:50:47Z</time>
      </trkpt>
      <trkpt lat="43.53428" lon="6.14045">
        <ele>354.5</ele>
        <time>2016-12-18T13:50:54Z</time>
      </trkpt>
      <trkpt lat="43.53419" lon="6.14051">
        <ele>354.5</ele>
        <time>2016-12-18T13:51:06Z</time>
      </trkpt>
      <trkpt lat="43.5341" lon="6.14056">
        <ele>354.5</ele>
        <time>2016-12-18T13:51:15Z</time>
      </trkpt>
      <trkpt lat="43.53402" lon="6.14068">
        <ele>354.5</ele>
        <time>2016-12-18T13:51:56Z</time>
      </trkpt>
      <trkpt lat="43.53399" lon="6.14081">
        <ele>354.5</ele>
        <time>2016-12-18T13:52:08Z</time>
      </trkpt>
      <trkpt lat="43.53395" lon="6.14092">
        <ele>354.3</ele>
        <time>2016-12-18T13:52:17Z</time>
      </trkpt>
      <trkpt lat="43.53391" lon="6.14105">
        <ele>353.9</ele>
        <time>2016-12-18T13:52:25Z</time>
      </trkpt>
      <trkpt lat="43.53385" lon="6.14114">
        <ele>353.6</ele>
        <time>2016-12-18T13:52:32Z</time>
      </trkpt>
      <trkpt lat="43.53378" lon="6.14124">
        <ele>352.8</ele>
        <time>2016-12-18T13:52:49Z</time>
      </trkpt>
      <trkpt lat="43.5337" lon="6.14129">
        <ele>352.5</ele>
        <time>2016-12-18T13:52:57Z</time>
      </trkpt>
      <trkpt lat="43.53362" lon="6.14134">
        <ele>352</ele>
        <time>2016-12-18T13:53:06Z</time>
      </trkpt>
      <trkpt lat="43.53352" lon="6.1414">
        <ele>351.3</ele>
        <time>2016-12-18T13:53:17Z</time>
      </trkpt>
      <trkpt lat="43.53344" lon="6.14147">
        <ele>350.7</ele>
        <time>2016-12-18T13:53:26Z</time>
      </trkpt>
      <trkpt lat="43.53335" lon="6.14153">
        <ele>350.1</ele>
        <time>2016-12-18T13:53:34Z</time>
      </trkpt>
      <trkpt lat="43.53327" lon="6.14161">
        <ele>348.8</ele>
        <time>2016-12-18T13:53:49Z</time>
      </trkpt>
      <trkpt lat="43.53329" lon="6.14173">
        <ele>347.6</ele>
        <time>2016-12-18T13:54:01Z</time>
      </trkpt>
      <trkpt lat="43.53333" lon="6.14185">
        <ele>345.4</ele>
        <time>2016-12-18T13:54:47Z</time>
      </trkpt>
      <trkpt lat="43.53333" lon="6.14199">
        <ele>343.6</ele>
        <time>2016-12-18T13:56:00Z</time>
      </trkpt>
      <trkpt lat="43.5334" lon="6.14209">
        <ele>343</ele>
        <time>2016-12-18T13:56:08Z</time>
      </trkpt>
      <trkpt lat="43.53345" lon="6.1422">
        <ele>342.3</ele>
        <time>2016-12-18T13:56:18Z</time>
      </trkpt>
      <trkpt lat="43.53349" lon="6.14231">
        <ele>341.6</ele>
        <time>2016-12-18T13:56:26Z</time>
      </trkpt>
      <trkpt lat="43.53356" lon="6.1424">
        <ele>340.9</ele>
        <time>2016-12-18T13:56:34Z</time>
      </trkpt>
      <trkpt lat="43.53364" lon="6.14252">
        <ele>339.9</ele>
        <time>2016-12-18T13:56:46Z</time>
      </trkpt>
      <trkpt lat="43.53371" lon="6.14261">
        <ele>339.4</ele>
        <time>2016-12-18T13:56:51Z</time>
      </trkpt>
      <trkpt lat="43.53379" lon="6.1427">
        <ele>339</ele>
        <time>2016-12-18T13:56:56Z</time>
      </trkpt>
      <trkpt lat="43.53386" lon="6.14279">
        <ele>338.4</ele>
        <time>2016-12-18T13:57:03Z</time>
      </trkpt>
      <trkpt lat="43.53394" lon="6.14287">
        <ele>337.7</ele>
        <time>2016-12-18T13:57:12Z</time>
      </trkpt>
      <trkpt lat="43.53396" lon="6.14299">
        <ele>337.3</ele>
        <time>2016-12-18T13:57:18Z</time>
      </trkpt>
      <trkpt lat="43.5339" lon="6.1429">
        <ele>334.7</ele>
        <time>2016-12-18T13:58:04Z</time>
      </trkpt>
      <trkpt lat="43.53387" lon="6.14302">
        <ele>334</ele>
        <time>2016-12-18T13:58:24Z</time>
      </trkpt>
      <trkpt lat="43.53383" lon="6.14314">
        <ele>333.1</ele>
        <time>2016-12-18T13:58:32Z</time>
      </trkpt>
      <trkpt lat="43.53377" lon="6.14324">
        <ele>331.5</ele>
        <time>2016-12-18T13:58:45Z</time>
      </trkpt>
      <trkpt lat="43.53364" lon="6.14342">
        <ele>329.4</ele>
        <time>2016-12-18T13:59:01Z</time>
      </trkpt>
      <trkpt lat="43.53357" lon="6.14352">
        <ele>328.2</ele>
        <time>2016-12-18T13:59:09Z</time>
      </trkpt>
      <trkpt lat="43.53348" lon="6.14353">
        <ele>325</ele>
        <time>2016-12-18T13:59:38Z</time>
      </trkpt>
      <trkpt lat="43.5334" lon="6.14345">
        <ele>324.7</ele>
        <time>2016-12-18T13:59:48Z</time>
      </trkpt>
      <trkpt lat="43.53333" lon="6.14337">
        <ele>324.7</ele>
        <time>2016-12-18T14:00:00Z</time>
      </trkpt>
      <trkpt lat="43.53335" lon="6.14349">
        <ele>325</ele>
        <time>2016-12-18T14:00:14Z</time>
      </trkpt>
      <trkpt lat="43.5334" lon="6.1436">
        <ele>325</ele>
        <time>2016-12-18T14:00:25Z</time>
      </trkpt>
      <trkpt lat="43.53348" lon="6.14367">
        <ele>324.4</ele>
        <time>2016-12-18T14:00:39Z</time>
      </trkpt>
      <trkpt lat="43.53343" lon="6.14377">
        <ele>323.3</ele>
        <time>2016-12-18T14:00:52Z</time>
      </trkpt>
      <trkpt lat="43.53336" lon="6.14388">
        <ele>323</ele>
        <time>2016-12-18T14:00:58Z</time>
      </trkpt>
      <trkpt lat="43.5333" lon="6.14398">
        <ele>322.4</ele>
        <time>2016-12-18T14:01:06Z</time>
      </trkpt>
      <trkpt lat="43.53325" lon="6.1441">
        <ele>321.9</ele>
        <time>2016-12-18T14:01:15Z</time>
      </trkpt>
      <trkpt lat="43.53322" lon="6.14422">
        <ele>321.2</ele>
        <time>2016-12-18T14:01:28Z</time>
      </trkpt>
      <trkpt lat="43.53317" lon="6.14434">
        <ele>320.7</ele>
        <time>2016-12-18T14:01:38Z</time>
      </trkpt>
      <trkpt lat="43.53313" lon="6.14446">
        <ele>320.3</ele>
        <time>2016-12-18T14:01:46Z</time>
      </trkpt>
      <trkpt lat="43.53309" lon="6.14458">
        <ele>319.3</ele>
        <time>2016-12-18T14:01:56Z</time>
      </trkpt>
      <trkpt lat="43.53306" lon="6.14471">
        <ele>318.8</ele>
        <time>2016-12-18T14:02:06Z</time>
      </trkpt>
      <trkpt lat="43.533" lon="6.1448">
        <ele>318.6</ele>
        <time>2016-12-18T14:02:12Z</time>
      </trkpt>
      <trkpt lat="43.53294" lon="6.1449">
        <ele>318.4</ele>
        <time>2016-12-18T14:02:21Z</time>
      </trkpt>
      <trkpt lat="43.53287" lon="6.14499">
        <ele>318.2</ele>
        <time>2016-12-18T14:02:34Z</time>
      </trkpt>
      <trkpt lat="43.53278" lon="6.14505">
        <ele>318.1</ele>
        <time>2016-12-18T14:02:49Z</time>
      </trkpt>
      <trkpt lat="43.53269" lon="6.14509">
        <ele>318.1</ele>
        <time>2016-12-18T14:02:57Z</time>
      </trkpt>
      <trkpt lat="43.53263" lon="6.1452">
        <ele>318.1</ele>
        <time>2016-12-18T14:03:08Z</time>
      </trkpt>
      <trkpt lat="43.53258" lon="6.14531">
        <ele>318.1</ele>
        <time>2016-12-18T14:03:16Z</time>
      </trkpt>
      <trkpt lat="43.53248" lon="6.14535">
        <ele>318.2</ele>
        <time>2016-12-18T14:03:27Z</time>
      </trkpt>
      <trkpt lat="43.53245" lon="6.14549">
        <ele>318.4</ele>
        <time>2016-12-18T14:03:33Z</time>
      </trkpt>
      <trkpt lat="43.53239" lon="6.14559">
        <ele>319.4</ele>
        <time>2016-12-18T14:03:54Z</time>
      </trkpt>
      <trkpt lat="43.53248" lon="6.14556">
        <ele>319.8</ele>
        <time>2016-12-18T14:04:02Z</time>
      </trkpt>
      <trkpt lat="43.53257" lon="6.14551">
        <ele>319.9</ele>
        <time>2016-12-18T14:04:08Z</time>
      </trkpt>
      <trkpt lat="43.53252" lon="6.14537">
        <ele>320</ele>
        <time>2016-12-18T14:04:14Z</time>
      </trkpt>
      <trkpt lat="43.53244" lon="6.1453">
        <ele>320.1</ele>
        <time>2016-12-18T14:04:17Z</time>
      </trkpt>
      <trkpt lat="43.53237" lon="6.14522">
        <ele>319.8</ele>
        <time>2016-12-18T14:04:33Z</time>
      </trkpt>
      <trkpt lat="43.53229" lon="6.14514">
        <ele>319.5</ele>
        <time>2016-12-18T14:04:39Z</time>
      </trkpt>
      <trkpt lat="43.53222" lon="6.14506">
        <ele>319.4</ele>
        <time>2016-12-18T14:04:45Z</time>
      </trkpt>
      <trkpt lat="43.53214" lon="6.14501">
        <ele>319.2</ele>
        <time>2016-12-18T14:04:52Z</time>
      </trkpt>
      <trkpt lat="43.53205" lon="6.14499">
        <ele>319</ele>
        <time>2016-12-18T14:05:02Z</time>
      </trkpt>
      <trkpt lat="43.53196" lon="6.14493">
        <ele>318.9</ele>
        <time>2016-12-18T14:05:09Z</time>
      </trkpt>
      <trkpt lat="43.53187" lon="6.1449">
        <ele>318.8</ele>
        <time>2016-12-18T14:05:18Z</time>
      </trkpt>
      <trkpt lat="43.53178" lon="6.14495">
        <ele>318.7</ele>
        <time>2016-12-18T14:05:29Z</time>
      </trkpt>
      <trkpt lat="43.53169" lon="6.145">
        <ele>318.6</ele>
        <time>2016-12-18T14:05:51Z</time>
      </trkpt>
      <trkpt lat="43.5316" lon="6.14505">
        <ele>318.5</ele>
        <time>2016-12-18T14:05:59Z</time>
      </trkpt>
      <trkpt lat="43.53151" lon="6.14506">
        <ele>318.5</ele>
        <time>2016-12-18T14:06:06Z</time>
      </trkpt>
      <trkpt lat="43.53142" lon="6.14511">
        <ele>318.4</ele>
        <time>2016-12-18T14:06:14Z</time>
      </trkpt>
      <trkpt lat="43.53132" lon="6.14509">
        <ele>318.3</ele>
        <time>2016-12-18T14:06:23Z</time>
      </trkpt>
      <trkpt lat="43.53122" lon="6.14512">
        <ele>318.1</ele>
        <time>2016-12-18T14:06:33Z</time>
      </trkpt>
      <trkpt lat="43.53112" lon="6.14516">
        <ele>318</ele>
        <time>2016-12-18T14:06:42Z</time>
      </trkpt>
      <trkpt lat="43.53102" lon="6.14519">
        <ele>318</ele>
        <time>2016-12-18T14:06:50Z</time>
      </trkpt>
      <trkpt lat="43.53093" lon="6.14523">
        <ele>318</ele>
        <time>2016-12-18T14:06:59Z</time>
      </trkpt>
      <trkpt lat="43.53084" lon="6.14526">
        <ele>317.9</ele>
        <time>2016-12-18T14:07:08Z</time>
      </trkpt>
      <trkpt lat="43.53076" lon="6.14532">
        <ele>317.9</ele>
        <time>2016-12-18T14:07:18Z</time>
      </trkpt>
      <trkpt lat="43.53067" lon="6.14536">
        <ele>317.9</ele>
        <time>2016-12-18T14:07:25Z</time>
      </trkpt>
      <trkpt lat="43.53058" lon="6.14542">
        <ele>317.7</ele>
        <time>2016-12-18T14:07:34Z</time>
      </trkpt>
      <trkpt lat="43.53051" lon="6.14552">
        <ele>317.6</ele>
        <time>2016-12-18T14:07:45Z</time>
      </trkpt>
      <trkpt lat="43.53039" lon="6.14554">
        <ele>317.6</ele>
        <time>2016-12-18T14:07:52Z</time>
      </trkpt>
      <trkpt lat="43.53029" lon="6.14557">
        <ele>317.5</ele>
        <time>2016-12-18T14:07:58Z</time>
      </trkpt>
      <trkpt lat="43.5302" lon="6.14558">
        <ele>317.5</ele>
        <time>2016-12-18T14:08:04Z</time>
      </trkpt>
      <trkpt lat="43.53011" lon="6.14562">
        <ele>317.5</ele>
        <time>2016-12-18T14:08:10Z</time>
      </trkpt>
      <trkpt lat="43.53002" lon="6.14565">
        <ele>317.5</ele>
        <time>2016-12-18T14:08:19Z</time>
      </trkpt>
      <trkpt lat="43.52999" lon="6.14577">
        <ele>317.5</ele>
        <time>2016-12-18T14:08:42Z</time>
      </trkpt>
      <trkpt lat="43.52999" lon="6.1459">
        <ele>317.5</ele>
        <time>2016-12-18T14:08:50Z</time>
      </trkpt>
      <trkpt lat="43.53001" lon="6.14604">
        <ele>317.5</ele>
        <time>2016-12-18T14:09:09Z</time>
      </trkpt>
      <trkpt lat="43.53001" lon="6.1462">
        <ele>317.5</ele>
        <time>2016-12-18T14:09:17Z</time>
      </trkpt>
      <trkpt lat="43.53" lon="6.14633">
        <ele>317.5</ele>
        <time>2016-12-18T14:09:22Z</time>
      </trkpt>
      <trkpt lat="43.53001" lon="6.14647">
        <ele>317.5</ele>
        <time>2016-12-18T14:09:33Z</time>
      </trkpt>
      <trkpt lat="43.53001" lon="6.1466">
        <ele>317.5</ele>
        <time>2016-12-18T14:09:42Z</time>
      </trkpt>
      <trkpt lat="43.53" lon="6.14672">
        <ele>317.5</ele>
        <time>2016-12-18T14:09:49Z</time>
      </trkpt>
      <trkpt lat="43.53002" lon="6.14684">
        <ele>317.6</ele>
        <time>2016-12-18T14:09:59Z</time>
      </trkpt>
      <trkpt lat="43.53003" lon="6.14697">
        <ele>317.6</ele>
        <time>2016-12-18T14:10:08Z</time>
      </trkpt>
      <trkpt lat="43.53004" lon="6.14711">
        <ele>317.6</ele>
        <time>2016-12-18T14:10:17Z</time>
      </trkpt>
      <trkpt lat="43.53005" lon="6.14724">
        <ele>317.6</ele>
        <time>2016-12-18T14:10:25Z</time>
      </trkpt>
      <trkpt lat="43.53007" lon="6.14737">
        <ele>317.7</ele>
        <time>2016-12-18T14:10:34Z</time>
      </trkpt>
      <trkpt lat="43.53007" lon="6.14751">
        <ele>317.7</ele>
        <time>2016-12-18T14:10:43Z</time>
      </trkpt>
      <trkpt lat="43.53004" lon="6.14764">
        <ele>317.7</ele>
        <time>2016-12-18T14:10:51Z</time>
      </trkpt>
      <trkpt lat="43.53" lon="6.14775">
        <ele>317.7</ele>
        <time>2016-12-18T14:10:59Z</time>
      </trkpt>
      <trkpt lat="43.52995" lon="6.14786">
        <ele>317.6</ele>
        <time>2016-12-18T14:11:10Z</time>
      </trkpt>
      <trkpt lat="43.52986" lon="6.14792">
        <ele>317.4</ele>
        <time>2016-12-18T14:11:23Z</time>
      </trkpt>
      <trkpt lat="43.52977" lon="6.14794">
        <ele>317.4</ele>
        <time>2016-12-18T14:11:30Z</time>
      </trkpt>
      <trkpt lat="43.52971" lon="6.14804">
        <ele>317.2</ele>
        <time>2016-12-18T14:11:38Z</time>
      </trkpt>
      <trkpt lat="43.52966" lon="6.14814">
        <ele>316.9</ele>
        <time>2016-12-18T14:11:51Z</time>
      </trkpt>
      <trkpt lat="43.52973" lon="6.14805">
        <ele>316.6</ele>
        <time>2016-12-18T14:14:13Z</time>
      </trkpt>
      <trkpt lat="43.52978" lon="6.14794">
        <ele>316.6</ele>
        <time>2016-12-18T14:14:23Z</time>
      </trkpt>
      <trkpt lat="43.52988" lon="6.14793">
        <ele>316.6</ele>
        <time>2016-12-18T14:14:33Z</time>
      </trkpt>
      <trkpt lat="43.52996" lon="6.14785">
        <ele>316.6</ele>
        <time>2016-12-18T14:14:57Z</time>
      </trkpt>
      <trkpt lat="43.53" lon="6.14773">
        <ele>316.7</ele>
        <time>2016-12-18T14:15:07Z</time>
      </trkpt>
      <trkpt lat="43.53003" lon="6.1476">
        <ele>316.9</ele>
        <time>2016-12-18T14:15:18Z</time>
      </trkpt>
      <trkpt lat="43.53004" lon="6.14747">
        <ele>317</ele>
        <time>2016-12-18T14:15:27Z</time>
      </trkpt>
      <trkpt lat="43.53003" lon="6.14735">
        <ele>317.1</ele>
        <time>2016-12-18T14:15:36Z</time>
      </trkpt>
      <trkpt lat="43.53001" lon="6.14721">
        <ele>317.1</ele>
        <time>2016-12-18T14:15:46Z</time>
      </trkpt>
      <trkpt lat="43.53" lon="6.14708">
        <ele>317.1</ele>
        <time>2016-12-18T14:15:55Z</time>
      </trkpt>
      <trkpt lat="43.53" lon="6.14694">
        <ele>317.1</ele>
        <time>2016-12-18T14:16:04Z</time>
      </trkpt>
      <trkpt lat="43.52997" lon="6.14681">
        <ele>317.2</ele>
        <time>2016-12-18T14:16:14Z</time>
      </trkpt>
      <trkpt lat="43.52996" lon="6.14668">
        <ele>317.5</ele>
        <time>2016-12-18T14:16:22Z</time>
      </trkpt>
      <trkpt lat="43.52995" lon="6.14655">
        <ele>317.9</ele>
        <time>2016-12-18T14:16:31Z</time>
      </trkpt>
      <trkpt lat="43.52995" lon="6.14642">
        <ele>318.1</ele>
        <time>2016-12-18T14:16:39Z</time>
      </trkpt>
      <trkpt lat="43.52995" lon="6.14629">
        <ele>318.1</ele>
        <time>2016-12-18T14:16:47Z</time>
      </trkpt>
      <trkpt lat="43.52994" lon="6.14616">
        <ele>318</ele>
        <time>2016-12-18T14:16:56Z</time>
      </trkpt>
      <trkpt lat="43.52992" lon="6.14603">
        <ele>317.8</ele>
        <time>2016-12-18T14:17:06Z</time>
      </trkpt>
      <trkpt lat="43.52983" lon="6.14604">
        <ele>317.7</ele>
        <time>2016-12-18T14:17:22Z</time>
      </trkpt>
      <trkpt lat="43.52976" lon="6.14614">
        <ele>317.7</ele>
        <time>2016-12-18T14:17:31Z</time>
      </trkpt>
      <trkpt lat="43.5297" lon="6.14623">
        <ele>317.7</ele>
        <time>2016-12-18T14:17:40Z</time>
      </trkpt>
      <trkpt lat="43.52962" lon="6.1463">
        <ele>317.6</ele>
        <time>2016-12-18T14:17:49Z</time>
      </trkpt>
      <trkpt lat="43.52955" lon="6.14641">
        <ele>317.4</ele>
        <time>2016-12-18T14:17:56Z</time>
      </trkpt>
      <trkpt lat="43.52949" lon="6.14651">
        <ele>317.1</ele>
        <time>2016-12-18T14:18:06Z</time>
      </trkpt>
      <trkpt lat="43.52943" lon="6.1466">
        <ele>316.4</ele>
        <time>2016-12-18T14:18:16Z</time>
      </trkpt>
      <trkpt lat="43.52936" lon="6.14668">
        <ele>314.9</ele>
        <time>2016-12-18T14:18:31Z</time>
      </trkpt>
      <trkpt lat="43.5293" lon="6.14678">
        <ele>313.2</ele>
        <time>2016-12-18T14:18:44Z</time>
      </trkpt>
      <trkpt lat="43.52927" lon="6.14691">
        <ele>311</ele>
        <time>2016-12-18T14:19:02Z</time>
      </trkpt>
      <trkpt lat="43.52919" lon="6.14695">
        <ele>307.7</ele>
        <time>2016-12-18T14:19:24Z</time>
      </trkpt>
      <trkpt lat="43.5291" lon="6.14689">
        <ele>305</ele>
        <time>2016-12-18T14:19:39Z</time>
      </trkpt>
      <trkpt lat="43.52909" lon="6.14693">
        <ele>298.1</ele>
        <time>2016-12-18T14:20:27Z</time>
      </trkpt>
      <trkpt lat="43.52905" lon="6.14701">
        <ele>283.4</ele>
        <time>2016-12-18T14:21:54Z</time>
      </trkpt>
      <trkpt lat="43.529" lon="6.14716">
        <ele>282.8</ele>
        <time>2016-12-18T14:21:57Z</time>
      </trkpt>
      <trkpt lat="43.52902" lon="6.14733">
        <ele>280</ele>
        <time>2016-12-18T14:22:10Z</time>
      </trkpt>
      <trkpt lat="43.52901" lon="6.14746">
        <ele>279</ele>
        <time>2016-12-18T14:22:28Z</time>
      </trkpt>
      <trkpt lat="43.52896" lon="6.14762">
        <ele>277.2</ele>
        <time>2016-12-18T14:22:42Z</time>
      </trkpt>
      <trkpt lat="43.52893" lon="6.14776">
        <ele>275.3</ele>
        <time>2016-12-18T14:22:52Z</time>
      </trkpt>
      <trkpt lat="43.52893" lon="6.14789">
        <ele>270.6</ele>
        <time>2016-12-18T14:23:25Z</time>
      </trkpt>
      <trkpt lat="43.52899" lon="6.14799">
        <ele>269.2</ele>
        <time>2016-12-18T14:23:36Z</time>
      </trkpt>
      <trkpt lat="43.52894" lon="6.14813">
        <ele>268</ele>
        <time>2016-12-18T14:23:45Z</time>
      </trkpt>
      <trkpt lat="43.52897" lon="6.14826">
        <ele>266.5</ele>
        <time>2016-12-18T14:23:59Z</time>
      </trkpt>
      <trkpt lat="43.52894" lon="6.14838">
        <ele>265.4</ele>
        <time>2016-12-18T14:24:13Z</time>
      </trkpt>
      <trkpt lat="43.52889" lon="6.14849">
        <ele>264.7</ele>
        <time>2016-12-18T14:24:28Z</time>
      </trkpt>
      <trkpt lat="43.52888" lon="6.14862">
        <ele>263.7</ele>
        <time>2016-12-18T14:25:22Z</time>
      </trkpt>
      <trkpt lat="43.52906" lon="6.14834">
        <ele>263</ele>
        <time>2016-12-18T14:26:18Z</time>
      </trkpt>
      <trkpt lat="43.52916" lon="6.14835">
        <ele>262</ele>
        <time>2016-12-18T14:26:36Z</time>
      </trkpt>
      <trkpt lat="43.52914" lon="6.1485">
        <ele>261</ele>
        <time>2016-12-18T14:26:44Z</time>
      </trkpt>
      <trkpt lat="43.52922" lon="6.14859">
        <ele>260</ele>
        <time>2016-12-18T14:26:56Z</time>
      </trkpt>
      <trkpt lat="43.52913" lon="6.14858">
        <ele>254.6</ele>
        <time>2016-12-18T14:27:39Z</time>
      </trkpt>
      <trkpt lat="43.52901" lon="6.14863">
        <ele>252</ele>
        <time>2016-12-18T14:27:45Z</time>
      </trkpt>
      <trkpt lat="43.52892" lon="6.14884">
        <ele>251</ele>
        <time>2016-12-18T14:27:54Z</time>
      </trkpt>
      <trkpt lat="43.5289" lon="6.14897">
        <ele>249.8</ele>
        <time>2016-12-18T14:28:03Z</time>
      </trkpt>
      <trkpt lat="43.52896" lon="6.14883">
        <ele>248.6</ele>
        <time>2016-12-18T14:28:14Z</time>
      </trkpt>
      <trkpt lat="43.52897" lon="6.1487">
        <ele>248.2</ele>
        <time>2016-12-18T14:28:20Z</time>
      </trkpt>
      <trkpt lat="43.5291" lon="6.14849">
        <ele>246</ele>
        <time>2016-12-18T14:28:53Z</time>
      </trkpt>
      <trkpt lat="43.52918" lon="6.14844">
        <ele>246.7</ele>
        <time>2016-12-18T14:28:59Z</time>
      </trkpt>
      <trkpt lat="43.52927" lon="6.1484">
        <ele>246.4</ele>
        <time>2016-12-18T14:29:06Z</time>
      </trkpt>
      <trkpt lat="43.52925" lon="6.14852">
        <ele>244.3</ele>
        <time>2016-12-18T14:29:32Z</time>
      </trkpt>
      <trkpt lat="43.52923" lon="6.14866">
        <ele>243.3</ele>
        <time>2016-12-18T14:29:39Z</time>
      </trkpt>
      <trkpt lat="43.5292" lon="6.14878">
        <ele>242.1</ele>
        <time>2016-12-18T14:29:48Z</time>
      </trkpt>
      <trkpt lat="43.5292" lon="6.14892">
        <ele>240.5</ele>
        <time>2016-12-18T14:30:00Z</time>
      </trkpt>
      <trkpt lat="43.52919" lon="6.14906">
        <ele>239.8</ele>
        <time>2016-12-18T14:30:07Z</time>
      </trkpt>
      <trkpt lat="43.52908" lon="6.14912">
        <ele>238.5</ele>
        <time>2016-12-18T14:30:17Z</time>
      </trkpt>
      <trkpt lat="43.52899" lon="6.14909">
        <ele>237.9</ele>
        <time>2016-12-18T14:30:24Z</time>
      </trkpt>
      <trkpt lat="43.5289" lon="6.14904">
        <ele>237.2</ele>
        <time>2016-12-18T14:30:33Z</time>
      </trkpt>
      <trkpt lat="43.52882" lon="6.14894">
        <ele>236.7</ele>
        <time>2016-12-18T14:30:39Z</time>
      </trkpt>
      <trkpt lat="43.52873" lon="6.14886">
        <ele>235.9</ele>
        <time>2016-12-18T14:30:46Z</time>
      </trkpt>
      <trkpt lat="43.52864" lon="6.14881">
        <ele>235.4</ele>
        <time>2016-12-18T14:30:52Z</time>
      </trkpt>
      <trkpt lat="43.52856" lon="6.14875">
        <ele>234.8</ele>
        <time>2016-12-18T14:31:00Z</time>
      </trkpt>
      <trkpt lat="43.52848" lon="6.14867">
        <ele>234.3</ele>
        <time>2016-12-18T14:31:06Z</time>
      </trkpt>
      <trkpt lat="43.52838" lon="6.14867">
        <ele>233.9</ele>
        <time>2016-12-18T14:31:14Z</time>
      </trkpt>
      <trkpt lat="43.52828" lon="6.14865">
        <ele>233.4</ele>
        <time>2016-12-18T14:31:23Z</time>
      </trkpt>
      <trkpt lat="43.52819" lon="6.14867">
        <ele>232.9</ele>
        <time>2016-12-18T14:31:30Z</time>
      </trkpt>
      <trkpt lat="43.5281" lon="6.14864">
        <ele>232.3</ele>
        <time>2016-12-18T14:31:39Z</time>
      </trkpt>
      <trkpt lat="43.52821" lon="6.14901">
        <ele>229</ele>
        <time>2016-12-18T14:33:01Z</time>
      </trkpt>
      <trkpt lat="43.52813" lon="6.1491">
        <ele>229.3</ele>
        <time>2016-12-18T14:33:11Z</time>
      </trkpt>
      <trkpt lat="43.52804" lon="6.14914">
        <ele>228.9</ele>
        <time>2016-12-18T14:33:21Z</time>
      </trkpt>
      <trkpt lat="43.52795" lon="6.14917">
        <ele>228.6</ele>
        <time>2016-12-18T14:33:27Z</time>
      </trkpt>
      <trkpt lat="43.52783" lon="6.14916">
        <ele>228.1</ele>
        <time>2016-12-18T14:33:35Z</time>
      </trkpt>
      <trkpt lat="43.52774" lon="6.14919">
        <ele>227.7</ele>
        <time>2016-12-18T14:33:40Z</time>
      </trkpt>
      <trkpt lat="43.52766" lon="6.14923">
        <ele>226.9</ele>
        <time>2016-12-18T14:33:51Z</time>
      </trkpt>
      <trkpt lat="43.52757" lon="6.14918">
        <ele>226.2</ele>
        <time>2016-12-18T14:34:01Z</time>
      </trkpt>
      <trkpt lat="43.52752" lon="6.14929">
        <ele>224.5</ele>
        <time>2016-12-18T14:34:31Z</time>
      </trkpt>
      <trkpt lat="43.52743" lon="6.14926">
        <ele>224.2</ele>
        <time>2016-12-18T14:34:38Z</time>
      </trkpt>
      <trkpt lat="43.5274" lon="6.14939">
        <ele>223.7</ele>
        <time>2016-12-18T14:34:48Z</time>
      </trkpt>
      <trkpt lat="43.52731" lon="6.14949">
        <ele>223.3</ele>
        <time>2016-12-18T14:34:59Z</time>
      </trkpt>
      <trkpt lat="43.5272" lon="6.14947">
        <ele>223.2</ele>
        <time>2016-12-18T14:35:01Z</time>
      </trkpt>
      <trkpt lat="43.52712" lon="6.14941">
        <ele>223</ele>
        <time>2016-12-18T14:35:04Z</time>
      </trkpt>
      <trkpt lat="43.52702" lon="6.14938">
        <ele>222.1</ele>
        <time>2016-12-18T14:35:26Z</time>
      </trkpt>
      <trkpt lat="43.52693" lon="6.14935">
        <ele>221.8</ele>
        <time>2016-12-18T14:35:37Z</time>
      </trkpt>
      <trkpt lat="43.52684" lon="6.1493">
        <ele>221.4</ele>
        <time>2016-12-18T14:35:46Z</time>
      </trkpt>
      <trkpt lat="43.52677" lon="6.14939">
        <ele>220.6</ele>
        <time>2016-12-18T14:35:58Z</time>
      </trkpt>
      <trkpt lat="43.52667" lon="6.14936">
        <ele>220.1</ele>
        <time>2016-12-18T14:36:06Z</time>
      </trkpt>
      <trkpt lat="43.52658" lon="6.14937">
        <ele>219.3</ele>
        <time>2016-12-18T14:36:16Z</time>
      </trkpt>
      <trkpt lat="43.5265" lon="6.14941">
        <ele>217.9</ele>
        <time>2016-12-18T14:36:32Z</time>
      </trkpt>
      <trkpt lat="43.5264" lon="6.14937">
        <ele>217.5</ele>
        <time>2016-12-18T14:36:36Z</time>
      </trkpt>
      <trkpt lat="43.5263" lon="6.14936">
        <ele>217.1</ele>
        <time>2016-12-18T14:36:41Z</time>
      </trkpt>
      <trkpt lat="43.52621" lon="6.14928">
        <ele>216.6</ele>
        <time>2016-12-18T14:36:47Z</time>
      </trkpt>
      <trkpt lat="43.52612" lon="6.14928">
        <ele>216</ele>
        <time>2016-12-18T14:36:53Z</time>
      </trkpt>
      <trkpt lat="43.52605" lon="6.14919">
        <ele>215.5</ele>
        <time>2016-12-18T14:36:57Z</time>
      </trkpt>
      <trkpt lat="43.52597" lon="6.14912">
        <ele>214.6</ele>
        <time>2016-12-18T14:37:04Z</time>
      </trkpt>
      <trkpt lat="43.5259" lon="6.14904">
        <ele>213.7</ele>
        <time>2016-12-18T14:37:12Z</time>
      </trkpt>
      <trkpt lat="43.5259" lon="6.14891">
        <ele>213</ele>
        <time>2016-12-18T14:37:19Z</time>
      </trkpt>
      <trkpt lat="43.52588" lon="6.14876">
        <ele>212.2</ele>
        <time>2016-12-18T14:37:26Z</time>
      </trkpt>
      <trkpt lat="43.52578" lon="6.14876">
        <ele>211.6</ele>
        <time>2016-12-18T14:37:34Z</time>
      </trkpt>
      <trkpt lat="43.52569" lon="6.14876">
        <ele>211.2</ele>
        <time>2016-12-18T14:37:41Z</time>
      </trkpt>
      <trkpt lat="43.52565" lon="6.14889">
        <ele>210.5</ele>
        <time>2016-12-18T14:37:55Z</time>
      </trkpt>
      <trkpt lat="43.52563" lon="6.14902">
        <ele>210.3</ele>
        <time>2016-12-18T14:38:01Z</time>
      </trkpt>
      <trkpt lat="43.52563" lon="6.14915">
        <ele>210.2</ele>
        <time>2016-12-18T14:38:07Z</time>
      </trkpt>
      <trkpt lat="43.52555" lon="6.14924">
        <ele>210.1</ele>
        <time>2016-12-18T14:38:11Z</time>
      </trkpt>
      <trkpt lat="43.52545" lon="6.14926">
        <ele>209.9</ele>
        <time>2016-12-18T14:38:19Z</time>
      </trkpt>
      <trkpt lat="43.52535" lon="6.14924">
        <ele>209.9</ele>
        <time>2016-12-18T14:38:27Z</time>
      </trkpt>
      <trkpt lat="43.5253" lon="6.14935">
        <ele>210</ele>
        <time>2016-12-18T14:38:36Z</time>
      </trkpt>
      <trkpt lat="43.52526" lon="6.14947">
        <ele>210</ele>
        <time>2016-12-18T14:38:43Z</time>
      </trkpt>
      <trkpt lat="43.5252" lon="6.14957">
        <ele>209.7</ele>
        <time>2016-12-18T14:38:52Z</time>
      </trkpt>
      <trkpt lat="43.52513" lon="6.14968">
        <ele>210.5</ele>
        <time>2016-12-18T14:39:05Z</time>
      </trkpt>
      <trkpt lat="43.52505" lon="6.14976">
        <ele>210.8</ele>
        <time>2016-12-18T14:39:14Z</time>
      </trkpt>
      <trkpt lat="43.52497" lon="6.14983">
        <ele>210.8</ele>
        <time>2016-12-18T14:39:23Z</time>
      </trkpt>
      <trkpt lat="43.52494" lon="6.14995">
        <ele>210.5</ele>
        <time>2016-12-18T14:39:35Z</time>
      </trkpt>
      <trkpt lat="43.52487" lon="6.15005">
        <ele>210</ele>
        <time>2016-12-18T14:39:42Z</time>
      </trkpt>
      <trkpt lat="43.5248" lon="6.15014">
        <ele>209.2</ele>
        <time>2016-12-18T14:39:49Z</time>
      </trkpt>
      <trkpt lat="43.52476" lon="6.15022">
        <ele>205.8</ele>
        <time>2016-12-18T14:40:38Z</time>
      </trkpt>
    </trkseg>
  </trk>
</gpx>